BA2277 / G-YMMB 7700 Squawk Report (20th of January, 2020)

Aircraft B772 Reg No. G-YMMB Age 20 years old
Model 777 Jet engines 2 First flight 07-01-00
Registered 18-01-00 Rollout N/A Delivered 18-01-00
Construction No. 30303 Line No. 0265 Series 236(ER)
ADSHEX 4007ED Airline name British Airways Owner N/A
Airfield based Heathrow~Gtr London~G First tracked 2017-07-13 16:36:00

Flight history for G-YMMB

Time Lat Lon Altitude Heading Speed Vertical Rate
2020-01-20 19:50:11 GMT 36.077053 -115.133873 0 5 11 0
2020-01-20 19:48:59 GMT 36.076401 -115.141365 0 90 30 0
2020-01-20 19:48:48 GMT 36.076401 -115.143173 0 90 30 0
2020-01-20 19:48:19 GMT 36.076401 -115.147560 0 90 23 0
2020-01-20 19:48:14 GMT 36.076401 -115.148315 0 90 22 0
2020-01-20 19:48:06 GMT 36.076401 -115.149239 0 90 20 0
2020-01-20 19:47:11 GMT 36.075474 -115.151421 0 326 11 0
2020-01-20 19:47:05 GMT 36.075211 -115.151199 0 317 11 0
2020-01-20 19:46:53 GMT 36.074810 -115.150711 0 303 12 0
2020-01-20 19:46:44 GMT 36.074516 -115.150085 0 298 14 0
2020-01-20 19:46:32 GMT 36.074181 -115.149307 0 292 15 0
2020-01-20 19:46:23 GMT 36.073883 -115.148361 0 284 23 0
2020-01-20 19:46:09 GMT 36.073666 -115.146202 0 270 39 0
2020-01-20 19:46:01 GMT 36.073654 -115.144173 0 270 70 0
2020-01-20 19:45:50 GMT 36.073654 -115.138527 1,850 270 120 0
2020-01-20 19:45:36 GMT 36.073654 -115.127716 1,875 270 142 -384
2020-01-20 19:45:31 GMT 36.073654 -115.122345 1,975 270 142 -640
2020-01-20 19:45:19 GMT 36.073654 -115.113930 2,100 271 141 -768
2020-01-20 19:45:10 GMT 36.073654 -115.105537 2,225 270 142 -768
2020-01-20 19:45:04 GMT 36.073654 -115.101868 2,300 270 142 -896
2020-01-20 19:44:58 GMT 36.073654 -115.096977 2,375 270 141 -640
2020-01-20 19:44:53 GMT 36.073654 -115.092712 2,425 270 142 -704
2020-01-20 19:44:49 GMT 36.073654 -115.088799 2,500 270 142 -768
2020-01-20 19:44:42 GMT 36.073654 -115.083656 2,575 270 141 -768
2020-01-20 19:44:37 GMT 36.073654 -115.079674 2,625 270 143 -704
2020-01-20 19:44:33 GMT 36.073654 -115.076180 2,675 270 145 -832
2020-01-20 19:44:28 GMT 36.073700 -115.071716 2,775 270 147 -768
2020-01-20 19:44:22 GMT 36.073654 -115.067200 2,825 271 148 -768
2020-01-20 19:44:17 GMT 36.073654 -115.062843 2,900 270 151 -832
2020-01-20 19:44:12 GMT 36.073654 -115.058617 2,975 270 154 -704
2020-01-20 19:44:07 GMT 36.073654 -115.052979 3,025 270 161 -960
2020-01-20 19:44:01 GMT 36.073654 -115.049004 3,125 271 167 -1088
2020-01-20 19:43:56 GMT 36.073654 -115.043686 3,200 271 169 -896
2020-01-20 19:43:51 GMT 36.073654 -115.038589 3,300 270 172 -960
2020-01-20 19:43:46 GMT 36.073654 -115.032974 3,375 270 172 -896
2020-01-20 19:43:41 GMT 36.073654 -115.028610 3,450 270 174 -896
2020-01-20 19:43:35 GMT 36.073654 -115.023026 3,525 270 176 -896
2020-01-20 19:43:30 GMT 36.073654 -115.018105 3,600 270 178 -960
2020-01-20 19:43:25 GMT 36.073654 -115.012245 3,700 271 182 -960
2020-01-20 19:43:20 GMT 36.073654 -115.007057 3,775 271 185 -1024
2020-01-20 19:43:13 GMT 36.073654 -115.000908 3,875 270 189 -1088
2020-01-20 19:43:09 GMT 36.073654 -114.995941 3,950 271 192 -1088
2020-01-20 19:43:03 GMT 36.073608 -114.989517 4,075 271 196 -1152
2020-01-20 19:42:59 GMT 36.073608 -114.984016 4,150 270 200 -1024
2020-01-20 19:42:53 GMT 36.073654 -114.978104 4,250 270 204 -1152
2020-01-20 19:42:48 GMT 36.073654 -114.971870 4,350 270 205 -1216
2020-01-20 19:42:43 GMT 36.073654 -114.965965 4,450 271 204 -1152
2020-01-20 19:42:38 GMT 36.073608 -114.959564 4,550 271 204 -1088
2020-01-20 19:42:33 GMT 36.073563 -114.953110 4,650 271 204 -1088
2020-01-20 19:42:27 GMT 36.073563 -114.947556 4,750 270 202 -1088
2020-01-20 19:42:22 GMT 36.073563 -114.941650 4,850 270 202 -1088
2020-01-20 19:42:17 GMT 36.073563 -114.934990 4,950 270 201 -1152
2020-01-20 19:42:12 GMT 36.073563 -114.929642 5,025 271 201 -1152
2020-01-20 19:42:06 GMT 36.073563 -114.923012 5,125 271 202 -1152
2020-01-20 19:42:00 GMT 36.073517 -114.917107 5,250 271 204 -1088
2020-01-20 19:41:56 GMT 36.073517 -114.910858 5,350 270 205 -1088
2020-01-20 19:41:51 GMT 36.073517 -114.904900 5,425 271 207 -1152
2020-01-20 19:41:44 GMT 36.073517 -114.898277 5,550 270 210 -1088
2020-01-20 19:41:38 GMT 36.073517 -114.890114 5,700 270 210 -1152
2020-01-20 19:41:35 GMT 36.073517 -114.886093 5,750 271 209 -1152
2020-01-20 19:41:30 GMT 36.073517 -114.879768 5,875 270 210 -1024
2020-01-20 19:41:23 GMT 36.073517 -114.873222 5,925 270 214 -1088
2020-01-20 19:41:14 GMT 36.073467 -114.859901 6,150 271 223 -1152
2020-01-20 19:41:08 GMT 36.073421 -114.852707 6,250 271 227 -1216
2020-01-20 19:41:03 GMT 36.073421 -114.846809 6,350 271 231 -1280
2020-01-20 19:40:58 GMT 36.073376 -114.840324 6,450 271 236 -1408
2020-01-20 19:40:51 GMT 36.073284 -114.830093 6,650 271 240 -1536
2020-01-20 19:40:48 GMT 36.073242 -114.825729 6,725 271 243 -1664
2020-01-20 19:40:42 GMT 36.073151 -114.818001 6,875 272 244 -1664
2020-01-20 19:40:35 GMT 36.073002 -114.809288 7,050 271 247 -1728
2020-01-20 19:40:32 GMT 36.072876 -114.802895 7,175 271 247 -1728
2020-01-20 19:40:20 GMT 36.072769 -114.788193 7,475 270 243 -1408
2020-01-20 19:40:15 GMT 36.072784 -114.781265 7,575 270 241 -1152
2020-01-20 19:40:10 GMT 36.072865 -114.773064 7,675 270 239 -896
2020-01-20 19:39:59 GMT 36.073284 -114.758621 7,750 267 237 -128
2020-01-20 19:39:49 GMT 36.074448 -114.745651 7,750 261 234 0
2020-01-20 19:39:38 GMT 36.077240 -114.731041 7,750 251 234 64
2020-01-20 19:39:28 GMT 36.082455 -114.719475 7,750 232 232 -64
2020-01-20 19:39:18 GMT 36.091003 -114.709167 7,775 221 237 -192
2020-01-20 19:39:06 GMT 36.099701 -114.700012 7,725 221 254 128
2020-01-20 19:38:56 GMT 36.110733 -114.688454 7,750 221 266 0
2020-01-20 19:38:46 GMT 36.119137 -114.679794 7,750 221 266 64
2020-01-20 19:38:36 GMT 36.129501 -114.668938 7,750 221 266 64
2020-01-20 19:38:25 GMT 36.138885 -114.659157 7,750 221 266 0
2020-01-20 19:38:15 GMT 36.149117 -114.648468 7,750 221 266 -256
2020-01-20 19:38:09 GMT 36.154587 -114.642792 7,800 221 264 -640
2020-01-20 19:38:04 GMT 36.158752 -114.638474 7,850 221 266 -896
2020-01-20 19:38:00 GMT 36.162708 -114.634331 7,925 221 266 -1344
2020-01-20 19:37:54 GMT 36.169373 -114.627396 8,075 221 266 -1344
2020-01-20 19:37:49 GMT 36.172298 -114.624275 8,150 221 266 -1472
2020-01-20 19:37:43 GMT 36.178722 -114.617615 8,325 221 266 -1536
2020-01-20 19:37:38 GMT 36.183285 -114.612885 8,450 221 266 -1536
2020-01-20 19:37:33 GMT 36.188416 -114.607491 8,575 221 266 -1536
2020-01-20 19:37:27 GMT 36.194504 -114.601074 8,750 221 266 -1536
2020-01-20 19:37:22 GMT 36.198395 -114.597076 8,850 220 266 -1664
2020-01-20 19:37:17 GMT 36.202606 -114.592720 8,975 220 264 -1728
2020-01-20 19:37:12 GMT 36.208611 -114.586464 9,150 221 264 -1536
2020-01-20 19:37:08 GMT 36.211914 -114.583023 9,250 221 264 -1472
2020-01-20 19:37:00 GMT 36.218388 -114.576241 9,400 221 265 -1408
2020-01-20 19:36:57 GMT 36.221504 -114.572906 9,475 221 265 -1408
2020-01-20 19:36:51 GMT 36.227966 -114.566116 9,650 221 265 -1216
2020-01-20 19:36:46 GMT 36.231354 -114.562508 9,700 221 267 -896
2020-01-20 19:36:39 GMT 36.238037 -114.555412 9,800 221 268 -704
2020-01-20 19:36:36 GMT 36.241196 -114.552094 9,825 221 268 -704
2020-01-20 19:36:30 GMT 36.248039 -114.544861 9,900 221 270 -704
2020-01-20 19:36:25 GMT 36.251904 -114.540771 9,950 221 271 -704
2020-01-20 19:36:16 GMT 36.261475 -114.530807 10,075 221 272 -704
2020-01-20 19:36:12 GMT 36.264359 -114.527779 10,125 221 271 -704
2020-01-20 19:36:09 GMT 36.268066 -114.523888 10,150 221 272 -704
2020-01-20 19:36:05 GMT 36.271175 -114.520668 10,200 221 272 -704
2020-01-20 19:35:59 GMT 36.277927 -114.513596 10,275 221 273 -704
2020-01-20 19:35:55 GMT 36.281845 -114.509521 10,325 221 273 -704
2020-01-20 19:35:48 GMT 36.288620 -114.502373 10,425 221 275 -832
2020-01-20 19:35:44 GMT 36.291615 -114.499222 10,475 221 274 -896
2020-01-20 19:35:40 GMT 36.295803 -114.494896 10,525 220 271 -832
2020-01-20 19:35:34 GMT 36.301987 -114.488869 10,625 217 270 -1344
2020-01-20 19:35:26 GMT 36.309441 -114.482391 10,800 213 269 -1472
2020-01-20 19:35:22 GMT 36.312840 -114.479759 10,900 211 269 -1408
2020-01-20 19:35:13 GMT 36.324051 -114.472099 11,100 206 270 -960
2020-01-20 19:35:05 GMT 36.332394 -114.467491 11,200 203 270 -960
2020-01-20 19:35:01 GMT 36.336815 -114.465263 11,275 202 270 -960
2020-01-20 19:34:55 GMT 36.344650 -114.461403 11,375 202 269 -960
2020-01-20 19:34:51 GMT 36.348408 -114.459541 11,425 202 269 -896
2020-01-20 19:34:44 GMT 36.357239 -114.455109 11,550 203 270 -896
2020-01-20 19:34:38 GMT 36.364014 -114.451675 11,650 203 272 -704
2020-01-20 19:34:34 GMT 36.369003 -114.449097 11,700 203 272 -704
2020-01-20 19:34:27 GMT 36.375824 -114.445610 11,750 202 279 -384
2020-01-20 19:34:23 GMT 36.381729 -114.442574 11,775 202 278 -384
2020-01-20 19:34:19 GMT 36.387039 -114.440002 11,825 202 280 -512
2020-01-20 19:34:13 GMT 36.394073 -114.436455 11,875 203 286 -512
2020-01-20 19:33:59 GMT 36.411392 -114.426270 11,975 210 296 -512
2020-01-20 19:33:52 GMT 36.419632 -114.419174 12,050 220 304 -512
2020-01-20 19:33:40 GMT 36.431259 -114.406700 12,125 222 312 -448
2020-01-20 19:33:37 GMT 36.436020 -114.401512 12,150 222 318 -448
2020-01-20 19:33:31 GMT 36.442566 -114.394341 12,200 222 323 -512
2020-01-20 19:33:26 GMT 36.447422 -114.389061 12,250 222 325 -576
2020-01-20 19:33:20 GMT 36.454376 -114.381409 12,325 222 331 -960
2020-01-20 19:33:15 GMT 36.460373 -114.374825 12,425 222 333 -1216
2020-01-20 19:33:10 GMT 36.466461 -114.368141 12,550 222 336 -1664
2020-01-20 19:32:57 GMT 36.481659 -114.351479 13,000 222 338 -2176
2020-01-20 19:32:48 GMT 36.491833 -114.340385 13,300 222 340 -2112
2020-01-20 19:32:37 GMT 36.503860 -114.327225 13,675 222 342 -2112
2020-01-20 19:32:28 GMT 36.516403 -114.313431 14,050 222 342 -2304
2020-01-20 19:32:17 GMT 36.528397 -114.300323 14,475 222 341 -2304
2020-01-20 19:32:07 GMT 36.543915 -114.283279 14,925 222 349 -2176
2020-01-20 19:31:55 GMT 36.554401 -114.271782 15,250 222 349 -2176
2020-01-20 19:31:51 GMT 36.559521 -114.266113 15,400 222 352 -2176
2020-01-20 19:31:46 GMT 36.566502 -114.258453 15,600 222 359 -2240
2020-01-20 19:31:40 GMT 36.573212 -114.251122 15,800 222 363 -2304
2020-01-20 19:31:35 GMT 36.579586 -114.244141 16,000 222 367 -2368
2020-01-20 19:31:24 GMT 36.593948 -114.228516 16,450 222 376 -2432
2020-01-20 19:31:14 GMT 36.606911 -114.214394 16,850 222 376 -2368
2020-01-20 19:31:03 GMT 36.634331 -114.184181 17,825 223 370 -2304
2020-01-20 19:30:52 GMT 36.634331 -114.184181 17,675 223 370 -2368
2020-01-20 19:30:42 GMT 36.647552 -114.169159 18,100 223 368 -2304
2020-01-20 19:30:32 GMT 36.660690 -114.154358 18,500 223 365 -2304
2020-01-20 19:30:21 GMT 36.673645 -114.139648 18,875 223 361 -2304
2020-01-20 19:30:15 GMT 36.681656 -114.130608 19,125 223 360 -2368
2020-01-20 19:30:11 GMT 36.686935 -114.124687 19,300 223 358 -2176
2020-01-20 19:29:59 GMT 36.701736 -114.107918 19,700 223 356 -1792
2020-01-20 19:29:53 GMT 36.709045 -114.099625 19,875 223 356 -1344
2020-01-20 19:29:50 GMT 36.714706 -114.093185 19,975 223 356 -1088
2020-01-20 19:29:42 GMT 36.720963 -114.086121 20,050 223 357 -960
2020-01-20 19:29:38 GMT 36.736000 -114.069061 20,150 223 357 -896
2020-01-20 19:29:31 GMT 36.736000 -114.069061 20,625 223 358 -1024
2020-01-20 19:29:28 GMT 36.739025 -114.065666 20,300 223 358 -896
2020-01-20 19:29:22 GMT 36.745914 -114.057777 20,375 223 358 -960
2020-01-20 19:29:16 GMT 36.753876 -114.048836 20,500 223 358 -1088
2020-01-20 19:29:12 GMT 36.759415 -114.042526 20,575 223 358 -1152
2020-01-20 19:29:08 GMT 36.763870 -114.037514 20,650 223 358 -1024
2020-01-20 19:28:57 GMT 36.782135 -114.016853 20,900 223 358 -1024
2020-01-20 19:28:50 GMT 36.785889 -114.012680 20,950 223 358 -1024
2020-01-20 19:28:46 GMT 36.791538 -114.006233 21,025 223 359 -960
2020-01-20 19:28:39 GMT 36.798248 -113.998657 21,100 223 359 -832
2020-01-20 19:28:35 GMT 36.803593 -113.992622 21,175 223 364 -448
2020-01-20 19:28:30 GMT 36.811134 -113.984032 21,200 223 361 -512
2020-01-20 19:28:26 GMT 36.816071 -113.978424 21,250 223 363 -512
2020-01-20 19:28:18 GMT 36.824635 -113.968658 21,300 223 365 -448
2020-01-20 19:28:14 GMT 36.829147 -113.963531 21,325 223 366 -448
2020-01-20 19:28:09 GMT 36.837204 -113.954346 21,375 223 368 -512
2020-01-20 19:28:05 GMT 36.841862 -113.949028 21,400 223 369 -512
2020-01-20 19:27:57 GMT 36.850479 -113.939148 21,475 223 371 -512
2020-01-20 19:27:52 GMT 36.857269 -113.931389 21,500 223 373 -512
2020-01-20 19:27:44 GMT 36.868767 -113.918312 21,600 223 375 -576
2020-01-20 19:27:36 GMT 36.878216 -113.907440 21,650 223 378 -576
2020-01-20 19:27:33 GMT 36.882175 -113.902908 21,700 223 379 -576
2020-01-20 19:27:27 GMT 36.890739 -113.893051 21,750 223 382 -768
2020-01-20 19:27:22 GMT 36.896793 -113.886131 21,825 223 382 -704
2020-01-20 19:27:17 GMT 36.903076 -113.878906 21,875 223 385 -576
2020-01-20 19:27:11 GMT 36.910355 -113.870544 21,925 223 387 -512
2020-01-20 19:27:07 GMT 36.917450 -113.862305 21,950 223 388 -384
2020-01-20 19:27:01 GMT 36.924225 -113.854530 21,975 223 389 -192
2020-01-20 19:26:56 GMT 36.930405 -113.847343 22,000 223 389 -64
2020-01-20 19:26:50 GMT 36.937710 -113.838959 22,000 223 391 0
2020-01-20 19:26:46 GMT 36.944641 -113.830925 22,000 223 391 0
2020-01-20 19:26:40 GMT 36.953156 -113.821106 22,000 223 391 0
2020-01-20 19:26:33 GMT 36.961128 -113.811913 22,000 223 391 0
2020-01-20 19:26:29 GMT 36.965736 -113.806595 22,000 223 391 0
2020-01-20 19:26:24 GMT 36.974213 -113.796852 22,000 223 392 0
2020-01-20 19:26:18 GMT 36.980438 -113.789726 22,000 223 392 0
2020-01-20 19:26:12 GMT 36.994217 -113.774300 22,000 221 390 -64
2020-01-20 19:26:03 GMT 37.002548 -113.765472 22,000 220 390 0
2020-01-20 19:25:57 GMT 37.008984 -113.758827 22,000 219 389 0
2020-01-20 19:25:54 GMT 37.015320 -113.752556 22,000 218 389 0
2020-01-20 19:25:46 GMT 37.025894 -113.742508 22,000 217 388 0
2020-01-20 19:25:41 GMT 37.032349 -113.736664 22,000 216 388 0
2020-01-20 19:25:36 GMT 37.039333 -113.730469 22,000 215 387 0
2020-01-20 19:25:33 GMT 37.050568 -113.721062 22,000 214 387 -64
2020-01-20 19:25:27 GMT 37.054504 -113.717850 22,000 213 387 0
2020-01-20 19:25:22 GMT 37.061401 -113.712379 22,000 213 387 64
2020-01-20 19:25:19 GMT 37.064941 -113.709549 22,000 212 388 64
2020-01-20 19:25:15 GMT 37.070984 -113.704872 22,000 212 387 128
2020-01-20 19:25:10 GMT 37.080627 -113.697449 21,975 212 387 192
2020-01-20 19:24:59 GMT 37.096298 -113.685356 21,975 212 387 -256
2020-01-20 19:24:49 GMT 37.113052 -113.672379 22,100 212 389 -832
2020-01-20 19:24:38 GMT 37.141190 -113.650696 22,200 212 391 -640
2020-01-20 19:24:26 GMT 37.148804 -113.644859 22,400 212 392 -640
2020-01-20 19:24:18 GMT 37.159058 -113.636971 22,425 212 393 -640
2020-01-20 19:24:06 GMT 37.178711 -113.621742 22,550 212 395 -640
2020-01-20 19:23:56 GMT 37.193527 -113.610260 22,650 212 397 -512
2020-01-20 19:23:45 GMT 37.211609 -113.596176 22,750 212 398 -576
2020-01-20 19:23:37 GMT 37.224380 -113.586273 22,825 212 400 -512
2020-01-20 19:23:24 GMT 37.243977 -113.571045 22,950 212 402 -704
2020-01-20 19:23:14 GMT 37.261505 -113.557373 23,075 212 402 -768
2020-01-20 19:23:03 GMT 37.277023 -113.545280 23,225 212 403 -896
2020-01-20 19:22:55 GMT 37.290531 -113.534805 23,350 212 404 -832
2020-01-20 19:22:52 GMT 37.296204 -113.530380 23,375 212 404 -960
2020-01-20 19:22:44 GMT 37.307243 -113.521851 23,500 212 405 -1024
2020-01-20 19:22:33 GMT 37.324097 -113.508713 23,650 212 405 -704
2020-01-20 19:22:29 GMT 37.333080 -113.501785 23,725 212 406 -960
2020-01-20 19:22:24 GMT 37.341293 -113.495377 23,825 212 406 -960
2020-01-20 19:22:16 GMT 37.352261 -113.486862 23,925 212 407 -768
2020-01-20 19:22:12 GMT 37.357239 -113.482979 23,950 212 407 -768
2020-01-20 19:22:03 GMT 37.374229 -113.469666 24,075 212 407 -768
2020-01-20 19:21:59 GMT 37.379379 -113.465691 24,125 212 407 -768
2020-01-20 19:21:50 GMT 37.394897 -113.453590 24,200 212 408 -768
2020-01-20 19:21:42 GMT 37.408127 -113.443306 24,375 212 409 -960
2020-01-20 19:21:38 GMT 37.412979 -113.439507 24,425 212 409 -960
2020-01-20 19:21:29 GMT 37.429024 -113.427032 24,600 212 410 -896
2020-01-20 19:21:21 GMT 37.441818 -113.417068 24,700 212 410 -1024
2020-01-20 19:21:15 GMT 37.450157 -113.410492 24,775 212 411 -768
2020-01-20 19:21:10 GMT 37.458214 -113.404160 24,850 212 411 -832
2020-01-20 19:20:59 GMT 37.475109 -113.390968 25,000 213 412 -768
2020-01-20 19:20:51 GMT 37.488007 -113.380760 25,100 213 413 -576
2020-01-20 19:20:48 GMT 37.512726 -113.361237 25,225 213 414 -896
2020-01-20 19:20:36 GMT 37.512726 -113.361237 25,325 213 414 -1152
2020-01-20 19:20:22 GMT 37.536804 -113.342148 25,600 213 415 -1152
2020-01-20 19:20:17 GMT 37.543819 -113.336510 25,675 213 415 -1024
2020-01-20 19:20:08 GMT 37.560116 -113.323555 25,850 213 415 -1216
2020-01-20 19:20:00 GMT 37.572739 -113.313454 26,000 213 415 -1024
2020-01-20 19:19:56 GMT 37.578369 -113.309013 26,075 213 415 -960
2020-01-20 19:19:49 GMT 37.589264 -113.300369 26,175 213 416 -960
2020-01-20 19:19:39 GMT 37.604965 -113.287857 26,300 213 419 -256
2020-01-20 19:19:30 GMT 37.622589 -113.273895 26,350 213 419 -256
2020-01-20 19:19:26 GMT 37.626709 -113.270676 26,350 213 421 -448
2020-01-20 19:19:17 GMT 37.643349 -113.257881 26,500 211 423 -960
2020-01-20 19:19:08 GMT 37.658058 -113.247787 26,650 207 427 -1024
2020-01-20 19:18:58 GMT 37.676823 -113.236443 26,800 204 430 -896
2020-01-20 19:18:51 GMT 37.690063 -113.229477 26,900 202 431 -896
2020-01-20 19:18:44 GMT 37.701691 -113.223930 27,000 201 433 -960
2020-01-20 19:18:35 GMT 37.720596 -113.216217 27,150 196 437 -1024
2020-01-20 19:18:25 GMT 37.738770 -113.210075 27,300 194 439 -832
2020-01-20 19:18:02 GMT 37.783566 -113.197456 27,525 194 443 -1216
2020-01-20 19:16:29 GMT 37.970856 -113.139313 29,150 194 450 -896
2020-01-20 19:16:03 GMT 38.021759 -113.123825 29,625 194 450 -1472
2020-01-20 19:15:45 GMT 38.058975 -113.112373 30,050 194 449 -1280
2020-01-20 19:15:19 GMT 38.112038 -113.095413 31,525 195 448 -1856
2020-01-20 19:14:44 GMT 38.180702 -113.072365 31,525 196 443 -1408
2020-01-20 19:14:36 GMT 38.196762 -113.066910 31,700 196 443 -1344
2020-01-20 19:14:32 GMT 38.206448 -113.063583 31,800 196 442 -1344
2020-01-20 19:14:17 GMT 38.234482 -113.053696 32,100 197 441 -1280
2020-01-20 19:14:11 GMT 38.247971 -113.048363 32,250 198 441 -1280
2020-01-20 19:14:02 GMT 38.262863 -113.041313 32,425 204 439 -1280
2020-01-20 19:13:56 GMT 38.277485 -113.032837 32,600 207 439 -1216
2020-01-20 19:13:42 GMT 38.299736 -113.018929 32,875 207 437 -1472
2020-01-20 19:13:37 GMT 38.309418 -113.012894 33,000 207 436 -1536
2020-01-20 19:13:29 GMT 38.324158 -113.003677 33,200 207 436 -1536
2020-01-20 19:13:24 GMT 38.333359 -112.997948 33,350 207 436 -1472
2020-01-20 19:13:13 GMT 38.354668 -112.984596 33,575 207 435 -1280
2020-01-20 19:13:07 GMT 38.363186 -112.979279 33,675 207 435 -1152
2020-01-20 19:13:02 GMT 38.372452 -112.973518 33,775 207 435 -1280
2020-01-20 19:12:57 GMT 38.382019 -112.967560 33,900 207 434 -1472
2020-01-20 19:12:53 GMT 38.390793 -112.962021 34,025 207 434 -1600
2020-01-20 19:12:47 GMT 38.399918 -112.956291 34,175 207 433 -1600
2020-01-20 19:12:41 GMT 38.410950 -112.949272 34,325 207 432 -1536
2020-01-20 19:12:35 GMT 38.420380 -112.943275 34,425 207 432 -1216
2020-01-20 19:12:29 GMT 38.433197 -112.935036 34,575 207 431 -1280
2020-01-20 19:12:25 GMT 38.438648 -112.931580 34,650 207 430 -1280
2020-01-20 19:12:16 GMT 38.455269 -112.920776 34,850 208 431 -1216
2020-01-20 19:12:05 GMT 38.473526 -112.908646 35,075 208 431 -1344
2020-01-20 19:11:53 GMT 38.494629 -112.894257 35,325 209 430 -1216
2020-01-20 19:11:45 GMT 38.511429 -112.882309 35,550 210 429 -1472
2020-01-20 19:11:33 GMT 38.530380 -112.868217 35,850 211 427 -1472
2020-01-20 19:11:24 GMT 38.545670 -112.856339 36,000 213 427 64
2020-01-20 19:11:12 GMT 38.565536 -112.840157 36,000 214 427 0
2020-01-20 19:11:03 GMT 38.581604 -112.826607 36,000 214 428 64
2020-01-20 19:10:51 GMT 38.600418 -112.810669 36,000 214 429 0
2020-01-20 19:10:41 GMT 38.618805 -112.795044 36,000 214 428 -64
2020-01-20 19:10:36 GMT 38.626720 -112.788391 36,000 214 429 0
2020-01-20 19:10:31 GMT 38.635143 -112.781250 36,000 214 429 0
2020-01-20 19:10:24 GMT 38.645016 -112.772827 36,000 214 429 64
2020-01-20 19:10:19 GMT 38.652882 -112.766113 35,975 214 428 64
2020-01-20 19:10:12 GMT 38.671688 -112.750183 36,000 214 427 0
2020-01-20 19:10:08 GMT 38.671688 -112.750183 36,000 214 426 -192
2020-01-20 19:10:02 GMT 38.680252 -112.742889 36,025 214 424 -448
2020-01-20 19:09:59 GMT 38.686798 -112.737282 36,050 214 424 -704
2020-01-20 19:09:47 GMT 38.704880 -112.721985 36,225 214 423 -1280
2020-01-20 19:09:38 GMT 38.720989 -112.708313 36,500 214 421 -1728
2020-01-20 19:09:29 GMT 38.734116 -112.697144 36,725 214 421 -1664
2020-01-20 19:09:26 GMT 38.738678 -112.693237 36,825 214 420 -1600
2020-01-20 19:09:16 GMT 38.756180 -112.678345 37,100 214 419 -1472
2020-01-20 19:09:08 GMT 38.767822 -112.668381 37,250 214 418 -1472
2020-01-20 19:09:05 GMT 38.772755 -112.664185 37,350 214 418 -1600
2020-01-20 19:08:58 GMT 38.784805 -112.653870 37,550 214 417 -1792
2020-01-20 19:08:55 GMT 38.789978 -112.649475 37,650 214 416 -1728
2020-01-20 19:08:47 GMT 38.802063 -112.639122 37,850 214 416 -1344
2020-01-20 19:08:35 GMT 38.822937 -112.621330 38,000 214 416 -192
2020-01-20 19:08:27 GMT 38.834381 -112.611595 38,000 214 416 0
2020-01-20 19:08:23 GMT 38.839783 -112.606995 38,000 214 416 64
2020-01-20 19:08:19 GMT 38.847748 -112.600220 38,000 214 416 0
2020-01-20 19:08:15 GMT 38.852509 -112.596252 38,000 214 416 0
2020-01-20 19:08:12 GMT 38.857479 -112.591980 38,000 214 416 0
2020-01-20 19:08:06 GMT 38.868301 -112.582756 38,000 214 417 0
2020-01-20 19:08:02 GMT 38.874207 -112.577682 38,000 214 417 0
2020-01-20 19:07:58 GMT 38.884712 -112.568665 38,000 214 418 0
2020-01-20 19:07:52 GMT 38.890686 -112.563530 38,000 214 417 0
2020-01-20 19:07:45 GMT 38.907669 -112.548958 38,000 214 418 0
2020-01-20 19:07:42 GMT 38.907669 -112.548958 38,000 214 418 0
2020-01-20 19:07:34 GMT 38.918228 -112.539917 38,000 214 419 0
2020-01-20 19:07:31 GMT 38.924194 -112.534752 38,000 214 419 -64
2020-01-20 19:07:24 GMT 38.935734 -112.524902 38,000 214 418 -64
2020-01-20 19:07:21 GMT 38.941040 -112.520325 38,000 214 418 0
2020-01-20 19:07:13 GMT 38.952667 -112.510391 38,000 214 418 0
2020-01-20 19:07:10 GMT 38.958496 -112.505371 38,000 214 418 0
2020-01-20 19:07:00 GMT 38.975719 -112.490662 38,000 214 418 0
2020-01-20 19:06:52 GMT 38.986084 -112.481728 38,000 214 418 0
2020-01-20 19:06:48 GMT 38.992573 -112.476135 38,000 214 417 64
2020-01-20 19:06:42 GMT 39.002628 -112.467468 38,000 214 417 0
2020-01-20 19:06:39 GMT 39.009007 -112.462036 37,975 214 417 0
2020-01-20 19:06:31 GMT 39.019619 -112.452881 38,000 214 417 0
2020-01-20 19:06:27 GMT 39.026459 -112.446976 38,000 214 417 64
2020-01-20 19:06:21 GMT 39.035912 -112.438843 38,000 214 417 0
2020-01-20 19:06:18 GMT 39.042805 -112.432922 38,000 214 417 0
2020-01-20 19:06:11 GMT 39.052139 -112.424889 38,000 214 417 0
2020-01-20 19:06:06 GMT 39.061703 -112.416687 38,000 214 417 0
2020-01-20 19:06:01 GMT 39.069057 -112.410339 38,000 214 417 0
2020-01-20 19:05:55 GMT 39.077637 -112.402916 38,000 214 417 0
2020-01-20 19:05:50 GMT 39.086014 -112.395752 38,000 214 417 0
2020-01-20 19:05:46 GMT 39.094208 -112.388641 38,000 214 417 0
2020-01-20 19:05:40 GMT 39.102299 -112.381653 38,000 214 417 0
2020-01-20 19:05:34 GMT 39.111237 -112.373955 38,000 214 417 0
2020-01-20 19:05:29 GMT 39.119335 -112.367004 38,000 214 417 0
2020-01-20 19:05:25 GMT 39.128082 -112.359505 38,000 214 416 0
2020-01-20 19:05:17 GMT 39.139355 -112.349792 38,000 214 416 0
2020-01-20 19:05:13 GMT 39.145264 -112.344666 38,000 214 417 0
2020-01-20 19:05:09 GMT 39.153923 -112.337158 38,000 215 416 0
2020-01-20 19:05:04 GMT 39.162163 -112.330078 38,000 215 416 0
2020-01-20 19:04:58 GMT 39.170746 -112.322609 38,000 214 415 0
2020-01-20 19:04:53 GMT 39.178875 -112.315552 38,000 215 416 0
2020-01-20 19:04:48 GMT 39.186356 -112.309113 38,000 214 415 0
2020-01-20 19:04:42 GMT 39.195541 -112.301147 38,000 214 415 0
2020-01-20 19:04:36 GMT 39.206131 -112.291977 38,000 214 415 0
2020-01-20 19:04:32 GMT 39.212395 -112.286560 38,000 214 414 0
2020-01-20 19:04:24 GMT 39.225708 -112.275024 38,000 215 415 -64
2020-01-20 19:04:20 GMT 39.229889 -112.271378 38,000 214 414 64
2020-01-20 19:04:14 GMT 39.240097 -112.262543 38,000 215 415 0
2020-01-20 19:04:11 GMT 39.245682 -112.257645 38,000 214 414 0
2020-01-20 19:04:04 GMT 39.255341 -112.249283 38,000 214 414 0
2020-01-20 19:03:59 GMT 39.262997 -112.242615 38,000 214 414 0
2020-01-20 19:03:55 GMT 39.270538 -112.236092 38,000 214 414 0
2020-01-20 19:03:50 GMT 39.279327 -112.228508 38,000 214 414 0
2020-01-20 19:03:43 GMT 39.290314 -112.219009 38,000 214 414 0
2020-01-20 19:03:39 GMT 39.295910 -112.214172 38,000 214 414 0
2020-01-20 19:03:33 GMT 39.304962 -112.206291 38,000 214 414 0
2020-01-20 19:03:26 GMT 39.318253 -112.194763 38,000 214 414 0
2020-01-20 19:03:23 GMT 39.322956 -112.190674 38,000 214 414 0
2020-01-20 19:03:17 GMT 39.330048 -112.184502 38,000 214 414 0
2020-01-20 19:03:14 GMT 39.334778 -112.180420 38,000 214 414 0
2020-01-20 19:03:02 GMT 39.356518 -112.161499 38,000 215 414 0
2020-01-20 19:02:52 GMT 39.370811 -112.149048 38,000 214 414 64
2020-01-20 19:02:46 GMT 39.380306 -112.140747 38,000 214 414 64
2020-01-20 19:02:42 GMT 39.387268 -112.134766 38,000 214 414 0
2020-01-20 19:02:35 GMT 39.398090 -112.125366 38,000 215 415 0
2020-01-20 19:02:30 GMT 39.404388 -112.119835 38,000 215 415 64
2020-01-20 19:02:25 GMT 39.413265 -112.112122 38,000 215 415 -64
2020-01-20 19:02:21 GMT 39.421646 -112.104790 38,000 215 415 64
2020-01-20 19:02:12 GMT 39.434967 -112.093147 38,000 214 414 -64
2020-01-20 19:02:03 GMT 39.448040 -112.081726 38,025 215 414 0
2020-01-20 19:01:59 GMT 39.453579 -112.076904 38,000 215 414 64
2020-01-20 19:01:54 GMT 39.464149 -112.067688 38,000 215 414 -64
2020-01-20 19:01:51 GMT 39.467545 -112.064697 38,000 215 414 0
2020-01-20 19:01:40 GMT 39.484863 -112.049622 38,000 215 414 0
2020-01-20 19:01:33 GMT 39.497711 -112.038391 38,000 215 414 64
2020-01-20 19:01:29 GMT 39.513794 -112.024307 38,000 215 413 0
2020-01-20 19:01:21 GMT 39.513794 -112.024307 38,000 215 413 64
2020-01-20 19:01:18 GMT 39.518600 -112.020065 38,000 215 413 0
2020-01-20 19:01:12 GMT 39.530594 -112.009560 38,000 215 414 0
2020-01-20 19:01:09 GMT 39.533791 -112.006775 38,000 215 414 0
2020-01-20 19:01:06 GMT 39.538376 -112.002747 38,000 215 414 0
2020-01-20 19:00:58 GMT 39.550415 -111.992241 38,000 215 414 0
2020-01-20 19:00:48 GMT 39.566391 -111.978210 38,000 215 414 0
2020-01-20 19:00:42 GMT 39.577103 -111.968834 38,000 215 414 0
2020-01-20 19:00:38 GMT 39.582916 -111.963760 38,000 215 414 0
2020-01-20 19:00:34 GMT 39.590652 -111.956955 38,000 215 414 -64
2020-01-20 19:00:27 GMT 39.599613 -111.949097 38,000 215 413 0
2020-01-20 19:00:16 GMT 39.623310 -111.928284 38,000 215 413 64
2020-01-20 19:00:06 GMT 39.633366 -111.919434 38,000 215 414 0
2020-01-20 18:59:57 GMT 39.648193 -111.906441 38,000 215 414 0
2020-01-20 18:59:54 GMT 39.653664 -111.901611 38,000 215 414 64
2020-01-20 18:59:47 GMT 39.664673 -111.891930 38,000 215 414 0
2020-01-20 18:59:40 GMT 39.675121 -111.882751 38,000 215 414 0
2020-01-20 18:59:35 GMT 39.682011 -111.876648 38,000 215 414 64
2020-01-20 18:59:32 GMT 39.687969 -111.871399 38,000 215 414 64
2020-01-20 18:59:24 GMT 39.703903 -111.857422 38,000 215 414 0
2020-01-20 18:59:21 GMT 39.703903 -111.857422 38,000 215 414 0
2020-01-20 18:59:17 GMT 39.714413 -111.848145 38,000 215 415 0
2020-01-20 18:59:13 GMT 39.716721 -111.846077 38,000 215 415 0
2020-01-20 18:59:03 GMT 39.733128 -111.831665 38,000 215 414 0
2020-01-20 18:58:56 GMT 39.743912 -111.822128 38,000 215 414 0
2020-01-20 18:58:53 GMT 39.749039 -111.817650 38,000 215 414 0
2020-01-20 18:58:43 GMT 39.765244 -111.803322 38,000 215 413 0
2020-01-20 18:58:39 GMT 39.777283 -111.792694 38,000 215 413 0
2020-01-20 18:58:32 GMT 39.781403 -111.789116 38,000 215 413 0
2020-01-20 18:58:26 GMT 39.793625 -111.778244 38,000 215 413 0
2020-01-20 18:58:22 GMT 39.798019 -111.774422 38,000 215 413 0
2020-01-20 18:58:18 GMT 39.806351 -111.767021 38,000 215 413 0
2020-01-20 18:58:14 GMT 39.812496 -111.761536 38,000 215 413 64
2020-01-20 18:58:11 GMT 39.814865 -111.759438 38,000 215 413 0
2020-01-20 18:58:05 GMT 39.824368 -111.751038 38,000 215 413 64
2020-01-20 18:58:02 GMT 39.831352 -111.744873 38,000 215 413 64
2020-01-20 18:57:58 GMT 39.836975 -111.739914 38,000 215 412 0
2020-01-20 18:57:50 GMT 39.848145 -111.730064 38,000 215 413 0
2020-01-20 18:57:44 GMT 39.857437 -111.721825 38,000 215 413 0
2020-01-20 18:57:41 GMT 39.864441 -111.715614 38,000 215 413 0
2020-01-20 18:57:36 GMT 39.878742 -111.702942 38,000 215 412 -64
2020-01-20 18:57:29 GMT 39.881115 -111.700806 38,000 215 412 -64
2020-01-20 18:57:25 GMT 39.888332 -111.694397 38,000 215 412 0
2020-01-20 18:57:20 GMT 39.897781 -111.685974 38,000 215 412 0
2020-01-20 18:57:16 GMT 39.903992 -111.680504 38,000 215 412 0
2020-01-20 18:57:08 GMT 39.914200 -111.671425 38,000 215 412 0
2020-01-20 18:57:04 GMT 39.921616 -111.664864 38,000 215 412 64
2020-01-20 18:57:01 GMT 39.926285 -111.660706 38,000 215 411 0
2020-01-20 18:56:57 GMT 39.932922 -111.654846 38,000 215 411 0
2020-01-20 18:56:54 GMT 39.937729 -111.650574 38,000 215 411 0
2020-01-20 18:56:48 GMT 39.947479 -111.641968 38,000 215 411 0
2020-01-20 18:56:42 GMT 39.956249 -111.634140 38,000 215 411 -64
2020-01-20 18:56:37 GMT 39.964050 -111.627258 38,000 215 411 0
2020-01-20 18:56:33 GMT 39.971283 -111.620789 38,000 215 412 0
2020-01-20 18:56:30 GMT 39.975449 -111.617126 38,000 215 411 0
2020-01-20 18:56:27 GMT 39.980412 -111.612663 38,000 215 411 0
2020-01-20 18:56:22 GMT 39.986801 -111.606995 38,000 215 411 64
2020-01-20 18:56:16 GMT 39.996937 -111.597939 38,000 215 411 0
2020-01-20 18:56:11 GMT 40.005272 -111.590508 38,000 215 411 0
2020-01-20 18:56:06 GMT 40.014442 -111.582390 38,000 215 412 0
2020-01-20 18:55:55 GMT 40.030106 -111.568420 38,000 215 412 0
2020-01-20 18:55:52 GMT 40.035736 -111.563416 38,000 215 412 64
2020-01-20 18:55:44 GMT 40.048191 -111.552307 38,000 215 412 0
2020-01-20 18:55:40 GMT 40.052353 -111.548584 38,000 215 412 -64
2020-01-20 18:55:34 GMT 40.063202 -111.538940 38,000 215 412 64
2020-01-20 18:55:31 GMT 40.068859 -111.533829 38,000 215 412 0
2020-01-20 18:55:27 GMT 40.073608 -111.529587 38,000 215 412 0
2020-01-20 18:55:23 GMT 40.080498 -111.523468 38,000 215 412 0
2020-01-20 18:55:17 GMT 40.090530 -111.514465 38,000 215 412 0
2020-01-20 18:55:13 GMT 40.096985 -111.508728 38,000 215 412 0
2020-01-20 18:55:10 GMT 40.105957 -111.500671 38,000 215 413 -64
2020-01-20 18:55:06 GMT 40.113785 -111.493652 38,000 215 413 0
2020-01-20 18:55:01 GMT 40.113785 -111.493652 38,000 215 413 0
2020-01-20 18:54:58 GMT 40.118454 -111.489502 38,000 215 413 64
2020-01-20 18:54:55 GMT 40.124680 -111.483887 38,000 215 413 0
2020-01-20 18:54:52 GMT 40.130127 -111.479065 38,000 215 414 0
2020-01-20 18:54:49 GMT 40.135574 -111.474182 38,000 215 414 -64
2020-01-20 18:54:46 GMT 40.140289 -111.470032 38,000 215 414 0
2020-01-20 18:54:43 GMT 40.143345 -111.467285 38,000 215 414 0
2020-01-20 18:54:40 GMT 40.147022 -111.464043 38,000 215 414 0
2020-01-20 18:54:36 GMT 40.156311 -111.455688 38,000 215 414 0
2020-01-20 18:54:31 GMT 40.163502 -111.449310 38,000 215 414 0
2020-01-20 18:54:28 GMT 40.167984 -111.445251 38,000 215 414 0
2020-01-20 18:54:25 GMT 40.172241 -111.441467 38,000 215 414 0
2020-01-20 18:54:22 GMT 40.176224 -111.437866 38,000 215 414 0
2020-01-20 18:54:19 GMT 40.180073 -111.434448 38,000 215 415 0
2020-01-20 18:54:16 GMT 40.185013 -111.429993 38,000 215 415 -64
2020-01-20 18:54:10 GMT 40.197144 -111.419067 38,000 215 415 -64
2020-01-20 18:54:07 GMT 40.201023 -111.415596 38,000 215 415 0
2020-01-20 18:53:58 GMT 40.221909 -111.396851 38,000 215 415 0
2020-01-20 18:53:54 GMT 40.221909 -111.396851 38,000 215 416 0
2020-01-20 18:53:50 GMT 40.234680 -111.385323 38,000 215 415 0
2020-01-20 18:53:46 GMT 40.234680 -111.385323 38,000 215 415 0
2020-01-20 18:53:38 GMT 40.247437 -111.373901 38,000 215 415 0
2020-01-20 18:53:34 GMT 40.251251 -111.370483 38,000 215 415 0
2020-01-20 18:53:30 GMT 40.258804 -111.363708 38,000 215 415 0
2020-01-20 18:53:25 GMT 40.268246 -111.355171 38,000 215 414 64
2020-01-20 18:53:17 GMT 40.280960 -111.343811 38,000 215 415 0
2020-01-20 18:53:14 GMT 40.284027 -111.341064 38,000 215 415 0
2020-01-20 18:53:09 GMT 40.291809 -111.334045 38,000 215 415 0
2020-01-20 18:53:03 GMT 40.302834 -111.324150 38,000 215 415 -64
2020-01-20 18:52:56 GMT 40.316299 -111.312012 38,000 215 414 0
2020-01-20 18:52:49 GMT 40.330902 -111.298828 38,000 215 414 -64
2020-01-20 18:52:45 GMT 40.334930 -111.295227 38,000 215 414 0
2020-01-20 18:52:35 GMT 40.347244 -111.284142 38,000 215 414 0
2020-01-20 18:52:32 GMT 40.351822 -111.279968 38,000 215 414 0
2020-01-20 18:52:24 GMT 40.364376 -111.268723 38,000 215 414 0
2020-01-20 18:52:20 GMT 40.368301 -111.265198 38,000 215 414 0
2020-01-20 18:52:11 GMT 40.384460 -111.250549 38,000 215 413 -64
2020-01-20 18:52:03 GMT 40.400803 -111.235779 38,000 215 414 -64
2020-01-20 18:51:49 GMT 40.417770 -111.220406 38,000 215 413 64
2020-01-20 18:51:40 GMT 40.431976 -111.207581 38,000 215 411 -128
2020-01-20 18:51:29 GMT 40.451054 -111.190254 38,100 215 411 -1024
2020-01-20 18:51:21 GMT 40.462921 -111.179565 38,250 215 411 -1088
2020-01-20 18:51:18 GMT 40.466995 -111.175903 38,300 215 411 -1088
2020-01-20 18:51:08 GMT 40.483410 -111.161041 38,475 215 412 -1152
2020-01-20 18:51:00 GMT 40.500641 -111.145508 38,700 215 412 -1408
2020-01-20 18:50:47 GMT 40.516571 -111.131104 38,975 215 410 -1856
2020-01-20 18:50:39 GMT 40.530212 -111.118713 39,225 215 408 -1600
2020-01-20 18:50:34 GMT 40.534615 -111.114723 39,300 215 408 -1536
2020-01-20 18:50:29 GMT 40.544720 -111.105545 39,500 215 408 -1600
2020-01-20 18:50:26 GMT 40.549118 -111.101501 39,550 215 407 -1600
2020-01-20 18:50:18 GMT 40.560684 -111.090942 39,750 215 406 -1472
2020-01-20 18:50:14 GMT 40.565735 -111.086365 39,825 215 406 -1280
2020-01-20 18:50:05 GMT 40.581356 -111.072151 39,975 215 406 -448
2020-01-20 18:49:53 GMT 40.599380 -111.055786 40,000 215 407 0
2020-01-20 18:49:44 GMT 40.614304 -111.042175 40,000 215 407 0
2020-01-20 18:49:34 GMT 40.628094 -111.029640 40,000 215 407 0
2020-01-20 18:49:31 GMT 40.632019 -111.026001 40,000 215 408 0
2020-01-20 18:49:23 GMT 40.646851 -111.012512 40,000 215 407 0
2020-01-20 18:49:16 GMT 40.658260 -111.002113 40,000 215 407 -64
2020-01-20 18:49:11 GMT 40.663193 -110.997620 40,000 215 407 -64
2020-01-20 18:49:05 GMT 40.673126 -110.988525 40,000 215 408 -64
2020-01-20 18:49:02 GMT 40.679070 -110.983139 40,000 215 408 0
2020-01-20 18:48:53 GMT 40.691574 -110.971680 40,000 215 407 0
2020-01-20 18:48:50 GMT 40.698074 -110.965759 40,000 215 408 0
2020-01-20 18:48:41 GMT 40.711395 -110.953613 40,000 215 408 64
2020-01-20 18:48:34 GMT 40.722080 -110.943810 40,000 215 408 0
2020-01-20 18:48:30 GMT 40.728321 -110.938133 40,000 215 408 0
2020-01-20 18:48:23 GMT 40.737633 -110.929581 40,000 215 408 0
2020-01-20 18:48:19 GMT 40.747314 -110.920715 40,000 215 409 0
2020-01-20 18:48:09 GMT 40.760101 -110.909058 40,000 215 409 0
2020-01-20 18:48:00 GMT 40.774933 -110.895447 40,000 215 409 0
2020-01-20 18:47:57 GMT 40.779758 -110.890999 40,000 215 409 0
2020-01-20 18:47:47 GMT 40.801437 -110.871155 40,000 215 409 -64
2020-01-20 18:47:39 GMT 40.806713 -110.866348 40,000 215 409 -64
2020-01-20 18:47:35 GMT 40.813000 -110.860603 40,000 215 410 -64
2020-01-20 18:47:26 GMT 40.833069 -110.842224 40,000 215 409 0
2020-01-20 18:47:23 GMT 40.833069 -110.842224 40,000 215 409 0
2020-01-20 18:47:16 GMT 40.848797 -110.827827 40,000 215 409 0
2020-01-20 18:47:12 GMT 40.848797 -110.827827 40,000 215 409 64
2020-01-20 18:47:06 GMT 40.858795 -110.818604 40,000 215 410 0
2020-01-20 18:47:02 GMT 40.865417 -110.812477 40,000 216 409 0
2020-01-20 18:46:55 GMT 40.875099 -110.803551 40,000 215 410 0
2020-01-20 18:46:51 GMT 40.880592 -110.798492 40,000 215 410 -64
2020-01-20 18:46:45 GMT 40.891624 -110.788315 40,000 215 410 0
2020-01-20 18:46:34 GMT 40.907825 -110.773399 40,000 216 410 0
2020-01-20 18:46:24 GMT 40.923981 -110.758484 40,000 216 410 0
2020-01-20 18:46:13 GMT 40.939808 -110.743874 40,000 216 411 0
2020-01-20 18:46:03 GMT 40.956345 -110.728638 40,000 215 410 0
2020-01-20 18:45:52 GMT 40.973190 -110.713135 40,000 215 412 0
2020-01-20 18:45:42 GMT 40.989441 -110.698181 40,000 215 412 0
2020-01-20 18:45:30 GMT 41.006378 -110.682495 40,000 216 412 0
2020-01-20 18:45:21 GMT 41.022537 -110.667603 40,000 216 412 0
2020-01-20 18:45:09 GMT 41.039337 -110.652046 40,000 215 413 0
2020-01-20 18:45:00 GMT 41.055164 -110.637444 40,000 215 413 0
2020-01-20 18:44:49 GMT 41.071198 -110.622620 40,000 216 414 0
2020-01-20 18:44:39 GMT 41.088226 -110.606812 40,000 215 415 0
2020-01-20 18:44:28 GMT 41.104740 -110.591499 40,000 216 415 0
2020-01-20 18:44:18 GMT 41.121174 -110.576271 40,000 216 415 0
2020-01-20 18:44:06 GMT 41.138119 -110.560539 40,000 216 415 0
2020-01-20 18:43:56 GMT 41.156509 -110.543495 40,000 216 416 0
2020-01-20 18:43:46 GMT 41.171032 -110.529953 40,000 216 416 0
2020-01-20 18:43:35 GMT 41.187836 -110.514282 40,000 216 416 0
2020-01-20 18:43:25 GMT 41.204735 -110.498550 40,000 216 416 0
2020-01-20 18:43:14 GMT 41.221207 -110.483215 40,000 216 417 64
2020-01-20 18:43:04 GMT 41.237507 -110.468094 40,000 216 417 0
2020-01-20 18:42:53 GMT 41.254166 -110.452576 40,000 216 418 0
2020-01-20 18:42:43 GMT 41.271240 -110.436646 40,000 216 419 0
2020-01-20 18:42:32 GMT 41.287674 -110.421326 40,000 216 419 0
2020-01-20 18:42:22 GMT 41.304218 -110.405853 40,000 216 419 0
2020-01-20 18:42:11 GMT 41.320885 -110.390251 40,000 216 419 0
2020-01-20 18:42:01 GMT 41.337753 -110.374451 40,000 216 421 64
2020-01-20 18:41:49 GMT 41.355286 -110.358040 40,000 216 421 0
2020-01-20 18:41:40 GMT 41.370647 -110.343620 40,000 216 422 0
2020-01-20 18:41:28 GMT 41.388664 -110.326752 40,000 216 423 0
2020-01-20 18:41:19 GMT 41.404865 -110.311546 40,000 216 423 -64
2020-01-20 18:41:07 GMT 41.421799 -110.295685 40,000 216 424 64
2020-01-20 18:40:58 GMT 41.438553 -110.280014 40,000 216 423 0
2020-01-20 18:40:46 GMT 41.455444 -110.264091 40,000 216 424 0
2020-01-20 18:40:37 GMT 41.472290 -110.248299 40,000 216 424 0
2020-01-20 18:40:26 GMT 41.488541 -110.233009 40,000 216 424 0
2020-01-20 18:40:16 GMT 41.505478 -110.217026 40,000 216 425 64
2020-01-20 18:40:05 GMT 41.522095 -110.201424 40,000 216 426 64
We lost coverage of the aircraft here for a total of 43 minutes
2020-01-20 17:57:29 GMT 45.960419 -106.193779 40,000 212 472 0
2020-01-20 17:57:18 GMT 45.981228 -106.175240 40,000 212 472 0
2020-01-20 17:57:08 GMT 45.999943 -106.158554 40,000 212 472 0
2020-01-20 17:56:56 GMT 46.020859 -106.139923 40,000 212 472 0
2020-01-20 17:56:46 GMT 46.039673 -106.123177 40,000 212 472 0
2020-01-20 17:56:36 GMT 46.058365 -106.106506 40,000 212 472 64
2020-01-20 17:56:25 GMT 46.078663 -106.088448 40,000 212 472 0
2020-01-20 17:54:36 GMT 46.281631 -105.906555 40,000 212 473 0
2020-01-20 17:54:30 GMT 46.292404 -105.896881 40,000 212 474 -64
2020-01-20 17:54:19 GMT 46.313507 -105.877853 40,000 212 474 0
2020-01-20 17:54:09 GMT 46.331863 -105.861313 40,000 213 475 -64
2020-01-20 17:53:58 GMT 46.352623 -105.842628 40,000 213 475 -64
2020-01-20 17:53:47 GMT 46.372917 -105.824295 40,000 213 475 0
2020-01-20 17:53:37 GMT 46.391098 -105.807854 40,000 213 475 0
2020-01-20 17:53:09 GMT 46.443119 -105.760780 40,000 213 477 -64
2020-01-20 17:53:04 GMT 46.452530 -105.752251 40,000 213 477 -64
2020-01-20 17:52:55 GMT 46.469604 -105.736710 40,000 213 477 -64
2020-01-20 17:52:45 GMT 46.488323 -105.719650 40,000 213 478 0
2020-01-20 17:52:33 GMT 46.510254 -105.699799 40,000 213 478 64
2020-01-20 17:52:24 GMT 46.527145 -105.684387 40,000 213 478 0
2020-01-20 17:52:13 GMT 46.547653 -105.665703 40,000 213 478 0
2020-01-20 17:48:18 GMT 46.987701 -105.260834 40,000 213 479 64
2020-01-20 17:48:12 GMT 46.998962 -105.250465 40,000 213 479 64
2020-01-20 17:48:02 GMT 47.017456 -105.233231 40,000 213 480 64
2020-01-20 17:47:23 GMT 47.090847 -105.164795 40,000 213 481 64
2020-01-20 17:47:19 GMT 47.098572 -105.157631 40,000 213 481 0
2020-01-20 17:47:08 GMT 47.119244 -105.138313 40,000 213 481 0
2020-01-20 17:46:58 GMT 47.138237 -105.120499 40,000 213 481 0
2020-01-20 17:46:49 GMT 47.155182 -105.104652 40,000 213 482 0
2020-01-20 17:46:38 GMT 47.175522 -105.085602 40,000 213 482 -64
2020-01-20 17:46:28 GMT 47.194931 -105.067474 40,000 213 482 0
2020-01-20 17:46:17 GMT 47.215622 -105.048111 40,000 213 482 0
2020-01-20 17:46:06 GMT 47.235577 -105.029366 40,000 213 482 0
2020-01-20 17:45:56 GMT 47.254852 -105.011238 40,000 213 481 0
2020-01-20 17:45:46 GMT 47.273849 -104.993385 40,000 213 481 0
2020-01-20 17:45:35 GMT 47.293816 -104.974648 40,000 213 481 0
2020-01-20 17:45:24 GMT 47.313740 -104.955841 40,000 213 479 0
2020-01-20 17:45:14 GMT 47.332672 -104.937904 40,000 213 479 0
2020-01-20 17:45:02 GMT 47.355103 -104.916687 40,000 213 479 0
2020-01-20 17:44:52 GMT 47.374069 -104.898796 40,000 213 479 64
2020-01-20 17:44:41 GMT 47.394974 -104.879013 40,000 213 479 0
2020-01-20 17:44:32 GMT 47.410568 -104.864220 40,000 213 479 0
We lost coverage of the aircraft here for a total of 11 minutes
2020-01-20 17:33:59 GMT 48.586990 -103.719177 40,000 214 484 0
2020-01-20 17:33:49 GMT 48.602417 -103.703751 40,000 214 484 64
2020-01-20 17:33:41 GMT 48.620682 -103.685448 40,000 214 485 0
2020-01-20 17:33:30 GMT 48.639130 -103.666924 40,000 214 486 -64
2020-01-20 17:33:20 GMT 48.659317 -103.646713 40,025 214 486 0
2020-01-20 17:32:53 GMT 48.710724 -103.595001 40,000 214 486 0
2020-01-20 17:32:45 GMT 48.724091 -103.581566 40,000 214 486 0
2020-01-20 17:32:34 GMT 48.745594 -103.559875 40,000 214 486 0
2020-01-20 17:32:24 GMT 48.765015 -103.540230 40,000 214 486 0
2020-01-20 17:31:51 GMT 48.824497 -103.479935 40,000 214 486 0
2020-01-20 17:31:46 GMT 48.834824 -103.469452 40,000 214 486 0
2020-01-20 17:31:31 GMT 48.859970 -103.444016 40,000 214 486 0
2020-01-20 17:31:25 GMT 48.874775 -103.428978 40,000 214 486 0
2020-01-20 17:31:13 GMT 48.895584 -103.407799 40,000 214 486 0
2020-01-20 17:31:04 GMT 48.913696 -103.389374 40,000 214 486 0
2020-01-20 17:27:20 GMT 49.332230 -102.959290 40,000 215 487 0
2020-01-20 17:26:59 GMT 49.369766 -102.920341 40,000 215 486 0
2020-01-20 17:26:35 GMT 49.414967 -102.873230 40,000 215 486 0
2020-01-20 17:26:20 GMT 49.441635 -102.845329 40,000 215 485 0
2020-01-20 17:26:13 GMT 49.455780 -102.830589 40,000 215 485 0
2020-01-20 17:23:44 GMT 49.729801 -102.542381 40,000 215 485 0
2020-01-20 17:23:37 GMT 49.742615 -102.528824 40,000 215 484 0
2020-01-20 17:22:42 GMT 49.846252 -102.418671 40,000 215 483 0
2020-01-20 17:22:33 GMT 49.860428 -102.403488 40,000 215 483 0
2020-01-20 17:21:32 GMT 49.972366 -102.283875 40,000 215 482 0
2020-01-20 17:21:17 GMT 50.000656 -102.253517 40,000 215 482 0
2020-01-20 17:21:05 GMT 50.025879 -102.226410 40,000 215 481 0
2020-01-20 17:20:56 GMT 50.042168 -102.208855 40,000 215 482 0
2020-01-20 17:20:50 GMT 50.051662 -102.198608 40,000 215 482 0
2020-01-20 17:20:39 GMT 50.069824 -102.178993 40,000 215 481 0
2020-01-20 17:20:24 GMT 50.097050 -102.149620 40,000 215 482 0
2020-01-20 17:20:04 GMT 50.142811 -102.100182 40,000 215 481 0
2020-01-20 17:19:47 GMT 50.166092 -102.074913 40,000 215 481 0
2020-01-20 17:18:15 GMT 50.334137 -101.892197 39,425 216 493 1152
2020-01-20 17:18:07 GMT 50.349319 -101.875549 39,275 216 493 1024
2020-01-20 17:17:37 GMT 50.403786 -101.815720 38,825 216 492 576
2020-01-20 17:17:34 GMT 50.409836 -101.809044 38,825 216 492 576
2020-01-20 17:17:26 GMT 50.424820 -101.792595 38,800 216 491 128
2020-01-20 17:17:15 GMT 50.464096 -101.749519 38,000 216 485 1088
2020-01-20 17:17:04 GMT 50.464096 -101.749519 38,700 216 485 640
2020-01-20 17:16:55 GMT 50.482315 -101.729492 38,475 216 486 1920
2020-01-20 17:16:43 GMT 50.502476 -101.707268 38,175 216 489 1216
2020-01-20 17:16:33 GMT 50.522369 -101.685265 38,000 216 490 384
2020-01-20 17:16:23 GMT 50.540508 -101.665253 38,000 216 489 0
2020-01-20 17:16:13 GMT 50.560665 -101.642982 38,000 216 489 0
2020-01-20 17:15:58 GMT 50.585991 -101.614998 38,000 216 489 0
2020-01-20 17:15:50 GMT 50.603027 -101.596146 38,000 216 488 0
2020-01-20 17:15:41 GMT 50.617996 -101.579590 38,000 216 488 0
2020-01-20 17:15:30 GMT 50.638641 -101.556725 38,000 216 488 0
2020-01-20 17:15:19 GMT 50.657635 -101.535645 38,000 216 488 0
2020-01-20 17:15:10 GMT 50.676579 -101.514587 38,000 216 488 0
2020-01-20 17:14:59 GMT 50.695248 -101.493835 38,000 216 488 0
2020-01-20 17:14:49 GMT 50.715450 -101.471329 38,000 216 488 0
2020-01-20 17:14:37 GMT 50.734535 -101.450043 38,000 216 488 0
2020-01-20 17:14:28 GMT 50.773132 -101.407074 38,000 216 488 0
2020-01-20 17:14:16 GMT 50.773132 -101.407074 38,000 216 488 0
2020-01-20 17:14:07 GMT 50.791534 -101.386513 38,000 216 488 0
2020-01-20 17:13:55 GMT 50.812363 -101.363281 38,000 216 487 0
2020-01-20 17:13:46 GMT 50.830673 -101.342865 38,000 216 487 0
2020-01-20 17:13:35 GMT 50.849945 -101.321266 38,000 216 487 0
2020-01-20 17:13:24 GMT 50.869446 -101.299438 38,000 216 487 0
2020-01-20 17:13:13 GMT 50.890301 -101.276016 38,000 216 486 0
2020-01-20 17:13:04 GMT 50.908447 -101.255646 38,000 216 487 0
2020-01-20 17:12:52 GMT 50.927448 -101.234207 38,000 216 486 0
2020-01-20 17:12:43 GMT 50.946537 -101.212616 38,000 216 486 0
2020-01-20 17:12:31 GMT 50.966087 -101.190491 38,000 216 486 0
2020-01-20 17:12:06 GMT 51.011215 -101.138947 38,000 216 485 0
2020-01-20 17:12:00 GMT 51.022293 -101.126183 38,000 217 485 0
2020-01-20 17:11:50 GMT 51.041428 -101.103989 38,000 217 484 0
2020-01-20 17:11:39 GMT 51.060963 -101.081314 38,000 217 485 0
2020-01-20 17:11:29 GMT 51.079971 -101.059151 38,000 217 484 0
2020-01-20 17:11:18 GMT 51.099060 -101.036880 38,000 217 484 0
2020-01-20 17:11:09 GMT 51.117432 -101.015549 38,000 217 484 0
2020-01-20 17:10:57 GMT 51.136826 -100.993378 38,000 216 485 0
2020-01-20 17:10:48 GMT 51.155685 -100.973114 38,000 213 487 0
2020-01-20 17:10:37 GMT 51.174828 -100.953445 38,000 213 487 0
2020-01-20 17:10:25 GMT 51.199268 -100.928268 38,000 213 487 0
2020-01-20 17:10:14 GMT 51.218307 -100.908607 38,000 214 487 0
2020-01-20 17:10:04 GMT 51.239182 -100.887009 38,000 213 488 0
2020-01-20 17:09:40 GMT 51.289253 -100.835190 38,000 214 490 0
2020-01-20 17:09:24 GMT 51.314068 -100.809479 38,000 214 490 0
2020-01-20 17:08:45 GMT 51.387314 -100.733345 38,000 214 490 0
2020-01-20 17:08:40 GMT 51.395393 -100.724869 38,000 214 490 -64
2020-01-20 17:08:31 GMT 51.414551 -100.704918 38,000 214 489 0
2020-01-20 17:08:19 GMT 51.434822 -100.683823 38,000 214 489 0
2020-01-20 17:08:06 GMT 51.461929 -100.655479 38,000 214 488 0
2020-01-20 17:07:52 GMT 51.486542 -100.629730 38,000 214 487 64
2020-01-20 17:07:49 GMT 51.494549 -100.621414 38,000 214 487 64
2020-01-20 17:07:37 GMT 51.513794 -100.601212 38,000 214 487 64
2020-01-20 17:07:28 GMT 51.533936 -100.580055 38,000 214 487 0
2020-01-20 17:07:17 GMT 51.553253 -100.559792 38,000 214 488 -64
2020-01-20 17:07:06 GMT 51.575409 -100.536499 38,000 214 487 0
2020-01-20 17:06:45 GMT 51.615211 -100.494690 38,000 214 486 0
2020-01-20 17:06:35 GMT 51.632298 -100.476685 38,000 214 486 64
2020-01-20 17:06:25 GMT 51.652363 -100.455475 38,000 214 487 0
2020-01-20 17:06:14 GMT 51.672470 -100.434189 38,000 214 486 0
2020-01-20 17:05:49 GMT 51.720291 -100.383636 38,000 214 486 0
2020-01-20 17:05:42 GMT 51.731689 -100.371536 38,000 214 487 0
2020-01-20 17:05:32 GMT 51.751751 -100.350266 38,000 214 486 -64
2020-01-20 17:05:21 GMT 51.771069 -100.329742 38,000 214 486 0
2020-01-20 17:05:10 GMT 51.790062 -100.309525 38,000 214 486 0
2020-01-20 17:05:00 GMT 51.809647 -100.288620 38,000 214 486 0
2020-01-20 17:04:49 GMT 51.832333 -100.264435 38,000 214 486 0
2020-01-20 17:04:38 GMT 51.851486 -100.244011 38,000 214 486 0
2020-01-20 17:04:04 GMT 51.914520 -100.176620 38,000 214 485 0
2020-01-20 17:03:53 GMT 51.935806 -100.153885 38,000 214 485 0
2020-01-20 17:03:33 GMT 51.974258 -100.112610 38,000 214 485 0
2020-01-20 17:03:25 GMT 51.987072 -100.098869 38,000 214 486 0
2020-01-20 17:03:16 GMT 52.005936 -100.078659 38,000 214 486 0
2020-01-20 17:03:04 GMT 52.026260 -100.056763 38,000 214 486 0
2020-01-20 17:02:55 GMT 52.044842 -100.036720 38,000 214 486 0
2020-01-20 17:02:44 GMT 52.064117 -100.015999 38,000 214 486 0
2020-01-20 17:02:33 GMT 52.084076 -99.994431 38,000 214 486 0
2020-01-20 17:02:24 GMT 52.103302 -99.973679 38,000 214 486 0
2020-01-20 17:02:12 GMT 52.122959 -99.952354 38,000 214 486 0
2020-01-20 17:02:02 GMT 52.143814 -99.929733 38,000 214 487 0
2020-01-20 17:01:52 GMT 52.163452 -99.908371 38,000 214 487 0
2020-01-20 17:01:40 GMT 52.183685 -99.886322 38,000 214 487 0
2020-01-20 17:01:30 GMT 52.203598 -99.864578 38,000 214 488 0
2020-01-20 17:01:19 GMT 52.223053 -99.843445 38,000 214 489 0
2020-01-20 17:01:10 GMT 52.242039 -99.822716 38,000 214 490 0
2020-01-20 17:00:58 GMT 52.262428 -99.800514 38,000 214 490 0
2020-01-20 17:00:49 GMT 52.281052 -99.780197 38,000 214 492 -64
2020-01-20 17:00:36 GMT 52.305862 -99.753036 38,000 214 492 64
2020-01-20 17:00:33 GMT 52.309891 -99.748611 38,000 214 492 64
2020-01-20 17:00:29 GMT 52.317535 -99.740219 38,000 214 492 64
2020-01-20 17:00:25 GMT 52.325508 -99.731529 38,000 214 492 64
We lost coverage of the aircraft here for a total of 297 minutes
2020-01-20 12:03:17 GMT 65.658722 -25.927614 35,000 295 428 0
2020-01-20 12:03:14 GMT 65.656296 -25.914837 35,000 295 428 0
2020-01-20 12:03:05 GMT 65.648666 -25.874748 35,000 295 429 64
2020-01-20 12:02:55 GMT 65.640381 -25.831261 35,000 295 429 -64
2020-01-20 12:02:44 GMT 65.631042 -25.782051 35,000 295 428 -64
2020-01-20 12:02:35 GMT 65.623672 -25.743370 35,025 295 427 -64
2020-01-20 12:02:24 GMT 65.614609 -25.696106 35,000 295 426 0
2020-01-20 12:02:03 GMT 65.597122 -25.605125 34,975 296 425 64
2020-01-20 12:01:54 GMT 65.589493 -25.565424 35,000 296 425 0
2020-01-20 12:01:42 GMT 65.580231 -25.517658 35,000 296 426 -64
2020-01-20 12:01:19 GMT 65.560867 -25.418303 35,000 296 426 0
2020-01-20 12:01:12 GMT 65.555138 -25.388927 35,000 296 426 64
2020-01-20 12:01:02 GMT 65.546715 -25.345818 34,975 296 425 64
2020-01-20 12:00:51 GMT 65.537407 -25.298170 35,000 296 426 -64
2020-01-20 12:00:41 GMT 65.528778 -25.254250 35,000 296 425 0
2020-01-20 12:00:31 GMT 65.520782 -25.213623 35,000 296 425 0
2020-01-20 12:00:22 GMT 65.512543 -25.171589 35,000 296 425 0
2020-01-20 12:00:11 GMT 65.503738 -25.127106 35,000 296 424 64
2020-01-20 12:00:01 GMT 65.495270 -25.084305 35,000 296 424 -64
2020-01-20 11:59:22 GMT 65.462128 -24.916874 35,000 296 420 64
2020-01-20 11:59:18 GMT 65.459518 -24.903946 35,000 296 420 64
2020-01-20 11:59:10 GMT 65.452606 -24.869614 35,000 296 421 0
2020-01-20 11:59:00 GMT 65.443878 -24.825996 35,000 296 420 0
2020-01-20 11:58:49 GMT 65.434479 -24.779066 35,000 296 420 -64
2020-01-20 11:58:39 GMT 65.426559 -24.739658 35,000 296 420 64
2020-01-20 11:58:27 GMT 65.416321 -24.688667 35,000 296 419 0
2020-01-20 11:58:19 GMT 65.409668 -24.655952 35,000 297 419 0
2020-01-20 11:58:09 GMT 65.400909 -24.612480 35,000 296 419 -64
2020-01-20 11:57:59 GMT 65.392136 -24.569206 35,025 296 419 -64
2020-01-20 11:57:49 GMT 65.383690 -24.527454 35,000 296 418 -64
2020-01-20 11:57:38 GMT 65.375259 -24.485779 35,000 296 418 0
2020-01-20 11:57:22 GMT 65.361572 -24.418547 35,000 297 417 64
2020-01-20 11:57:16 GMT 65.356430 -24.393311 34,975 297 417 64
2020-01-20 11:56:51 GMT 65.334671 -24.287546 35,000 297 419 -64
2020-01-20 11:56:45 GMT 65.329498 -24.262709 35,000 297 419 0
2020-01-20 11:56:37 GMT 65.322754 -24.229988 35,000 297 419 0
2020-01-20 11:56:24 GMT 65.311722 -24.176559 35,000 297 419 0
2020-01-20 11:56:17 GMT 65.305756 -24.147619 35,000 297 418 -64
2020-01-20 11:56:01 GMT 65.292160 -24.081921 35,000 297 417 -64
2020-01-20 11:55:56 GMT 65.287766 -24.060938 35,000 297 416 64
2020-01-20 11:55:46 GMT 65.279457 -24.020805 34,975 297 415 64
2020-01-20 11:55:08 GMT 65.247482 -23.867140 35,000 297 415 64
2020-01-20 11:55:02 GMT 65.242264 -23.842419 35,000 297 415 64
2020-01-20 11:54:54 GMT 65.235237 -23.808746 35,000 297 416 0
2020-01-20 11:54:41 GMT 65.223640 -23.753815 35,000 297 416 -64
2020-01-20 11:54:25 GMT 65.210373 -23.691216 35,000 297 416 0
2020-01-20 11:53:52 GMT 65.181236 -23.552971 35,025 297 415 0
2020-01-20 11:53:42 GMT 65.172821 -23.513599 35,000 297 415 64
2020-01-20 11:53:33 GMT 65.165405 -23.478813 35,000 297 415 0
2020-01-20 11:53:23 GMT 65.156387 -23.436804 35,000 298 415 0
2020-01-20 11:53:13 GMT 65.147858 -23.397102 35,000 298 415 64
2020-01-20 11:53:03 GMT 65.138626 -23.354517 35,000 298 415 0
2020-01-20 11:52:52 GMT 65.129562 -23.312531 35,000 298 414 0
2020-01-20 11:52:41 GMT 65.120132 -23.269703 35,000 298 414 0
2020-01-20 11:52:32 GMT 65.111526 -23.230701 35,000 298 413 0
2020-01-20 11:52:22 GMT 65.102699 -23.190880 35,000 298 412 0
2020-01-20 11:52:11 GMT 65.093491 -23.149403 35,000 298 411 0
2020-01-20 11:52:01 GMT 65.084885 -23.109631 35,000 298 410 0
2020-01-20 11:51:51 GMT 65.075638 -23.067774 35,000 299 410 0
2020-01-20 11:51:41 GMT 65.066666 -23.029541 35,000 300 412 0
2020-01-20 11:51:31 GMT 65.056641 -22.989000 35,000 302 413 64
2020-01-20 11:51:20 GMT 65.046326 -22.949638 35,000 303 413 -64
2020-01-20 11:51:10 GMT 65.035767 -22.911327 35,000 304 415 -64
2020-01-20 11:51:00 GMT 65.024490 -22.872734 35,025 306 418 -64
2020-01-20 11:50:50 GMT 65.012901 -22.835312 35,000 308 420 -64
2020-01-20 11:50:39 GMT 65.000656 -22.797949 35,000 308 421 64
2020-01-20 11:50:29 GMT 64.988785 -22.761726 34,975 308 420 128
2020-01-20 11:50:19 GMT 64.976303 -22.723791 34,975 308 421 64
2020-01-20 11:50:09 GMT 64.964348 -22.687340 35,000 308 422 0
2020-01-20 11:49:59 GMT 64.952271 -22.650732 35,000 308 423 0
2020-01-20 11:49:49 GMT 64.939911 -22.613489 35,000 309 423 0
2020-01-20 11:49:38 GMT 64.927200 -22.575188 35,000 309 425 0
2020-01-20 11:49:28 GMT 64.915375 -22.539711 35,000 309 425 0
2020-01-20 11:49:18 GMT 64.902740 -22.501867 35,000 309 425 -64
2020-01-20 11:49:08 GMT 64.890373 -22.464752 35,000 309 424 -64
2020-01-20 11:48:57 GMT 64.878021 -22.427710 35,000 309 424 -64
2020-01-20 11:48:47 GMT 64.865700 -22.390938 35,000 309 423 0
2020-01-20 11:48:37 GMT 64.853348 -22.353992 35,000 309 422 -64
2020-01-20 11:48:26 GMT 64.839798 -22.313562 35,000 309 422 0
2020-01-20 11:48:16 GMT 64.827713 -22.277641 35,000 309 421 64
2020-01-20 11:48:06 GMT 64.816315 -22.243689 35,000 309 421 0
2020-01-20 11:47:56 GMT 64.803772 -22.206335 35,000 309 421 0
2020-01-20 11:47:46 GMT 64.792107 -22.171555 35,000 309 421 64
2020-01-20 11:47:34 GMT 64.777626 -22.128525 35,000 309 421 64
2020-01-20 11:47:25 GMT 64.766640 -22.096024 35,000 309 422 0
2020-01-20 11:47:15 GMT 64.754288 -22.059559 35,000 309 424 64
2020-01-20 11:47:05 GMT 64.742249 -22.024073 34,975 309 424 64
2020-01-20 11:46:53 GMT 64.728233 -21.982956 35,000 309 426 64
2020-01-20 11:46:43 GMT 64.715431 -21.945419 35,000 309 428 0
2020-01-20 11:46:34 GMT 64.704758 -21.914209 35,000 309 429 0
2020-01-20 11:46:24 GMT 64.692535 -21.878393 35,000 309 430 -64
2020-01-20 11:46:14 GMT 64.680084 -21.842030 35,000 309 430 0
2020-01-20 11:46:04 GMT 64.667107 -21.804314 35,000 309 431 128
2020-01-20 11:45:54 GMT 64.654633 -21.768036 35,000 309 431 0
2020-01-20 11:45:43 GMT 64.641647 -21.730156 35,000 309 432 -64
2020-01-20 11:45:33 GMT 64.628220 -21.691187 35,000 309 432 0
2020-01-20 11:45:23 GMT 64.616135 -21.656113 35,025 309 432 -64
2020-01-20 11:45:13 GMT 64.603889 -21.620750 35,000 309 432 0
2020-01-20 11:45:03 GMT 64.590668 -21.582756 35,000 309 432 0
2020-01-20 11:44:53 GMT 64.578102 -21.546593 35,000 309 433 64
2020-01-20 11:44:42 GMT 64.564926 -21.508713 35,000 310 434 64
2020-01-20 11:44:32 GMT 64.552231 -21.472340 34,975 310 434 64
2020-01-20 11:44:21 GMT 64.539001 -21.434555 35,000 310 434 -64
2020-01-20 11:44:11 GMT 64.526276 -21.398071 35,025 310 434 -64
2020-01-20 11:44:01 GMT 64.513504 -21.361597 35,000 310 433 0
2020-01-20 11:43:51 GMT 64.501099 -21.326111 35,000 310 432 -64
2020-01-20 11:43:41 GMT 64.487793 -21.288185 35,000 310 431 0
2020-01-20 11:43:31 GMT 64.475189 -21.252394 35,000 310 430 -64
2020-01-20 11:43:20 GMT 64.462234 -21.215588 35,000 310 429 -64
2020-01-20 11:43:10 GMT 64.449478 -21.179466 35,000 310 428 -128
2020-01-20 11:43:00 GMT 64.436554 -21.142859 35,000 310 427 0
2020-01-20 11:42:50 GMT 64.424103 -21.107594 35,000 310 426 -64
2020-01-20 11:42:40 GMT 64.411583 -21.072235 35,000 310 425 0
2020-01-20 11:42:29 GMT 64.398880 -21.036402 35,000 310 424 0
2020-01-20 11:42:19 GMT 64.386215 -21.000938 35,000 310 423 64
2020-01-20 11:42:09 GMT 64.373795 -20.965979 34,975 310 424 64
2020-01-20 11:41:59 GMT 64.360985 -20.930099 34,975 310 424 64
2020-01-20 11:41:49 GMT 64.348274 -20.894623 35,000 310 425 64
2020-01-20 11:41:38 GMT 64.335098 -20.857773 35,000 310 425 0
2020-01-20 11:41:28 GMT 64.322662 -20.823048 35,000 310 425 -64
2020-01-20 11:41:18 GMT 64.309914 -20.787506 35,000 310 425 -64
2020-01-20 11:41:08 GMT 64.296883 -20.751343 35,000 310 425 -64
2020-01-20 11:40:58 GMT 64.284622 -20.717249 35,000 310 424 -64
2020-01-20 11:40:47 GMT 64.271698 -20.681305 35,000 310 424 -64
2020-01-20 11:40:37 GMT 64.258614 -20.645178 35,000 310 423 0
2020-01-20 11:40:27 GMT 64.246368 -20.611450 35,000 310 423 64
2020-01-20 11:40:16 GMT 64.232574 -20.573589 34,975 310 423 64
2020-01-20 11:40:06 GMT 64.220398 -20.540150 35,000 310 424 0
2020-01-20 11:39:58 GMT 64.210098 -20.511686 35,000 310 424 0
2020-01-20 11:39:46 GMT 64.194580 -20.468903 35,000 310 424 0
2020-01-20 11:39:36 GMT 64.182266 -20.435310 35,000 311 424 0
2020-01-20 11:39:26 GMT 64.169418 -20.400183 35,000 311 423 -64
2020-01-20 11:39:18 GMT 64.159180 -20.372168 35,000 311 423 0
2020-01-20 11:39:15 GMT 64.156311 -20.364428 35,000 311 423 0
2020-01-20 11:39:05 GMT 64.143768 -20.330090 35,000 310 422 64
2020-01-20 11:38:55 GMT 64.131111 -20.295483 35,000 311 422 0
2020-01-20 11:38:45 GMT 64.117844 -20.259447 35,000 310 421 0
2020-01-20 11:38:35 GMT 64.105499 -20.225830 35,000 311 420 -64
2020-01-20 11:38:24 GMT 64.092819 -20.191393 35,000 310 420 0
2020-01-20 11:38:14 GMT 64.080093 -20.156849 35,000 311 420 0
2020-01-20 11:38:04 GMT 64.067459 -20.122728 35,000 311 418 0
2020-01-20 11:37:54 GMT 64.054184 -20.087023 35,000 311 417 0
2020-01-20 11:37:44 GMT 64.041870 -20.054169 35,000 311 418 0
2020-01-20 11:37:33 GMT 64.028778 -20.020048 35,000 312 419 0
2020-01-20 11:37:23 GMT 64.015564 -19.986986 35,000 313 423 0
2020-01-20 11:37:13 GMT 64.001541 -19.953285 35,000 314 425 64
2020-01-20 11:37:03 GMT 63.987167 -19.920630 35,000 316 429 0
2020-01-20 11:36:52 GMT 63.972610 -19.889162 35,000 317 432 0
2020-01-20 11:36:42 GMT 63.957321 -19.856203 35,000 317 432 0
2020-01-20 11:36:32 GMT 63.943359 -19.826202 35,000 317 432 0
2020-01-20 11:36:22 GMT 63.928116 -19.793455 35,000 317 432 64
2020-01-20 11:36:12 GMT 63.913662 -19.762646 35,000 317 433 0
2020-01-20 11:36:04 GMT 63.902252 -19.738312 35,000 317 433 0
2020-01-20 11:36:01 GMT 63.898636 -19.730600 35,000 317 433 0
2020-01-20 11:35:54 GMT 63.888016 -19.707888 35,000 317 434 0
2020-01-20 11:35:51 GMT 63.883759 -19.698910 35,000 317 434 64
2020-01-20 11:35:41 GMT 63.868927 -19.667322 35,000 317 435 0
2020-01-20 11:35:31 GMT 63.854187 -19.636160 35,000 317 435 0
2020-01-20 11:35:24 GMT 63.843510 -19.613453 35,000 317 436 0
2020-01-20 11:35:21 GMT 63.838898 -19.603729 35,000 317 436 0
2020-01-20 11:35:11 GMT 63.824051 -19.572252 35,000 317 436 -64
2020-01-20 11:35:00 GMT 63.808640 -19.539713 35,000 318 437 64
2020-01-20 11:34:53 GMT 63.797607 -19.516443 35,000 318 437 0
2020-01-20 11:34:50 GMT 63.793808 -19.508444 35,000 318 437 -64
2020-01-20 11:34:39 GMT 63.777924 -19.474957 35,025 318 437 -64
2020-01-20 11:34:28 GMT 63.762085 -19.441574 35,000 318 437 -64
2020-01-20 11:34:20 GMT 63.749100 -19.414270 35,000 318 435 0
2020-01-20 11:34:09 GMT 63.733887 -19.382313 35,000 318 436 0
2020-01-20 11:33:59 GMT 63.718281 -19.349562 35,000 318 436 0
2020-01-20 11:33:49 GMT 63.703445 -19.318506 35,000 318 436 64
2020-01-20 11:33:38 GMT 63.688293 -19.286816 34,975 318 437 64
2020-01-20 11:33:28 GMT 63.673691 -19.256498 35,000 318 438 0
2020-01-20 11:33:18 GMT 63.658371 -19.224537 35,000 318 438 64
2020-01-20 11:33:07 GMT 63.642105 -19.190790 35,000 318 438 0
2020-01-20 11:32:58 GMT 63.627739 -19.160925 35,000 318 439 0
2020-01-20 11:32:48 GMT 63.612991 -19.130365 35,000 318 439 0
2020-01-20 11:32:37 GMT 63.596783 -19.096766 35,000 318 439 0
2020-01-20 11:32:27 GMT 63.582092 -19.066351 35,000 318 439 0
2020-01-20 11:32:17 GMT 63.567398 -19.036032 35,000 318 440 0
2020-01-20 11:32:03 GMT 63.547157 -18.994482 35,000 318 440 0
2020-01-20 11:31:52 GMT 63.530350 -18.959875 35,000 318 440 -64
2020-01-20 11:31:44 GMT 63.517639 -18.933668 35,000 318 440 -64
We lost coverage of the aircraft here for a total of 34 minutes
2020-01-20 10:57:43 GMT 60.345703 -13.290521 34,000 323 450 0
2020-01-20 10:57:40 GMT 60.340778 -13.282961 34,000 323 450 0
2020-01-20 10:57:04 GMT 60.282261 -13.192520 34,000 323 450 0
2020-01-20 10:56:59 GMT 60.273834 -13.179572 34,000 323 450 0
2020-01-20 10:56:49 GMT 60.257080 -13.153760 34,000 323 450 0
2020-01-20 10:56:38 GMT 60.239853 -13.127289 34,000 323 451 0
2020-01-20 10:55:34 GMT 60.133255 -12.964246 34,000 323 451 0
2020-01-20 10:55:27 GMT 60.122177 -12.947293 34,000 323 451 0
2020-01-20 10:55:18 GMT 60.107040 -12.924336 34,000 323 451 0
2020-01-20 10:55:08 GMT 60.089863 -12.898145 34,000 323 452 0
2020-01-20 10:54:58 GMT 60.073242 -12.872838 34,000 323 453 0
2020-01-20 10:54:48 GMT 60.056488 -12.847469 34,000 323 454 0
2020-01-20 10:54:38 GMT 60.039631 -12.822026 34,000 323 454 0
2020-01-20 10:54:27 GMT 60.022614 -12.796326 34,000 323 454 0
2020-01-20 10:54:17 GMT 60.005905 -12.771038 34,000 323 454 0
2020-01-20 10:54:07 GMT 59.988876 -12.745467 34,000 324 455 0
2020-01-20 10:53:57 GMT 59.971710 -12.719618 34,000 324 455 0
2020-01-20 10:53:44 GMT 59.949833 -12.686747 34,000 324 455 0
2020-01-20 10:53:34 GMT 59.932468 -12.660701 34,000 324 456 0
2020-01-20 10:53:27 GMT 59.921036 -12.643616 34,000 324 456 0
2020-01-20 10:53:17 GMT 59.904072 -12.618271 34,000 324 456 0
2020-01-20 10:53:07 GMT 59.887405 -12.593363 34,000 324 457 0
2020-01-20 10:52:56 GMT 59.869629 -12.566803 34,000 324 457 0
2020-01-20 10:52:47 GMT 59.852966 -12.541992 34,000 324 457 0
2020-01-20 10:52:33 GMT 59.830612 -12.508598 34,000 324 457 0
2020-01-20 10:52:24 GMT 59.815063 -12.485488 34,000 324 457 0
2020-01-20 10:52:12 GMT 59.794418 -12.454742 34,000 324 458 0
2020-01-20 10:52:06 GMT 59.784340 -12.439744 34,000 324 458 0
2020-01-20 10:51:56 GMT 59.767998 -12.415593 34,000 324 458 0
2020-01-20 10:51:46 GMT 59.750870 -12.390210 34,000 324 458 0
2020-01-20 10:51:36 GMT 59.733505 -12.364544 34,000 324 458 0
2020-01-20 10:51:26 GMT 59.716461 -12.339386 34,000 324 458 0
2020-01-20 10:51:16 GMT 59.699287 -12.314158 34,000 324 459 0
2020-01-20 10:51:06 GMT 59.682358 -12.289215 34,000 324 459 0
2020-01-20 10:50:56 GMT 59.665306 -12.264246 34,000 324 459 0
2020-01-20 10:50:46 GMT 59.647980 -12.238770 34,000 324 459 0
2020-01-20 10:50:35 GMT 59.630539 -12.213135 34,000 324 459 0
2020-01-20 10:50:25 GMT 59.613213 -12.187816 34,000 324 459 0
2020-01-20 10:50:15 GMT 59.596481 -12.163422 34,000 324 459 0
2020-01-20 10:50:05 GMT 59.579453 -12.138428 34,000 324 459 0
2020-01-20 10:49:55 GMT 59.561726 -12.112616 34,000 324 459 0
2020-01-20 10:49:45 GMT 59.544342 -12.087250 34,000 324 459 0
2020-01-20 10:49:35 GMT 59.527817 -12.063263 34,000 324 459 0
2020-01-20 10:49:25 GMT 59.510422 -12.037994 34,000 324 459 0
2020-01-20 10:49:15 GMT 59.493027 -12.012726 34,000 324 459 0
2020-01-20 10:49:04 GMT 59.475651 -11.987599 34,000 324 459 0
2020-01-20 10:48:55 GMT 59.458984 -11.963543 34,000 324 458 0
2020-01-20 10:48:44 GMT 59.440979 -11.937469 34,000 324 458 0
2020-01-20 10:48:34 GMT 59.424362 -11.913391 34,000 324 457 0
2020-01-20 10:48:24 GMT 59.407032 -11.888344 34,000 324 457 0
2020-01-20 10:48:14 GMT 59.389484 -11.863056 34,000 324 457 0
2020-01-20 10:47:51 GMT 59.350204 -11.806732 34,000 324 457 0
2020-01-20 10:47:44 GMT 59.338600 -11.790035 34,000 324 458 0
2020-01-20 10:47:33 GMT 59.319981 -11.763421 34,000 324 457 0
2020-01-20 10:47:23 GMT 59.303238 -11.739532 34,000 324 458 0
2020-01-20 10:47:13 GMT 59.286255 -11.715271 34,000 324 458 0
2020-01-20 10:47:03 GMT 59.269611 -11.691442 34,000 324 458 0
2020-01-20 10:46:52 GMT 59.251099 -11.665100 34,000 324 458 0
2020-01-20 10:46:43 GMT 59.235115 -11.642382 34,000 324 457 0
2020-01-20 10:46:32 GMT 59.216496 -11.616053 34,000 324 457 0
2020-01-20 10:46:23 GMT 59.200203 -11.592944 34,000 324 457 0
2020-01-20 10:46:13 GMT 59.183212 -11.568787 34,000 324 457 0
2020-01-20 10:46:03 GMT 59.166031 -11.544547 34,000 324 457 0
2020-01-20 10:45:52 GMT 59.147877 -11.518881 34,000 324 457 0
2020-01-20 10:45:42 GMT 59.131073 -11.494995 34,000 324 457 0
2020-01-20 10:45:32 GMT 59.114033 -11.470958 34,000 324 457 0
2020-01-20 10:45:22 GMT 59.096951 -11.446807 34,000 325 456 0
2020-01-20 10:45:12 GMT 59.079071 -11.421661 34,000 325 456 0
2020-01-20 10:45:02 GMT 59.062271 -11.398041 34,000 325 457 0
2020-01-20 10:44:52 GMT 59.044857 -11.373596 34,000 325 457 0
2020-01-20 10:44:42 GMT 59.027725 -11.349540 34,000 325 457 0
2020-01-20 10:44:32 GMT 59.010681 -11.325714 34,000 325 457 0
2020-01-20 10:44:21 GMT 58.992905 -11.300764 34,000 325 458 0
2020-01-20 10:44:11 GMT 58.975636 -11.276708 34,000 325 458 0
2020-01-20 10:44:01 GMT 58.957569 -11.251421 34,000 325 458 0
2020-01-20 10:43:51 GMT 58.941422 -11.228943 34,000 325 458 0
2020-01-20 10:43:41 GMT 58.923615 -11.204224 34,000 325 459 0
2020-01-20 10:43:31 GMT 58.906311 -11.180237 34,000 325 458 0
2020-01-20 10:43:21 GMT 58.889145 -11.156433 34,000 325 459 0
2020-01-20 10:43:11 GMT 58.872116 -11.132904 34,000 325 459 0
2020-01-20 10:43:01 GMT 58.854309 -11.108276 34,000 325 458 0
2020-01-20 10:42:51 GMT 58.837372 -11.084939 34,000 325 458 0
2020-01-20 10:42:41 GMT 58.819962 -11.060852 34,000 325 458 0
2020-01-20 10:42:30 GMT 58.802124 -11.036210 34,000 325 458 0
2020-01-20 10:42:20 GMT 58.785187 -11.012908 34,000 325 458 0
2020-01-20 10:42:10 GMT 58.767220 -10.988159 34,000 325 458 0
2020-01-20 10:42:00 GMT 58.750416 -10.964996 34,000 325 458 0
2020-01-20 10:41:50 GMT 58.733185 -10.941320 34,000 325 458 0
2020-01-20 10:41:40 GMT 58.715607 -10.917309 34,000 325 457 0
2020-01-20 10:41:30 GMT 58.698166 -10.893476 34,000 325 457 0
2020-01-20 10:41:19 GMT 58.680634 -10.869554 34,000 325 457 0
2020-01-20 10:41:10 GMT 58.663879 -10.846695 34,000 325 457 0
2020-01-20 10:40:58 GMT 58.643063 -10.818329 34,000 325 456 0
2020-01-20 10:40:49 GMT 58.627808 -10.797611 34,000 325 456 0
2020-01-20 10:40:39 GMT 58.611649 -10.775727 34,000 325 456 0
2020-01-20 10:40:29 GMT 58.594162 -10.751983 34,000 325 456 0
2020-01-20 10:40:19 GMT 58.576492 -10.728061 34,000 325 456 0
2020-01-20 10:40:09 GMT 58.559410 -10.705078 34,000 325 455 0
2020-01-20 10:39:59 GMT 58.541840 -10.681458 34,000 326 456 0
2020-01-20 10:39:49 GMT 58.524216 -10.658067 34,000 326 455 0
2020-01-20 10:39:39 GMT 58.507317 -10.635864 34,000 326 456 0
2020-01-20 10:39:28 GMT 58.489380 -10.612616 34,000 327 456 0
2020-01-20 10:39:18 GMT 58.471008 -10.589447 34,000 327 456 0
2020-01-20 10:39:09 GMT 58.454224 -10.568936 34,000 328 457 0
2020-01-20 10:38:58 GMT 58.435722 -10.547333 34,000 330 458 0
2020-01-20 10:38:48 GMT 58.417194 -10.526825 34,000 331 460 0
2020-01-20 10:38:38 GMT 58.398560 -10.507537 34,000 333 462 0
2020-01-20 10:38:28 GMT 58.378925 -10.488373 34,000 334 463 0
2020-01-20 10:38:18 GMT 58.359699 -10.470062 34,000 333 463 0
2020-01-20 10:38:08 GMT 58.341125 -10.449554 34,000 327 455 0
2020-01-20 10:37:58 GMT 58.324036 -10.427000 34,000 325 454 0
2020-01-20 10:37:48 GMT 58.306686 -10.403876 34,000 326 455 0
2020-01-20 10:37:38 GMT 58.289383 -10.380751 34,000 326 455 0
2020-01-20 10:37:28 GMT 58.272171 -10.357892 34,000 326 455 0
2020-01-20 10:37:17 GMT 58.254501 -10.334414 34,000 325 456 0
2020-01-20 10:37:07 GMT 58.236832 -10.311023 34,000 326 456 0
2020-01-20 10:36:57 GMT 58.219856 -10.288605 34,000 326 456 0
2020-01-20 10:36:47 GMT 58.202133 -10.265217 34,000 326 457 0
2020-01-20 10:36:37 GMT 58.184383 -10.241913 34,000 326 457 0
2020-01-20 10:36:27 GMT 58.166836 -10.218933 34,000 326 458 0
2020-01-20 10:36:17 GMT 58.149399 -10.196110 34,000 326 459 0
2020-01-20 10:36:07 GMT 58.131958 -10.173428 34,000 326 459 0
2020-01-20 10:35:56 GMT 58.114288 -10.150393 34,000 326 460 0
2020-01-20 10:35:46 GMT 58.096725 -10.127472 34,000 326 459 0
2020-01-20 10:35:36 GMT 58.079178 -10.104409 34,000 325 460 0
2020-01-20 10:35:26 GMT 58.060913 -10.080222 34,000 325 460 0
2020-01-20 10:35:16 GMT 58.044067 -10.057895 34,000 326 460 0
2020-01-20 10:35:06 GMT 58.026398 -10.033441 34,000 322 456 0
2020-01-20 10:34:55 GMT 58.009396 -10.005615 34,000 317 452 0
2020-01-20 10:34:45 GMT 57.995590 -9.978864 34,000 313 447 0
2020-01-20 10:34:35 GMT 57.981995 -9.947500 34,000 307 442 0
2020-01-20 10:34:25 GMT 57.970825 -9.917110 34,000 304 440 0
2020-01-20 10:34:15 GMT 57.959610 -9.885215 34,000 304 440 0
2020-01-20 10:34:05 GMT 57.948086 -9.852631 34,000 304 441 0
2020-01-20 10:33:55 GMT 57.936821 -9.820679 34,000 304 442 0
2020-01-20 10:33:45 GMT 57.925507 -9.788907 34,000 304 442 0
2020-01-20 10:33:35 GMT 57.914150 -9.756775 34,000 304 442 0
2020-01-20 10:33:24 GMT 57.902046 -9.722626 34,000 304 442 0
2020-01-20 10:33:14 GMT 57.890762 -9.690916 34,000 304 442 0
2020-01-20 10:33:05 GMT 57.879776 -9.659906 34,000 304 442 0
2020-01-20 10:32:55 GMT 57.868481 -9.628143 34,000 304 442 0
2020-01-20 10:32:44 GMT 57.856842 -9.595494 34,000 304 443 64
2020-01-20 10:32:34 GMT 57.845486 -9.563782 34,000 304 443 0
2020-01-20 10:32:24 GMT 57.834034 -9.531738 34,000 304 443 0
2020-01-20 10:32:14 GMT 57.822189 -9.498744 34,000 304 443 0
2020-01-20 10:32:03 GMT 57.810059 -9.465076 34,000 304 443 0
2020-01-20 10:31:54 GMT 57.799538 -9.435608 34,000 304 443 0
2020-01-20 10:31:44 GMT 57.787666 -9.402557 34,000 304 442 0
2020-01-20 10:31:34 GMT 57.776367 -9.371161 34,000 305 441 0
2020-01-20 10:31:24 GMT 57.765087 -9.339752 34,000 305 441 0
2020-01-20 10:31:14 GMT 57.753342 -9.307281 34,000 305 440 0
2020-01-20 10:31:03 GMT 57.741577 -9.274765 34,000 305 440 0
2020-01-20 10:30:54 GMT 57.730499 -9.244198 34,000 305 439 0
2020-01-20 10:30:43 GMT 57.718723 -9.211859 34,000 305 439 0
2020-01-20 10:30:33 GMT 57.707062 -9.179764 34,000 305 439 0
2020-01-20 10:30:23 GMT 57.695938 -9.149036 34,000 305 439 0
2020-01-20 10:30:13 GMT 57.684227 -9.117058 34,000 305 438 0
2020-01-20 10:30:03 GMT 57.672451 -9.085073 34,000 305 437 0
2020-01-20 10:29:53 GMT 57.661186 -9.054152 34,000 305 436 0
2020-01-20 10:29:42 GMT 57.649017 -9.020891 34,000 305 434 0
2020-01-20 10:29:32 GMT 57.638306 -8.991537 34,000 305 433 0
2020-01-20 10:29:22 GMT 57.626587 -8.959522 34,000 305 432 0
2020-01-20 10:29:12 GMT 57.615509 -8.929396 34,000 305 431 0
2020-01-20 10:29:02 GMT 57.603928 -8.897896 34,000 305 431 0
2020-01-20 10:28:52 GMT 57.592937 -8.868005 34,000 305 429 -64
2020-01-20 10:28:42 GMT 57.581253 -8.836109 34,000 305 428 0
2020-01-20 10:28:32 GMT 57.570408 -8.806605 34,000 305 427 0
2020-01-20 10:28:22 GMT 57.559189 -8.776127 34,000 305 427 0
2020-01-20 10:28:12 GMT 57.547897 -8.745632 34,000 305 427 0
2020-01-20 10:28:02 GMT 57.536705 -8.715348 34,000 305 427 0
2020-01-20 10:27:54 GMT 57.526882 -8.688768 34,000 305 427 0
2020-01-20 10:27:51 GMT 57.525066 -8.683806 34,000 305 427 0
2020-01-20 10:27:41 GMT 57.513840 -8.653622 34,000 305 427 0
2020-01-20 10:27:31 GMT 57.502396 -8.622850 34,000 305 428 0
2020-01-20 10:27:21 GMT 57.491409 -8.593454 34,000 305 429 0
2020-01-20 10:27:15 GMT 57.483719 -8.572855 34,000 305 429 0
2020-01-20 10:27:11 GMT 57.479725 -8.562071 34,000 305 429 0
2020-01-20 10:27:01 GMT 57.468292 -8.531570 34,000 305 429 0
2020-01-20 10:26:54 GMT 57.460732 -8.511303 34,000 305 429 0
2020-01-20 10:26:51 GMT 57.456985 -8.501186 34,000 305 429 0
2020-01-20 10:26:41 GMT 57.445450 -8.470459 34,000 305 429 0
2020-01-20 10:26:30 GMT 57.433823 -8.439388 34,000 305 429 0
2020-01-20 10:26:20 GMT 57.422516 -8.409262 34,000 305 430 0
2020-01-20 10:26:11 GMT 57.411346 -8.379478 34,000 305 430 0
2020-01-20 10:26:00 GMT 57.399902 -8.349094 34,000 305 430 0
2020-01-20 10:25:50 GMT 57.388107 -8.317802 34,000 305 430 0
2020-01-20 10:25:40 GMT 57.376564 -8.286970 34,000 305 431 0
2020-01-20 10:25:30 GMT 57.365112 -8.256580 34,000 305 431 0
2020-01-20 10:25:20 GMT 57.353531 -8.225842 34,000 305 431 0
2020-01-20 10:25:10 GMT 57.342133 -8.195715 34,000 306 432 0
2020-01-20 10:25:00 GMT 57.330826 -8.165932 34,000 306 432 0
2020-01-20 10:24:49 GMT 57.318832 -8.134260 34,000 306 432 0
2020-01-20 10:24:39 GMT 57.307526 -8.104477 34,000 306 433 0
2020-01-20 10:24:29 GMT 57.296028 -8.074242 34,000 306 433 0
2020-01-20 10:24:22 GMT 57.286999 -8.050586 34,000 306 434 0
2020-01-20 10:24:19 GMT 57.284042 -8.042765 34,000 306 434 0
2020-01-20 10:24:09 GMT 57.272736 -8.013067 34,000 306 434 0
2020-01-20 10:24:03 GMT 57.265209 -7.993440 34,000 306 434 0
2020-01-20 10:23:59 GMT 57.260742 -7.981745 34,000 306 434 0
2020-01-20 10:23:52 GMT 57.253109 -7.961810 34,000 306 434 0
2020-01-20 10:23:49 GMT 57.249012 -7.951089 34,000 306 434 0
2020-01-20 10:23:42 GMT 57.241562 -7.931597 34,000 306 434 0
2020-01-20 10:23:38 GMT 57.237095 -7.919991 34,000 306 434 0
2020-01-20 10:23:32 GMT 57.229877 -7.901119 34,000 306 434 0
2020-01-20 10:23:29 GMT 57.222755 -7.882602 34,000 306 435 0
2020-01-20 10:23:23 GMT 57.217728 -7.869489 34,000 306 435 0
2020-01-20 10:23:17 GMT 57.211956 -7.854516 34,000 306 435 0
2020-01-20 10:23:10 GMT 57.203388 -7.832277 34,000 306 435 0
2020-01-20 10:23:02 GMT 57.194824 -7.809906 34,000 306 436 0
2020-01-20 10:22:57 GMT 57.189240 -7.795420 34,000 306 436 0
2020-01-20 10:22:51 GMT 57.181732 -7.775917 34,000 306 436 0
2020-01-20 10:22:48 GMT 57.178856 -7.768397 34,000 306 436 0
2020-01-20 10:22:41 GMT 57.170338 -7.746247 34,000 306 436 0
2020-01-20 10:22:38 GMT 57.167171 -7.738096 34,000 306 436 0
2020-01-20 10:22:28 GMT 57.155300 -7.707264 34,000 306 436 0
2020-01-20 10:22:20 GMT 57.145935 -7.683048 34,000 306 436 0
2020-01-20 10:22:16 GMT 57.141148 -7.670672 34,000 306 436 0
2020-01-20 10:22:11 GMT 57.135498 -7.656097 34,000 306 437 0
2020-01-20 10:22:08 GMT 57.131840 -7.646662 34,000 306 437 0
2020-01-20 10:22:01 GMT 57.124100 -7.626657 34,000 306 436 0
2020-01-20 10:21:58 GMT 57.108284 -7.585882 34,000 306 437 0
2020-01-20 10:21:48 GMT 57.096405 -7.555418 34,000 306 437 0
2020-01-20 10:21:38 GMT 57.096405 -7.555418 34,000 306 437 0
2020-01-20 10:21:27 GMT 57.084496 -7.524749 34,000 306 437 0
2020-01-20 10:21:24 GMT 57.080772 -7.515180 34,000 306 437 0
2020-01-20 10:21:18 GMT 57.072811 -7.494891 34,000 306 437 0
2020-01-20 10:21:10 GMT 57.064060 -7.472387 34,000 306 436 0
2020-01-20 10:21:07 GMT 57.060753 -7.463881 34,000 306 437 0
2020-01-20 10:21:00 GMT 57.051628 -7.440491 34,000 306 436 0
2020-01-20 10:20:57 GMT 57.049072 -7.433968 34,000 306 436 0
2020-01-20 10:20:51 GMT 57.041428 -7.414312 34,000 306 436 64
2020-01-20 10:20:47 GMT 57.036758 -7.402382 34,000 306 436 0
2020-01-20 10:20:41 GMT 57.029003 -7.382547 34,000 306 436 64
2020-01-20 10:20:38 GMT 57.026165 -7.375282 34,000 306 437 0
2020-01-20 10:20:34 GMT 57.020859 -7.361637 34,000 306 437 0
2020-01-20 10:20:30 GMT 57.016754 -7.351227 34,000 306 437 0
2020-01-20 10:20:26 GMT 57.011642 -7.338247 34,000 306 437 0
2020-01-20 10:20:23 GMT 57.008801 -7.330982 34,000 306 437 0
2020-01-20 10:20:20 GMT 57.005173 -7.321615 34,000 306 437 0
2020-01-20 10:20:17 GMT 56.997025 -7.300930 34,000 306 437 0
2020-01-20 10:20:14 GMT 56.997025 -7.300930 34,000 306 437 0
2020-01-20 10:20:10 GMT 56.992767 -7.290115 34,000 306 437 0
2020-01-20 10:20:07 GMT 56.989563 -7.281961 34,000 306 438 0
2020-01-20 10:20:03 GMT 56.985397 -7.271318 34,000 306 439 0
2020-01-20 10:20:00 GMT 56.981380 -7.261254 34,000 306 438 0
2020-01-20 10:19:57 GMT 56.977844 -7.252128 34,000 306 439 0
2020-01-20 10:19:53 GMT 56.973633 -7.241535 34,000 306 439 0
2020-01-20 10:19:47 GMT 56.965759 -7.221537 34,000 306 439 0
2020-01-20 10:19:43 GMT 56.961227 -7.210121 34,000 306 439 0
2020-01-20 10:19:40 GMT 56.954315 -7.192526 34,000 306 439 0
2020-01-20 10:19:37 GMT 56.950882 -7.183857 34,000 306 440 0
2020-01-20 10:19:30 GMT 56.945816 -7.171060 34,000 306 441 0
2020-01-20 10:19:27 GMT 56.942184 -7.161934 34,000 306 441 0
2020-01-20 10:19:24 GMT 56.939159 -7.154226 34,000 306 440 0
2020-01-20 10:19:21 GMT 56.935062 -7.143860 34,000 306 441 0
2020-01-20 10:19:16 GMT 56.929615 -7.130038 34,000 306 441 0
2020-01-20 10:19:13 GMT 56.925613 -7.119999 34,000 306 441 0
2020-01-20 10:19:09 GMT 56.920307 -7.106648 34,000 306 441 0
2020-01-20 10:19:06 GMT 56.917652 -7.099915 34,000 306 441 0
2020-01-20 10:19:03 GMT 56.914078 -7.090816 34,000 306 441 0
2020-01-20 10:18:58 GMT 56.907738 -7.074841 34,000 306 442 0
2020-01-20 10:18:54 GMT 56.902817 -7.062407 34,000 306 443 0
2020-01-20 10:18:49 GMT 56.895725 -7.044540 34,000 306 443 0
2020-01-20 10:18:46 GMT 56.893024 -7.037718 34,000 306 443 0
2020-01-20 10:18:43 GMT 56.889908 -7.029921 34,000 306 443 0
2020-01-20 10:18:37 GMT 56.882172 -7.010393 34,000 306 443 0
2020-01-20 10:18:33 GMT 56.878235 -7.000437 34,000 307 443 0
2020-01-20 10:18:28 GMT 56.872169 -6.985178 34,000 307 443 0
2020-01-20 10:18:25 GMT 56.868587 -6.976230 34,000 307 443 0
2020-01-20 10:18:22 GMT 56.864136 -6.965075 34,000 307 444 0
2020-01-20 10:18:19 GMT 56.860535 -6.956029 34,000 307 444 0
2020-01-20 10:18:15 GMT 56.856621 -6.946195 34,000 307 444 0
2020-01-20 10:18:12 GMT 56.848289 -6.925374 34,000 307 444 0
2020-01-20 10:18:09 GMT 56.848289 -6.925374 34,000 307 444 0
2020-01-20 10:18:06 GMT 56.845230 -6.917696 34,000 307 444 0
2020-01-20 10:18:03 GMT 56.841122 -6.907477 34,000 307 445 0
2020-01-20 10:17:59 GMT 56.836094 -6.894807 34,000 307 445 0
2020-01-20 10:17:52 GMT 56.827789 -6.874008 34,000 307 445 0
2020-01-20 10:17:48 GMT 56.819149 -6.852456 34,000 307 445 0
2020-01-20 10:17:45 GMT 56.819149 -6.852456 34,000 307 445 0
2020-01-20 10:17:41 GMT 56.815144 -6.842356 34,000 307 445 0
2020-01-20 10:17:38 GMT 56.808113 -6.824902 34,000 307 445 0
2020-01-20 10:17:35 GMT 56.808113 -6.824902 34,000 307 445 0
2020-01-20 10:17:32 GMT 56.803459 -6.813207 34,000 307 445 0
2020-01-20 10:17:29 GMT 56.800781 -6.806545 34,000 307 445 0
2020-01-20 10:17:26 GMT 56.796291 -6.795310 34,000 307 446 0
2020-01-20 10:17:23 GMT 56.792149 -6.785032 34,000 307 445 0
2020-01-20 10:17:18 GMT 56.786911 -6.771955 34,000 307 445 0
2020-01-20 10:17:15 GMT 56.782654 -6.761398 34,000 307 446 0
2020-01-20 10:17:12 GMT 56.779484 -6.753491 34,000 307 446 0
2020-01-20 10:17:08 GMT 56.774410 -6.740998 34,000 307 446 0
2020-01-20 10:17:04 GMT 56.769665 -6.729126 34,000 307 446 0
2020-01-20 10:16:58 GMT 56.761185 -6.708097 34,000 307 446 0
2020-01-20 10:16:55 GMT 56.758816 -6.702192 34,000 307 446 0
2020-01-20 10:16:52 GMT 56.755096 -6.692905 34,000 307 446 0
2020-01-20 10:16:48 GMT 56.749226 -6.678447 34,000 307 446 0
2020-01-20 10:16:44 GMT 56.745941 -6.670246 34,000 307 446 0
2020-01-20 10:16:39 GMT 56.739487 -6.654367 34,000 307 447 0
2020-01-20 10:16:36 GMT 56.735092 -6.643467 34,000 307 447 0
2020-01-20 10:16:32 GMT 56.731018 -6.633425 34,000 307 445 0
2020-01-20 10:16:28 GMT 56.726185 -6.621478 34,000 307 445 0
2020-01-20 10:16:25 GMT 56.722599 -6.612529 34,000 307 445 0
2020-01-20 10:16:22 GMT 56.718338 -6.602011 34,000 307 445 0
2020-01-20 10:16:17 GMT 56.712250 -6.586905 34,000 307 445 0
2020-01-20 10:16:14 GMT 56.709286 -6.579659 34,000 307 445 0
2020-01-20 10:16:11 GMT 56.706120 -6.571773 34,000 307 445 0
2020-01-20 10:16:07 GMT 56.699787 -6.556180 34,000 307 445 0
2020-01-20 10:16:01 GMT 56.693115 -6.539612 34,000 307 445 0
2020-01-20 10:15:57 GMT 56.688766 -6.528883 34,000 307 445 0
2020-01-20 10:15:54 GMT 56.680847 -6.509399 34,000 307 445 0
2020-01-20 10:15:47 GMT 56.676224 -6.497984 34,000 307 444 0
2020-01-20 10:15:44 GMT 56.672649 -6.489199 34,000 307 444 0
2020-01-20 10:15:41 GMT 56.669064 -6.480339 34,000 307 444 0
2020-01-20 10:15:38 GMT 56.665806 -6.472365 34,000 307 444 0
2020-01-20 10:15:34 GMT 56.660126 -6.458366 34,000 307 444 0
2020-01-20 10:15:29 GMT 56.653702 -6.442595 34,000 307 444 0
2020-01-20 10:15:25 GMT 56.648113 -6.428774 34,000 307 444 0
2020-01-20 10:15:19 GMT 56.641411 -6.412383 34,000 307 444 0
2020-01-20 10:15:16 GMT 56.637779 -6.403435 34,000 307 444 0
2020-01-20 10:15:13 GMT 56.635483 -6.397820 34,000 307 444 0
2020-01-20 10:15:09 GMT 56.630493 -6.385632 34,000 307 444 0
2020-01-20 10:15:06 GMT 56.626511 -6.375933 34,000 307 443 0
2020-01-20 10:15:03 GMT 56.621815 -6.364362 34,000 307 444 0
2020-01-20 10:15:00 GMT 56.618507 -6.356300 34,000 307 444 0
2020-01-20 10:14:56 GMT 56.614059 -6.345463 34,000 307 443 0
2020-01-20 10:14:53 GMT 56.611084 -6.338167 34,000 307 443 0
2020-01-20 10:14:50 GMT 56.606323 -6.326580 34,000 307 443 0
2020-01-20 10:14:47 GMT 56.602570 -6.317396 34,000 307 443 0
2020-01-20 10:14:44 GMT 56.599640 -6.310272 34,000 307 443 0
2020-01-20 10:14:41 GMT 56.594582 -6.297913 34,000 307 444 0
2020-01-20 10:14:35 GMT 56.587875 -6.281519 34,000 307 443 0
2020-01-20 10:14:32 GMT 56.585270 -6.275253 34,000 307 443 0
2020-01-20 10:14:29 GMT 56.581650 -6.266369 34,000 307 443 0
2020-01-20 10:14:25 GMT 56.575195 -6.250638 34,000 307 443 0
2020-01-20 10:14:18 GMT 56.567394 -6.231651 34,000 307 443 0
2020-01-20 10:14:14 GMT 56.562599 -6.219978 34,000 307 443 0
2020-01-20 10:14:11 GMT 56.558762 -6.210605 34,000 307 443 0
2020-01-20 10:14:08 GMT 56.554916 -6.201200 34,000 307 443 0
2020-01-20 10:14:04 GMT 56.546444 -6.180582 34,000 308 443 0
2020-01-20 10:13:58 GMT 56.542625 -6.171398 34,000 307 443 0
2020-01-20 10:13:54 GMT 56.538116 -6.160334 34,000 307 443 0
2020-01-20 10:13:51 GMT 56.533630 -6.149431 34,000 307 443 0
2020-01-20 10:13:48 GMT 56.530571 -6.142044 34,000 307 443 0
2020-01-20 10:13:43 GMT 56.524471 -6.127195 34,000 307 443 0
2020-01-20 10:13:40 GMT 56.517582 -6.110458 34,000 307 443 0
2020-01-20 10:13:37 GMT 56.517582 -6.110458 34,000 307 443 0
2020-01-20 10:13:34 GMT 56.513485 -6.100502 34,000 307 443 0
2020-01-20 10:13:31 GMT 56.505432 -6.081018 34,000 307 443 0
2020-01-20 10:13:25 GMT 56.502407 -6.073723 34,000 307 443 0
2020-01-20 10:13:22 GMT 56.494766 -6.055298 34,000 307 443 0
2020-01-20 10:13:18 GMT 56.494766 -6.055298 34,000 307 443 0
2020-01-20 10:13:15 GMT 56.489868 -6.043396 34,000 307 443 0
2020-01-20 10:13:12 GMT 56.487370 -6.037416 34,000 307 442 0
2020-01-20 10:13:09 GMT 56.482574 -6.025829 34,000 307 442 0
2020-01-20 10:13:05 GMT 56.478523 -6.016045 34,000 307 442 0
2020-01-20 10:13:02 GMT 56.474709 -6.006861 34,000 307 442 0
2020-01-20 10:12:58 GMT 56.469540 -5.994415 34,000 307 442 0
2020-01-20 10:12:55 GMT 56.465698 -5.985135 34,000 307 442 0
2020-01-20 10:12:52 GMT 56.455948 -5.961714 34,000 307 442 0
2020-01-20 10:12:47 GMT 56.455948 -5.961714 34,000 307 442 0
2020-01-20 10:12:42 GMT 56.449997 -5.947349 34,000 307 442 0
2020-01-20 10:12:38 GMT 56.445007 -5.935364 34,000 307 442 0
2020-01-20 10:12:35 GMT 56.441936 -5.928068 34,000 307 442 0
2020-01-20 10:12:32 GMT 56.437729 -5.917969 34,000 307 442 0
2020-01-20 10:12:27 GMT 56.431461 -5.902834 34,000 307 442 0
2020-01-20 10:12:23 GMT 56.426331 -5.890586 34,000 307 442 0
2020-01-20 10:12:19 GMT 56.420700 -5.877020 34,000 307 442 0
2020-01-20 10:12:16 GMT 56.418751 -5.872364 34,000 307 444 0
2020-01-20 10:12:13 GMT 56.413818 -5.860434 34,000 307 443 0
2020-01-20 10:12:10 GMT 56.410812 -5.853299 34,000 307 442 0
2020-01-20 10:12:07 GMT 56.406601 -5.843182 34,000 308 443 0
2020-01-20 10:12:04 GMT 56.403122 -5.834822 34,000 308 443 0
2020-01-20 10:12:01 GMT 56.400009 -5.827332 34,000 308 443 0
2020-01-20 10:11:57 GMT 56.394173 -5.813313 34,000 308 443 0
2020-01-20 10:11:52 GMT 56.384491 -5.790128 34,000 308 443 0
2020-01-20 10:11:49 GMT 56.384491 -5.790128 34,000 308 443 0
2020-01-20 10:11:46 GMT 56.381275 -5.782413 34,000 308 443 0
2020-01-20 10:11:43 GMT 56.374283 -5.765742 34,000 308 443 0
2020-01-20 10:11:36 GMT 56.369156 -5.753424 34,000 308 443 0
2020-01-20 10:11:33 GMT 56.364193 -5.741558 34,000 308 444 0
2020-01-20 10:11:30 GMT 56.361740 -5.735696 34,000 308 443 0
2020-01-20 10:11:25 GMT 56.355164 -5.720015 34,000 308 443 0
2020-01-20 10:11:21 GMT 56.350708 -5.709395 34,000 308 443 0
2020-01-20 10:11:18 GMT 56.346863 -5.700240 34,000 308 444 0
2020-01-20 10:11:15 GMT 56.343201 -5.691501 34,000 308 444 0
2020-01-20 10:11:12 GMT 56.339428 -5.682507 34,000 308 444 0
2020-01-20 10:11:09 GMT 56.335655 -5.673580 34,000 308 444 0
2020-01-20 10:11:06 GMT 56.326492 -5.651800 34,000 308 444 0
2020-01-20 10:11:02 GMT 56.326492 -5.651800 34,000 308 444 0
2020-01-20 10:10:59 GMT 56.323414 -5.644398 34,000 308 444 0
2020-01-20 10:10:56 GMT 56.320152 -5.636759 34,000 308 444 0
2020-01-20 10:10:53 GMT 56.315872 -5.626581 34,000 308 444 0
2020-01-20 10:10:50 GMT 56.310753 -5.614443 34,000 308 444 0
2020-01-20 10:10:47 GMT 56.304420 -5.599422 34,000 308 444 0
2020-01-20 10:10:44 GMT 56.304420 -5.599422 34,000 308 444 0
2020-01-20 10:10:41 GMT 56.299904 -5.588779 34,000 308 444 -64
2020-01-20 10:10:38 GMT 56.298134 -5.584488 34,000 308 444 0
2020-01-20 10:10:35 GMT 56.293579 -5.573730 34,000 308 444 -64
2020-01-20 10:10:32 GMT 56.289894 -5.565004 34,000 308 444 -64
2020-01-20 10:10:29 GMT 56.286255 -5.556419 34,000 308 445 0
2020-01-20 10:10:26 GMT 56.281284 -5.544662 34,000 308 444 0
2020-01-20 10:10:21 GMT 56.275589 -5.531200 34,000 308 444 0
2020-01-20 10:10:18 GMT 56.271744 -5.522045 34,000 308 444 0
2020-01-20 10:10:14 GMT 56.267075 -5.511058 34,000 308 444 0
2020-01-20 10:10:11 GMT 56.263596 -5.502819 34,000 308 444 0
2020-01-20 10:10:08 GMT 56.259727 -5.493679 34,000 308 444 0
2020-01-20 10:10:05 GMT 56.255215 -5.483122 34,000 308 444 0
2020-01-20 10:10:01 GMT 56.251583 -5.474453 34,000 308 445 0
2020-01-20 10:09:58 GMT 56.248032 -5.466114 34,000 308 445 0
2020-01-20 10:09:55 GMT 56.243576 -5.455570 34,000 308 445 0
2020-01-20 10:09:52 GMT 56.240643 -5.448618 34,000 308 445 0
2020-01-20 10:09:49 GMT 56.235855 -5.437400 34,000 308 445 0
2020-01-20 10:09:45 GMT 56.231194 -5.426388 34,000 308 445 0
2020-01-20 10:09:42 GMT 56.227840 -5.418491 34,000 308 445 0
2020-01-20 10:09:39 GMT 56.223862 -5.409102 34,000 308 445 0
2020-01-20 10:09:36 GMT 56.220066 -5.400209 34,000 308 445 0
2020-01-20 10:09:33 GMT 56.215458 -5.389309 34,000 308 445 0
2020-01-20 10:09:30 GMT 56.213085 -5.383730 34,000 308 445 0
2020-01-20 10:09:27 GMT 56.209499 -5.375319 34,000 308 445 0
2020-01-20 10:09:24 GMT 56.205048 -5.364741 34,000 308 445 0
2020-01-20 10:09:18 GMT 56.197536 -5.347080 34,000 308 445 0
2020-01-20 10:09:15 GMT 56.194183 -5.339184 34,000 308 445 0
2020-01-20 10:09:12 GMT 56.190994 -5.331782 34,000 308 445 0
2020-01-20 10:09:09 GMT 56.187340 -5.323219 34,000 308 445 0
2020-01-20 10:09:06 GMT 56.181847 -5.310259 34,000 308 444 0
2020-01-20 10:09:03 GMT 56.177948 -5.301070 34,000 308 444 0
2020-01-20 10:08:59 GMT 56.174957 -5.294123 34,000 308 444 0
2020-01-20 10:08:56 GMT 56.169754 -5.281927 34,000 308 445 0
2020-01-20 10:08:53 GMT 56.167183 -5.275927 34,000 308 445 0
2020-01-20 10:08:50 GMT 56.162201 -5.264282 34,000 308 445 0
2020-01-20 10:08:47 GMT 56.159546 -5.258123 34,000 308 445 0
2020-01-20 10:08:44 GMT 56.155872 -5.249491 34,000 308 445 0
2020-01-20 10:08:41 GMT 56.150101 -5.235929 34,000 308 445 0
2020-01-20 10:08:38 GMT 56.147415 -5.229742 34,000 308 445 0
2020-01-20 10:08:35 GMT 56.144325 -5.222454 34,000 308 445 0
2020-01-20 10:08:32 GMT 56.139679 -5.211598 34,000 308 445 0
2020-01-20 10:08:29 GMT 56.137207 -5.205938 34,000 308 445 0
2020-01-20 10:08:26 GMT 56.132782 -5.195589 34,000 308 445 0
2020-01-20 10:08:23 GMT 56.124390 -5.175892 34,000 308 445 0
2020-01-20 10:08:19 GMT 56.124390 -5.175892 34,000 308 445 0
2020-01-20 10:08:16 GMT 56.119858 -5.165322 34,000 308 445 0
2020-01-20 10:08:13 GMT 56.112949 -5.149240 34,000 308 444 0
2020-01-20 10:08:10 GMT 56.112949 -5.149240 34,000 308 445 64
2020-01-20 10:08:07 GMT 56.108387 -5.138683 34,000 308 444 0
2020-01-20 10:08:04 GMT 56.105362 -5.131645 34,000 308 444 0
2020-01-20 10:08:00 GMT 56.100334 -5.119972 34,000 308 444 0
2020-01-20 10:07:57 GMT 56.095367 -5.108476 34,000 308 444 0
2020-01-20 10:07:54 GMT 56.092793 -5.102463 34,000 308 444 0
2020-01-20 10:07:50 GMT 56.083099 -5.080012 34,000 308 444 0
2020-01-20 10:07:47 GMT 56.083099 -5.080012 34,000 308 444 0
2020-01-20 10:07:44 GMT 56.079899 -5.072594 34,000 308 445 0
2020-01-20 10:07:41 GMT 56.076370 -5.064531 34,000 308 445 0
2020-01-20 10:07:38 GMT 56.072021 -5.054460 34,000 308 445 0
2020-01-20 10:07:34 GMT 56.068119 -5.045385 34,000 308 445 0
2020-01-20 10:07:31 GMT 56.063698 -5.035172 34,000 308 445 0
2020-01-20 10:07:28 GMT 56.060860 -5.028648 34,000 308 445 0
2020-01-20 10:07:25 GMT 56.055542 -5.016424 34,000 308 445 0
2020-01-20 10:07:22 GMT 56.053085 -5.010796 34,000 308 445 0
2020-01-20 10:07:19 GMT 56.048721 -5.000777 34,000 308 445 0
2020-01-20 10:07:16 GMT 56.043457 -4.988625 34,000 308 445 0
2020-01-20 10:07:12 GMT 56.039444 -4.979382 34,000 308 446 0
2020-01-20 10:07:09 GMT 56.036278 -4.972172 34,000 308 446 0
2020-01-20 10:07:06 GMT 56.031715 -4.961700 34,000 308 446 0
2020-01-20 10:07:03 GMT 56.028599 -4.954491 34,000 308 446 0
2020-01-20 10:07:00 GMT 56.020916 -4.936895 34,000 308 446 0
2020-01-20 10:06:57 GMT 56.020916 -4.936895 34,000 308 446 0
2020-01-20 10:06:54 GMT 56.016907 -4.927701 34,000 308 446 0
2020-01-20 10:06:51 GMT 56.013611 -4.920210 34,000 308 446 0
2020-01-20 10:06:48 GMT 56.003414 -4.896812 34,000 308 445 0
2020-01-20 10:06:44 GMT 56.003414 -4.896812 34,000 308 445 0
2020-01-20 10:06:41 GMT 56.000992 -4.891319 34,000 308 445 0
2020-01-20 10:06:38 GMT 55.997269 -4.882840 34,000 309 445 0
2020-01-20 10:06:35 GMT 55.992615 -4.872179 34,000 309 445 0
2020-01-20 10:06:32 GMT 55.989899 -4.866028 34,000 309 445 0
2020-01-20 10:06:29 GMT 55.984512 -4.853640 34,000 309 445 64
2020-01-20 10:06:26 GMT 55.977676 -4.838146 34,000 309 445 64
2020-01-20 10:06:20 GMT 55.973923 -4.829573 34,000 309 446 64
2020-01-20 10:06:17 GMT 55.970673 -4.822249 34,000 309 446 64
2020-01-20 10:06:14 GMT 55.965683 -4.810847 34,000 309 446 64
2020-01-20 10:06:11 GMT 55.962524 -4.803689 34,000 309 446 64
2020-01-20 10:06:08 GMT 55.958084 -4.793701 34,000 309 447 0
2020-01-20 10:06:02 GMT 55.950249 -4.775877 34,000 309 447 0
2020-01-20 10:05:58 GMT 55.946384 -4.767122 34,000 309 447 0
2020-01-20 10:05:55 GMT 55.942429 -4.758196 34,000 309 447 0
2020-01-20 10:05:51 GMT 55.937168 -4.746265 34,000 309 447 -64
2020-01-20 10:05:48 GMT 55.933411 -4.737771 34,000 309 447 -64
2020-01-20 10:05:45 GMT 55.929672 -4.729271 34,000 309 447 -64
2020-01-20 10:05:42 GMT 55.925716 -4.720345 34,000 309 447 0
2020-01-20 10:05:39 GMT 55.920959 -4.709473 34,000 309 447 0
2020-01-20 10:05:35 GMT 55.916611 -4.699568 34,000 309 447 0
2020-01-20 10:05:32 GMT 55.912949 -4.691329 34,000 309 447 0
2020-01-20 10:05:29 GMT 55.908829 -4.681924 34,000 309 447 0
2020-01-20 10:05:26 GMT 55.900360 -4.662781 34,000 309 447 0
2020-01-20 10:05:22 GMT 55.900360 -4.662781 34,000 309 447 0
2020-01-20 10:05:18 GMT 55.890987 -4.641552 34,000 309 447 0
2020-01-20 10:05:15 GMT 55.890987 -4.641552 34,000 309 447 0
2020-01-20 10:05:12 GMT 55.883514 -4.624745 34,000 309 447 0
2020-01-20 10:05:09 GMT 55.883514 -4.624745 34,000 309 447 0
2020-01-20 10:05:06 GMT 55.879761 -4.616172 34,000 309 447 0
2020-01-20 10:05:03 GMT 55.872711 -4.600442 34,000 309 447 0
2020-01-20 10:04:57 GMT 55.868454 -4.590953 34,000 309 447 0
2020-01-20 10:04:54 GMT 55.864746 -4.582631 34,000 309 447 64
2020-01-20 10:04:51 GMT 55.860779 -4.573832 34,000 309 447 0
2020-01-20 10:04:48 GMT 55.857376 -4.566317 34,000 309 447 0
2020-01-20 10:04:45 GMT 55.853119 -4.556829 34,000 309 447 0
2020-01-20 10:04:42 GMT 55.847977 -4.545422 34,000 309 448 0
2020-01-20 10:04:38 GMT 55.843552 -4.535606 34,000 309 448 0
2020-01-20 10:04:35 GMT 55.839687 -4.527140 34,000 310 447 -64
2020-01-20 10:04:32 GMT 55.831421 -4.509139 34,000 310 448 -64
2020-01-20 10:04:29 GMT 55.828766 -4.503313 34,000 310 448 -64
2020-01-20 10:04:23 GMT 55.824738 -4.494573 34,000 310 448 0
2020-01-20 10:04:20 GMT 55.819206 -4.482679 34,000 310 448 0
2020-01-20 10:04:16 GMT 55.814133 -4.471865 34,000 310 448 0
2020-01-20 10:04:11 GMT 55.808395 -4.459700 34,000 311 449 0
2020-01-20 10:04:08 GMT 55.803192 -4.448776 34,000 311 448 0
2020-01-20 10:04:05 GMT 55.794811 -4.431438 34,000 311 448 0
2020-01-20 10:04:01 GMT 55.794811 -4.431438 34,000 311 448 0
2020-01-20 10:03:58 GMT 55.786572 -4.414358 34,000 311 448 0
2020-01-20 10:03:52 GMT 55.782120 -4.404935 34,000 310 448 0
2020-01-20 10:03:49 GMT 55.777542 -4.395304 34,000 310 448 0
2020-01-20 10:03:46 GMT 55.774704 -4.389288 34,000 310 448 0
2020-01-20 10:03:43 GMT 55.769943 -4.379134 34,000 310 449 0
2020-01-20 10:03:39 GMT 55.765594 -4.369812 34,000 310 449 0
2020-01-20 10:03:36 GMT 55.762070 -4.362155 34,000 310 448 0
2020-01-20 10:03:33 GMT 55.757263 -4.351751 34,000 310 448 0
2020-01-20 10:03:30 GMT 55.753941 -4.344492 34,000 309 448 0
2020-01-20 10:03:26 GMT 55.748474 -4.332442 34,000 309 448 0
2020-01-20 10:03:23 GMT 55.744629 -4.323893 34,000 309 449 0
2020-01-20 10:03:20 GMT 55.741604 -4.317112 34,000 309 448 0
2020-01-20 10:03:17 GMT 55.737461 -4.307756 34,000 309 448 0
2020-01-20 10:03:14 GMT 55.733597 -4.299088 34,000 309 448 0
2020-01-20 10:03:11 GMT 55.728943 -4.288530 34,000 308 448 0
2020-01-20 10:03:08 GMT 55.725216 -4.279947 34,000 308 448 0
2020-01-20 10:03:05 GMT 55.722107 -4.273016 34,000 308 448 -64
2020-01-20 10:03:02 GMT 55.718002 -4.263639 34,000 308 448 -64
2020-01-20 10:02:59 GMT 55.714828 -4.256453 34,000 309 448 -64
2020-01-20 10:02:56 GMT 55.709667 -4.244843 34,000 309 448 -64
2020-01-20 10:02:53 GMT 55.701988 -4.228020 34,000 312 450 64
2020-01-20 10:02:50 GMT 55.701988 -4.228020 34,000 310 448 0
2020-01-20 10:02:46 GMT 55.693233 -4.209824 34,000 313 450 64
2020-01-20 10:02:39 GMT 55.687881 -4.199781 34,000 318 452 0
2020-01-20 10:02:36 GMT 55.682465 -4.190618 34,000 323 456 0
2020-01-20 10:02:33 GMT 55.677593 -4.183302 34,000 323 456 0
2020-01-20 10:02:29 GMT 55.671028 -4.174290 34,000 323 456 0
2020-01-20 10:02:26 GMT 55.665848 -4.167314 34,000 323 456 0
2020-01-20 10:02:23 GMT 55.661858 -4.161844 34,000 323 456 0
2020-01-20 10:02:19 GMT 55.654736 -4.152317 34,000 323 456 0
2020-01-20 10:02:16 GMT 55.649643 -4.145341 34,000 323 456 0
2020-01-20 10:02:13 GMT 55.644310 -4.138155 34,000 323 456 0
2020-01-20 10:02:09 GMT 55.637699 -4.129314 34,000 323 456 0
2020-01-20 10:02:06 GMT 55.632626 -4.122448 34,000 323 456 0
2020-01-20 10:02:03 GMT 55.627808 -4.115961 34,000 323 456 0
2020-01-20 10:01:58 GMT 55.620209 -4.105724 34,000 323 456 0
2020-01-20 10:01:55 GMT 55.614166 -4.097567 34,000 323 456 0
2020-01-20 10:01:52 GMT 55.609905 -4.091892 34,000 323 456 0
2020-01-20 10:01:49 GMT 55.602631 -4.082087 34,000 323 456 0
2020-01-20 10:01:46 GMT 55.599976 -4.078508 34,000 323 456 0
2020-01-20 10:01:43 GMT 55.594116 -4.070601 34,000 323 456 0
2020-01-20 10:01:40 GMT 55.583817 -4.056785 34,000 323 456 0
2020-01-20 10:01:34 GMT 55.578506 -4.049627 34,000 323 456 0
2020-01-20 10:01:31 GMT 55.573700 -4.043218 34,000 323 456 0
2020-01-20 10:01:27 GMT 55.568150 -4.035673 34,000 323 456 0
2020-01-20 10:01:24 GMT 55.562935 -4.028721 34,000 323 456 0
2020-01-20 10:01:21 GMT 55.558468 -4.022713 34,000 323 456 0
2020-01-20 10:01:18 GMT 55.552277 -4.014421 34,000 323 456 0
2020-01-20 10:01:15 GMT 55.546314 -4.006405 34,000 323 456 0
2020-01-20 10:01:12 GMT 55.543102 -4.002113 34,000 323 456 0
2020-01-20 10:01:08 GMT 55.529434 -3.983792 34,000 323 456 0
2020-01-20 10:01:04 GMT 55.529434 -3.983792 34,000 323 456 0
2020-01-20 10:01:01 GMT 55.523785 -3.976192 34,000 323 456 0
2020-01-20 10:00:57 GMT 55.517639 -3.967953 34,000 323 456 0
2020-01-20 10:00:54 GMT 55.511673 -3.959989 34,000 323 456 0
2020-01-20 10:00:51 GMT 55.506283 -3.952847 34,000 323 456 0
2020-01-20 10:00:48 GMT 55.502106 -3.947255 34,000 323 456 0
2020-01-20 10:00:45 GMT 55.497063 -3.940487 34,000 323 456 0
2020-01-20 10:00:42 GMT 55.492268 -3.934135 34,000 323 456 0
2020-01-20 10:00:39 GMT 55.484940 -3.924366 34,000 323 456 0
2020-01-20 10:00:36 GMT 55.476929 -3.913630 34,000 323 456 0
2020-01-20 10:00:33 GMT 55.476929 -3.913630 34,000 323 456 0
2020-01-20 10:00:30 GMT 55.471939 -3.906971 34,000 323 456 0
2020-01-20 10:00:27 GMT 55.466293 -3.899460 34,000 323 456 0
2020-01-20 10:00:24 GMT 55.461220 -3.892679 34,000 323 456 0
2020-01-20 10:00:21 GMT 55.457977 -3.888411 34,000 323 456 0
2020-01-20 10:00:17 GMT 55.445755 -3.872015 34,000 323 456 0
2020-01-20 10:00:11 GMT 55.435059 -3.857783 34,000 323 455 0
2020-01-20 10:00:08 GMT 55.435059 -3.857783 34,000 323 455 0
2020-01-20 10:00:02 GMT 55.426258 -3.846130 34,000 323 456 0
2020-01-20 09:59:58 GMT 55.417553 -3.834478 34,000 323 456 0
2020-01-20 09:59:55 GMT 55.412479 -3.827820 34,000 324 455 0
2020-01-20 09:59:52 GMT 55.407486 -3.821142 34,000 324 455 0
2020-01-20 09:59:48 GMT 55.399658 -3.810721 34,000 323 454 0
2020-01-20 09:59:45 GMT 55.396225 -3.806197 34,000 323 455 0
2020-01-20 09:59:42 GMT 55.392242 -3.800946 34,000 323 455 0
2020-01-20 09:59:39 GMT 55.386223 -3.792947 34,000 323 455 0
2020-01-20 09:59:36 GMT 55.376122 -3.779547 34,000 323 455 0
2020-01-20 09:59:33 GMT 55.376122 -3.779547 34,000 323 455 0
2020-01-20 09:59:27 GMT 55.366608 -3.766937 34,000 323 454 0
2020-01-20 09:59:24 GMT 55.361755 -3.760475 34,000 323 454 0
2020-01-20 09:59:21 GMT 55.356197 -3.753163 34,000 323 454 0
2020-01-20 09:59:18 GMT 55.346233 -3.739929 34,000 323 454 0
2020-01-20 09:59:12 GMT 55.341019 -3.733009 34,000 323 454 0
2020-01-20 09:59:09 GMT 55.336761 -3.727354 34,000 324 455 0
2020-01-20 09:59:06 GMT 55.326309 -3.713545 34,000 323 454 0
2020-01-20 09:59:03 GMT 55.326309 -3.713545 34,000 324 455 0
2020-01-20 09:59:00 GMT 55.321655 -3.707401 34,000 324 455 0
2020-01-20 09:58:57 GMT 55.309021 -3.690679 34,000 324 458 0
2020-01-20 09:58:53 GMT 55.309021 -3.690679 34,000 324 455 0
2020-01-20 09:58:50 GMT 55.304012 -3.684082 34,000 324 455 0
2020-01-20 09:58:47 GMT 55.292358 -3.668707 34,000 324 455 0
2020-01-20 09:58:43 GMT 55.292358 -3.668707 34,000 324 455 0
2020-01-20 09:58:40 GMT 55.281326 -3.654166 34,000 324 455 0
2020-01-20 09:58:36 GMT 55.281326 -3.654166 34,000 324 455 0
2020-01-20 09:58:33 GMT 55.275055 -3.645880 34,000 324 455 0
2020-01-20 09:58:30 GMT 55.271713 -3.641483 34,000 324 455 0
2020-01-20 09:58:27 GMT 55.264664 -3.632274 34,000 324 455 0
2020-01-20 09:58:24 GMT 55.260315 -3.626538 34,000 324 455 0
2020-01-20 09:58:21 GMT 55.256012 -3.620803 34,000 324 455 0
2020-01-20 09:58:18 GMT 55.249733 -3.612588 34,000 324 455 0
2020-01-20 09:58:15 GMT 55.245712 -3.607312 34,000 324 455 0
2020-01-20 09:58:12 GMT 55.240376 -3.600270 34,000 324 455 0
2020-01-20 09:58:09 GMT 55.230927 -3.587785 34,000 324 456 0
2020-01-20 09:58:03 GMT 55.219299 -3.572576 34,000 324 456 0
2020-01-20 09:58:00 GMT 55.219299 -3.572576 34,000 324 456 0
2020-01-20 09:57:56 GMT 55.211792 -3.562721 34,000 324 456 0
2020-01-20 09:57:53 GMT 55.204670 -3.553411 34,000 324 456 0
2020-01-20 09:57:47 GMT 55.198383 -3.545172 34,000 324 456 0
2020-01-20 09:57:44 GMT 55.193077 -3.538180 34,000 324 456 0
2020-01-20 09:57:41 GMT 55.187912 -3.531439 34,000 324 457 0
2020-01-20 09:57:38 GMT 55.182083 -3.523784 34,000 324 457 0
2020-01-20 09:57:34 GMT 55.174736 -3.514210 34,000 324 458 0
2020-01-20 09:57:31 GMT 55.167053 -3.504139 34,000 324 458 0
2020-01-20 09:57:25 GMT 55.160816 -3.496066 34,000 324 457 0
2020-01-20 09:57:22 GMT 55.156403 -3.490179 34,000 324 457 0
2020-01-20 09:57:19 GMT 55.150085 -3.482020 34,000 324 457 0
2020-01-20 09:57:16 GMT 55.145035 -3.475342 34,000 324 457 0
2020-01-20 09:57:13 GMT 55.139915 -3.468683 34,000 324 457 0
2020-01-20 09:57:10 GMT 55.136608 -3.464355 34,000 324 458 0
2020-01-20 09:57:07 GMT 55.129581 -3.455200 34,000 324 458 0
2020-01-20 09:57:04 GMT 55.126602 -3.451288 34,000 324 458 0
2020-01-20 09:57:01 GMT 55.120193 -3.442921 34,000 324 458 0
2020-01-20 09:56:58 GMT 55.115894 -3.437389 34,000 324 458 0
2020-01-20 09:56:55 GMT 55.110447 -3.430231 34,000 324 458 0
2020-01-20 09:56:52 GMT 55.100578 -3.417414 34,000 324 458 0
2020-01-20 09:56:49 GMT 55.100578 -3.417414 34,000 324 458 0
2020-01-20 09:56:45 GMT 55.094013 -3.408841 34,000 324 458 0
2020-01-20 09:56:42 GMT 55.082703 -3.394110 34,000 324 458 0
2020-01-20 09:56:39 GMT 55.082703 -3.394110 34,000 324 458 0
2020-01-20 09:56:36 GMT 55.078217 -3.388313 34,000 324 458 0
2020-01-20 09:56:33 GMT 55.071903 -3.380044 34,000 324 458 0
2020-01-20 09:56:30 GMT 55.068695 -3.375872 34,000 324 458 0
2020-01-20 09:56:27 GMT 55.056866 -3.360568 34,000 324 458 0
2020-01-20 09:56:23 GMT 55.056866 -3.360568 34,000 324 458 0
2020-01-20 09:56:20 GMT 55.049976 -3.351579 34,000 324 458 0
2020-01-20 09:56:17 GMT 55.045853 -3.346226 34,000 324 458 0
2020-01-20 09:56:13 GMT 55.037594 -3.335516 34,000 324 458 0
2020-01-20 09:56:10 GMT 55.034058 -3.330855 34,000 324 458 0
2020-01-20 09:56:07 GMT 55.029076 -3.324446 34,000 324 458 0
2020-01-20 09:56:04 GMT 55.023560 -3.317225 34,000 324 458 0
2020-01-20 09:56:01 GMT 55.018753 -3.311005 34,000 324 458 0
2020-01-20 09:55:58 GMT 55.012070 -3.302280 34,000 324 458 0
2020-01-20 09:55:55 GMT 55.004261 -3.292153 34,000 324 458 0
2020-01-20 09:55:52 GMT 55.004261 -3.292153 34,000 324 458 0
2020-01-20 09:55:49 GMT 54.998566 -3.284831 34,000 324 458 0
2020-01-20 09:55:46 GMT 54.992809 -3.277338 34,000 324 458 0
2020-01-20 09:55:43 GMT 54.988220 -3.271341 34,000 324 458 0
2020-01-20 09:55:39 GMT 54.981964 -3.263272 34,000 324 457 0
2020-01-20 09:55:36 GMT 54.977169 -3.257113 34,000 324 457 0
2020-01-20 09:55:33 GMT 54.971676 -3.249956 34,000 324 457 0
2020-01-20 09:55:30 GMT 54.965790 -3.242340 34,000 324 457 0
2020-01-20 09:55:27 GMT 54.962631 -3.238301 34,000 324 458 0
2020-01-20 09:55:24 GMT 54.951424 -3.223821 34,000 324 458 0
2020-01-20 09:55:21 GMT 54.951424 -3.223821 34,000 324 458 0
2020-01-20 09:55:18 GMT 54.945652 -3.216331 34,000 324 458 0
2020-01-20 09:55:13 GMT 54.937923 -3.206426 34,000 324 458 0
2020-01-20 09:55:10 GMT 54.932339 -3.199185 34,000 324 459 0
2020-01-20 09:55:07 GMT 54.927685 -3.193193 34,000 324 458 0
2020-01-20 09:55:04 GMT 54.920933 -3.184454 34,000 324 459 0
2020-01-20 09:55:00 GMT 54.914520 -3.176261 34,000 324 459 0
2020-01-20 09:54:57 GMT 54.911133 -3.171818 34,000 324 459 0
2020-01-20 09:54:54 GMT 54.905182 -3.164224 34,000 324 459 0
2020-01-20 09:54:51 GMT 54.899597 -3.157034 34,000 324 459 0
2020-01-20 09:54:48 GMT 54.895386 -3.151703 34,000 324 459 0
2020-01-20 09:54:45 GMT 54.890945 -3.145967 34,000 324 459 0
2020-01-20 09:54:42 GMT 54.883877 -3.137013 34,000 324 459 0
2020-01-20 09:54:39 GMT 54.877670 -3.129084 34,000 324 459 0
2020-01-20 09:54:35 GMT 54.872704 -3.122781 34,000 324 459 0
2020-01-20 09:54:32 GMT 54.868149 -3.116967 34,000 324 459 0
2020-01-20 09:54:29 GMT 54.863342 -3.110827 34,000 324 459 0
2020-01-20 09:54:26 GMT 54.857895 -3.104042 34,000 325 459 0
2020-01-20 09:54:23 GMT 54.852268 -3.097146 34,000 326 460 0
2020-01-20 09:54:20 GMT 54.846123 -3.089738 34,000 326 460 0
2020-01-20 09:54:17 GMT 54.840771 -3.083413 34,000 326 461 0
2020-01-20 09:54:14 GMT 54.835835 -3.077587 34,000 327 460 0
2020-01-20 09:54:11 GMT 54.831322 -3.072427 34,000 327 461 0
2020-01-20 09:54:08 GMT 54.819496 -3.059110 34,000 328 461 0
2020-01-20 09:54:05 GMT 54.813164 -3.052202 34,000 328 461 0
2020-01-20 09:54:02 GMT 54.813164 -3.052202 34,000 328 462 0
2020-01-20 09:53:59 GMT 54.810287 -3.049110 34,000 330 463 0
2020-01-20 09:53:56 GMT 54.804657 -3.043051 34,000 330 462 0
2020-01-20 09:53:53 GMT 54.798798 -3.036993 34,000 330 463 0
2020-01-20 09:53:50 GMT 54.791748 -3.029884 34,000 331 462 0
2020-01-20 09:53:46 GMT 54.785568 -3.023825 34,000 331 463 0
2020-01-20 09:53:43 GMT 54.775131 -3.013750 34,000 332 463 0
2020-01-20 09:53:40 GMT 54.775131 -3.013750 34,000 332 463 0
2020-01-20 09:53:37 GMT 54.769272 -3.008234 34,000 332 463 0
2020-01-20 09:53:34 GMT 54.762589 -3.001853 34,000 332 463 0
2020-01-20 09:53:31 GMT 54.758652 -2.998019 34,000 332 463 0
2020-01-20 09:53:28 GMT 54.750877 -2.990695 34,000 332 463 0
2020-01-20 09:53:24 GMT 54.744221 -2.984286 34,000 332 463 0
2020-01-20 09:53:21 GMT 54.740452 -2.980707 34,000 332 463 0
2020-01-20 09:53:18 GMT 54.733383 -2.973983 34,000 332 463 0
2020-01-20 09:53:15 GMT 54.722111 -2.963312 34,000 332 463 0
2020-01-20 09:53:12 GMT 54.722111 -2.963312 34,000 332 463 0
2020-01-20 09:53:09 GMT 54.715347 -2.956857 34,000 332 463 0
2020-01-20 09:53:06 GMT 54.711029 -2.952742 34,000 332 463 0
2020-01-20 09:53:03 GMT 54.704048 -2.946084 34,000 332 463 0
2020-01-20 09:53:00 GMT 54.698555 -2.940840 34,000 332 463 0
2020-01-20 09:52:56 GMT 54.692314 -2.934931 34,000 332 464 0
2020-01-20 09:52:53 GMT 54.681049 -2.924278 34,000 332 464 0
2020-01-20 09:52:50 GMT 54.681049 -2.924278 34,000 332 464 0
2020-01-20 09:52:47 GMT 54.674252 -2.917869 34,000 332 464 0
2020-01-20 09:52:44 GMT 54.669662 -2.913477 34,000 332 464 0
2020-01-20 09:52:41 GMT 54.664215 -2.908388 34,000 332 464 0
2020-01-20 09:52:38 GMT 54.658890 -2.903304 34,000 332 464 0
2020-01-20 09:52:35 GMT 54.650978 -2.895813 34,000 332 464 0
2020-01-20 09:52:32 GMT 54.645390 -2.890570 34,000 332 464 0
2020-01-20 09:52:29 GMT 54.642460 -2.887740 34,000 332 464 0
2020-01-20 09:52:26 GMT 54.634781 -2.880518 34,000 332 464 0
2020-01-20 09:52:22 GMT 54.627182 -2.873329 34,000 332 464 0
2020-01-20 09:52:19 GMT 54.616295 -2.863104 34,000 332 464 0
2020-01-20 09:52:16 GMT 54.616295 -2.863104 34,000 332 464 0
2020-01-20 09:52:13 GMT 54.611454 -2.858443 34,000 332 464 0
2020-01-20 09:52:10 GMT 54.604752 -2.852164 34,000 332 464 0
2020-01-20 09:52:06 GMT 54.594177 -2.842147 34,000 332 464 0
2020-01-20 09:52:03 GMT 54.587540 -2.835927 34,000 332 464 0
2020-01-20 09:52:00 GMT 54.587540 -2.835927 34,000 332 464 0
2020-01-20 09:51:56 GMT 54.577938 -2.826899 34,000 332 464 0
2020-01-20 09:51:50 GMT 54.568672 -2.818160 34,000 332 464 0
2020-01-20 09:51:47 GMT 54.562855 -2.812750 34,000 332 464 0
2020-01-20 09:51:44 GMT 54.557785 -2.807895 34,000 332 464 0
2020-01-20 09:51:41 GMT 54.551170 -2.801763 34,000 332 464 0
2020-01-20 09:51:38 GMT 54.546524 -2.797313 34,000 332 464 0
2020-01-20 09:51:35 GMT 54.538460 -2.789778 34,000 332 464 0
2020-01-20 09:51:32 GMT 54.533943 -2.785534 34,000 332 464 0
2020-01-20 09:51:29 GMT 54.528534 -2.780430 34,000 332 464 0
2020-01-20 09:51:26 GMT 54.523563 -2.775712 34,000 332 464 0
2020-01-20 09:51:23 GMT 54.516312 -2.768959 34,000 332 464 0
2020-01-20 09:51:20 GMT 54.512112 -2.764976 34,000 332 464 0
2020-01-20 09:51:17 GMT 54.501125 -2.754655 34,000 332 464 0
2020-01-20 09:51:11 GMT 54.492744 -2.746832 34,000 332 464 0
2020-01-20 09:51:08 GMT 54.489853 -2.744078 34,000 332 464 0
2020-01-20 09:51:05 GMT 54.483391 -2.738009 34,000 332 464 0
2020-01-20 09:51:02 GMT 54.476452 -2.731517 34,000 332 464 0
2020-01-20 09:50:59 GMT 54.472870 -2.728188 34,000 332 464 0
2020-01-20 09:50:56 GMT 54.466396 -2.722112 34,000 332 464 0
2020-01-20 09:50:53 GMT 54.461060 -2.717097 34,000 332 464 0
2020-01-20 09:50:50 GMT 54.455338 -2.711684 34,000 332 464 0
2020-01-20 09:50:47 GMT 54.448700 -2.705464 34,000 332 464 0
2020-01-20 09:50:44 GMT 54.444565 -2.701555 34,000 332 464 0
2020-01-20 09:50:41 GMT 54.439350 -2.696727 34,000 332 464 0
2020-01-20 09:50:38 GMT 54.433113 -2.690901 34,000 332 464 0
2020-01-20 09:50:35 GMT 54.426727 -2.684865 34,000 332 464 0
2020-01-20 09:50:32 GMT 54.420776 -2.679291 34,000 332 464 0
2020-01-20 09:50:29 GMT 54.416107 -2.674929 34,000 332 464 0
2020-01-20 09:50:26 GMT 54.410156 -2.669355 34,000 332 464 0
2020-01-20 09:50:23 GMT 54.404621 -2.664185 34,000 332 464 0
2020-01-20 09:50:20 GMT 54.393265 -2.653531 34,000 332 464 0
2020-01-20 09:50:17 GMT 54.386841 -2.647622 34,000 332 464 0
2020-01-20 09:50:14 GMT 54.386841 -2.647622 34,000 332 464 0
2020-01-20 09:50:11 GMT 54.381439 -2.642545 34,000 332 464 0
2020-01-20 09:50:07 GMT 54.374550 -2.636136 34,000 332 464 0
2020-01-20 09:50:04 GMT 54.368870 -2.630809 34,000 332 464 0
2020-01-20 09:50:01 GMT 54.355957 -2.618704 34,000 332 464 0
2020-01-20 09:49:57 GMT 54.355957 -2.618704 34,000 332 464 0
2020-01-20 09:49:54 GMT 54.350483 -2.613581 34,000 332 464 0
2020-01-20 09:49:51 GMT 54.343872 -2.607476 34,000 332 464 0
2020-01-20 09:49:48 GMT 54.336868 -2.600932 34,000 332 464 0
2020-01-20 09:49:45 GMT 54.327621 -2.592289 34,000 332 464 0
2020-01-20 09:49:42 GMT 54.327621 -2.592289 34,000 332 464 0
2020-01-20 09:49:39 GMT 54.320736 -2.585865 34,000 332 464 0
2020-01-20 09:49:36 GMT 54.316174 -2.581621 34,000 332 464 0
2020-01-20 09:49:33 GMT 54.310913 -2.576698 34,000 332 464 0
2020-01-20 09:49:30 GMT 54.305328 -2.571528 34,000 332 464 0
2020-01-20 09:49:27 GMT 54.298553 -2.565227 34,000 332 464 0
2020-01-20 09:49:24 GMT 54.291874 -2.558982 34,000 332 464 0
2020-01-20 09:49:21 GMT 54.288116 -2.555452 34,000 332 464 0
2020-01-20 09:49:18 GMT 54.282166 -2.549878 34,000 332 464 0
2020-01-20 09:49:15 GMT 54.274841 -2.543021 34,000 332 464 0
2020-01-20 09:49:12 GMT 54.271317 -2.539725 34,000 332 464 0
2020-01-20 09:49:09 GMT 54.259846 -2.529037 34,000 332 464 0
2020-01-20 09:49:06 GMT 54.259846 -2.529037 34,000 332 464 0
2020-01-20 09:49:03 GMT 54.251930 -2.521605 34,000 332 464 0
2020-01-20 09:49:00 GMT 54.248116 -2.518050 34,000 332 464 0
2020-01-20 09:48:57 GMT 54.242477 -2.512730 34,000 332 464 0
2020-01-20 09:48:54 GMT 54.236115 -2.506766 34,000 332 464 0
2020-01-20 09:48:48 GMT 54.226044 -2.497349 34,000 332 464 0
2020-01-20 09:48:45 GMT 54.219952 -2.491635 34,000 332 464 0
2020-01-20 09:48:42 GMT 54.215809 -2.487757 34,000 332 464 0
2020-01-20 09:48:39 GMT 54.208328 -2.480791 34,000 332 464 0
2020-01-20 09:48:36 GMT 54.202957 -2.475801 34,000 332 464 0
2020-01-20 09:48:33 GMT 54.197525 -2.470668 34,000 332 464 0
2020-01-20 09:48:30 GMT 54.192581 -2.466038 34,000 332 464 0
2020-01-20 09:48:27 GMT 54.186081 -2.459996 34,000 332 464 0
2020-01-20 09:48:24 GMT 54.182236 -2.456386 34,000 332 464 0
2020-01-20 09:48:21 GMT 54.174934 -2.449547 34,000 332 464 0
2020-01-20 09:48:18 GMT 54.169418 -2.444380 34,000 332 464 0
2020-01-20 09:48:15 GMT 54.164291 -2.439593 34,000 332 464 0
2020-01-20 09:48:12 GMT 54.158642 -2.434279 34,000 332 464 -64
2020-01-20 09:48:09 GMT 54.146759 -2.423192 34,000 332 464 0
2020-01-20 09:48:06 GMT 54.146759 -2.423192 34,000 332 464 -64
2020-01-20 09:48:03 GMT 54.141266 -2.418091 34,000 332 464 0
2020-01-20 09:48:00 GMT 54.136322 -2.413461 34,000 332 464 0
2020-01-20 09:47:57 GMT 54.129917 -2.407541 34,000 332 464 0
2020-01-20 09:47:54 GMT 54.124519 -2.402451 34,000 332 464 0
2020-01-20 09:47:51 GMT 54.119339 -2.397688 34,000 332 464 0
2020-01-20 09:47:48 GMT 54.113022 -2.391802 34,000 332 464 0
2020-01-20 09:47:45 GMT 54.106567 -2.385838 34,000 332 464 0
2020-01-20 09:47:42 GMT 54.101990 -2.381522 34,000 332 464 0
2020-01-20 09:47:39 GMT 54.090958 -2.371399 34,000 332 464 0
2020-01-20 09:47:36 GMT 54.083405 -2.364415 34,000 332 464 0
2020-01-20 09:47:33 GMT 54.083405 -2.364415 34,000 332 464 0
2020-01-20 09:47:30 GMT 54.079128 -2.360526 34,000 332 464 -64
2020-01-20 09:47:27 GMT 54.074615 -2.356325 34,000 332 464 -64
2020-01-20 09:47:24 GMT 54.066048 -2.348489 34,000 332 464 64
2020-01-20 09:47:21 GMT 54.060509 -2.343481 34,000 332 464 0
2020-01-20 09:47:18 GMT 54.054932 -2.338361 34,000 332 464 0
2020-01-20 09:47:15 GMT 54.050400 -2.334281 34,000 333 465 0
2020-01-20 09:47:12 GMT 54.045982 -2.330313 34,000 333 464 0
2020-01-20 09:47:09 GMT 54.039841 -2.324739 34,000 333 464 0
2020-01-20 09:47:06 GMT 54.034103 -2.319685 34,000 333 464 0
2020-01-20 09:47:03 GMT 54.028519 -2.314662 34,000 333 465 64
2020-01-20 09:47:00 GMT 54.022888 -2.309640 34,000 333 464 0
2020-01-20 09:46:57 GMT 54.009796 -2.298104 34,000 333 464 0
2020-01-20 09:46:54 GMT 54.009796 -2.298104 34,000 335 464 0
2020-01-20 09:46:51 GMT 54.005810 -2.294608 34,000 333 465 0
2020-01-20 09:46:48 GMT 53.998764 -2.288531 34,000 334 465 0
2020-01-20 09:46:45 GMT 53.993660 -2.284187 34,000 334 465 -64
2020-01-20 09:46:42 GMT 53.982208 -2.274412 34,000 334 464 64
2020-01-20 09:46:39 GMT 53.982208 -2.274412 34,000 334 465 0
2020-01-20 09:46:36 GMT 53.975784 -2.268991 34,000 335 464 0
2020-01-20 09:46:33 GMT 53.970013 -2.264234 34,000 335 464 0
2020-01-20 09:46:30 GMT 53.964985 -2.260114 34,000 335 465 0
2020-01-20 09:46:27 GMT 53.957291 -2.253845 34,000 335 464 0
2020-01-20 09:46:24 GMT 53.954369 -2.251389 34,000 335 465 0
2020-01-20 09:46:21 GMT 53.947861 -2.246233 34,000 335 464 0
2020-01-20 09:46:18 GMT 53.940216 -2.240191 34,000 336 464 0
2020-01-20 09:46:15 GMT 53.935097 -2.236202 34,000 336 464 0
2020-01-20 09:46:12 GMT 53.928268 -2.230931 34,000 336 464 0
2020-01-20 09:46:09 GMT 53.923874 -2.227557 34,000 338 464 0
2020-01-20 09:46:06 GMT 53.919083 -2.224004 34,000 337 464 0
2020-01-20 09:46:03 GMT 53.911217 -2.218188 34,000 339 464 0
2020-01-20 09:46:00 GMT 53.899796 -2.209900 34,000 339 464 0
2020-01-20 09:45:57 GMT 53.899796 -2.209900 34,000 338 464 0
2020-01-20 09:45:54 GMT 53.894897 -2.206526 34,000 338 463 0
2020-01-20 09:45:51 GMT 53.888855 -2.202366 34,000 339 464 0
2020-01-20 09:45:48 GMT 53.880817 -2.196862 34,000 339 464 0
2020-01-20 09:45:45 GMT 53.875168 -2.193028 34,000 339 464 0
2020-01-20 09:45:42 GMT 53.869949 -2.189497 34,000 339 464 0
2020-01-20 09:45:39 GMT 53.865143 -2.186201 34,000 339 464 0
2020-01-20 09:45:36 GMT 53.857910 -2.181257 34,000 339 464 0
2020-01-20 09:45:33 GMT 53.854019 -2.178589 34,000 333 463 0
2020-01-20 09:45:30 GMT 53.847977 -2.174430 34,000 339 464 0
2020-01-20 09:45:27 GMT 53.840969 -2.169638 34,000 338 464 0
2020-01-20 09:45:24 GMT 53.827656 -2.160510 34,000 338 464 64
2020-01-20 09:45:21 GMT 53.821743 -2.156390 34,000 338 464 -64
2020-01-20 09:45:18 GMT 53.821743 -2.156390 34,000 338 464 0
2020-01-20 09:45:15 GMT 53.817398 -2.153399 34,000 338 464 0
2020-01-20 09:45:12 GMT 53.811172 -2.149083 34,000 338 463 0
2020-01-20 09:45:09 GMT 53.805866 -2.145484 34,000 326 464 0
2020-01-20 09:45:06 GMT 53.799725 -2.141284 34,000 339 464 0
2020-01-20 09:45:03 GMT 53.792542 -2.136370 34,000 338 463 0
2020-01-20 09:45:00 GMT 53.786957 -2.132446 34,000 337 463 0
2020-01-20 09:44:57 GMT 53.780869 -2.128036 34,000 336 463 0
2020-01-20 09:44:54 GMT 53.773792 -2.122704 34,000 336 463 0
2020-01-20 09:44:51 GMT 53.770569 -2.120204 34,000 335 463 -64
2020-01-20 09:44:48 GMT 53.764484 -2.115272 34,000 334 463 0
2020-01-20 09:44:45 GMT 53.758060 -2.109940 34,000 333 463 64
2020-01-20 09:44:42 GMT 53.752518 -2.105094 34,000 333 463 0
2020-01-20 09:44:39 GMT 53.746422 -2.099600 34,000 331 463 0
2020-01-20 09:44:36 GMT 53.740814 -2.094465 34,000 327 463 0
2020-01-20 09:44:33 GMT 53.728455 -2.082380 34,000 330 463 0
2020-01-20 09:44:30 GMT 53.728455 -2.082380 34,000 329 462 0
2020-01-20 09:44:27 GMT 53.724747 -2.078535 34,000 329 463 0
2020-01-20 09:44:24 GMT 53.718979 -2.072335 34,000 327 463 0
2020-01-20 09:44:21 GMT 53.714531 -2.067449 34,000 327 463 0
2020-01-20 09:44:18 GMT 53.708817 -2.060957 34,000 326 463 0
2020-01-20 09:44:15 GMT 53.703129 -2.054120 34,000 325 463 0
2020-01-20 09:44:12 GMT 53.698059 -2.048009 34,000 325 463 0
2020-01-20 09:44:09 GMT 53.692154 -2.040946 34,000 325 464 0
2020-01-20 09:44:06 GMT 53.687950 -2.035783 34,000 325 463 0
2020-01-20 09:44:03 GMT 53.681622 -2.028108 34,000 325 463 0
2020-01-20 09:44:00 GMT 53.675426 -2.020677 34,000 325 463 0
2020-01-20 09:43:54 GMT 53.665375 -2.008559 34,000 325 463 0
2020-01-20 09:43:51 GMT 53.661942 -2.004377 34,000 325 463 0
2020-01-20 09:43:48 GMT 53.653473 -1.994176 34,000 325 463 0
2020-01-20 09:43:45 GMT 53.649776 -1.989737 34,000 325 463 0
2020-01-20 09:43:42 GMT 53.640747 -1.978873 34,000 325 463 0
2020-01-20 09:43:39 GMT 53.640747 -1.978873 34,000 325 463 0
2020-01-20 09:43:36 GMT 53.634789 -1.971723 34,000 325 463 0
2020-01-20 09:43:33 GMT 53.629761 -1.965664 34,000 325 463 0
2020-01-20 09:43:30 GMT 53.625320 -1.960275 34,000 325 463 0
2020-01-20 09:43:27 GMT 53.614746 -1.947562 34,000 325 463 0
2020-01-20 09:43:21 GMT 53.610069 -1.941914 34,000 325 463 0
2020-01-20 09:43:18 GMT 53.598038 -1.927473 34,000 325 463 0
2020-01-20 09:43:15 GMT 53.598038 -1.927473 34,000 325 463 0
2020-01-20 09:43:12 GMT 53.592911 -1.921273 34,000 325 463 0
2020-01-20 09:43:09 GMT 53.588837 -1.916330 34,000 325 463 0
2020-01-20 09:43:06 GMT 53.582882 -1.909278 34,000 325 463 0
2020-01-20 09:43:03 GMT 53.576935 -1.902126 34,000 325 463 0
2020-01-20 09:43:00 GMT 53.571987 -1.896192 34,000 325 463 0
2020-01-20 09:42:57 GMT 53.562679 -1.885044 34,000 325 463 -64
2020-01-20 09:42:54 GMT 53.562679 -1.885044 34,000 325 463 0
2020-01-20 09:42:51 GMT 53.557323 -1.878581 34,000 325 462 0
2020-01-20 09:42:47 GMT 53.551041 -1.871069 34,000 325 463 0
2020-01-20 09:42:44 GMT 53.539352 -1.857082 34,000 325 462 0
2020-01-20 09:42:41 GMT 53.539352 -1.857082 34,000 325 461 0
2020-01-20 09:42:38 GMT 53.534050 -1.850792 34,000 325 461 0
2020-01-20 09:42:35 GMT 53.529510 -1.845311 34,000 325 461 0
2020-01-20 09:42:32 GMT 53.523193 -1.837777 34,000 325 462 0
2020-01-20 09:42:29 GMT 53.519165 -1.832912 34,000 325 461 0
2020-01-20 09:42:26 GMT 53.513893 -1.826558 34,000 325 461 0
2020-01-20 09:42:23 GMT 53.507095 -1.818480 34,000 325 461 0
2020-01-20 09:42:20 GMT 53.504608 -1.815491 34,000 325 461 0
2020-01-20 09:42:17 GMT 53.497467 -1.806937 34,000 325 461 0
2020-01-20 09:42:14 GMT 53.492573 -1.801112 34,000 325 461 0
2020-01-20 09:42:11 GMT 53.487171 -1.794649 34,000 325 461 0
2020-01-20 09:42:07 GMT 53.480164 -1.786298 34,000 325 461 0
2020-01-20 09:42:04 GMT 53.470505 -1.774763 34,000 325 461 0
2020-01-20 09:42:01 GMT 53.465805 -1.769122 34,000 325 461 0
2020-01-20 09:41:58 GMT 53.459656 -1.761736 34,000 325 461 0
2020-01-20 09:41:55 GMT 53.459656 -1.761736 34,000 325 461 0
2020-01-20 09:41:52 GMT 53.453384 -1.754281 34,000 325 461 0
2020-01-20 09:41:49 GMT 53.448074 -1.747925 34,000 325 461 0
2020-01-20 09:41:46 GMT 53.442947 -1.741818 34,000 325 461 0
2020-01-20 09:41:43 GMT 53.432465 -1.729405 34,000 325 461 0
2020-01-20 09:41:40 GMT 53.432465 -1.729405 34,000 325 461 -64
2020-01-20 09:41:37 GMT 53.427658 -1.723676 34,000 325 461 0
2020-01-20 09:41:34 GMT 53.424225 -1.719517 34,000 325 461 0
2020-01-20 09:41:31 GMT 53.418087 -1.712252 34,000 325 461 0
2020-01-20 09:41:28 GMT 53.413101 -1.706334 34,000 325 461 0
2020-01-20 09:41:25 GMT 53.406143 -1.698094 34,000 325 461 0
2020-01-20 09:41:22 GMT 53.401051 -1.692056 34,000 325 461 0
2020-01-20 09:41:19 GMT 53.396805 -1.687029 34,000 325 461 0
2020-01-20 09:41:16 GMT 53.391449 -1.680673 34,000 325 461 0
2020-01-20 09:41:13 GMT 53.387222 -1.675657 34,000 325 461 0
2020-01-20 09:41:10 GMT 53.381729 -1.669114 34,000 325 461 0
2020-01-20 09:41:07 GMT 53.375656 -1.661918 34,000 325 461 0
2020-01-20 09:41:04 GMT 53.370163 -1.655404 34,000 325 461 0
2020-01-20 09:41:01 GMT 53.365631 -1.650068 34,000 325 461 0
2020-01-20 09:40:58 GMT 53.360085 -1.643506 34,000 325 461 0
2020-01-20 09:40:55 GMT 53.354778 -1.637205 34,000 325 461 0
2020-01-20 09:40:52 GMT 53.351349 -1.633118 34,000 325 461 0
2020-01-20 09:40:49 GMT 53.338852 -1.618365 34,000 325 461 0
2020-01-20 09:40:45 GMT 53.338852 -1.618365 34,000 325 461 0
2020-01-20 09:40:42 GMT 53.333588 -1.612165 34,000 325 461 0
2020-01-20 09:40:39 GMT 53.327404 -1.604812 34,000 325 461 64
2020-01-20 09:40:36 GMT 53.322739 -1.599217 34,000 325 461 64
2020-01-20 09:40:33 GMT 53.317768 -1.593341 34,000 325 462 64
2020-01-20 09:40:30 GMT 53.312210 -1.586818 34,000 325 461 0
2020-01-20 09:40:27 GMT 53.307480 -1.581223 34,000 325 461 0
2020-01-20 09:40:24 GMT 53.300583 -1.573085 34,000 325 461 0
2020-01-20 09:40:21 GMT 53.296371 -1.568141 34,000 325 461 -64
2020-01-20 09:40:18 GMT 53.292114 -1.563041 34,000 325 461 0
2020-01-20 09:40:15 GMT 53.286812 -1.556827 34,000 325 461 0
2020-01-20 09:40:12 GMT 53.279922 -1.548668 34,000 325 461 0
2020-01-20 09:40:09 GMT 53.275269 -1.543187 34,000 325 461 0
2020-01-20 09:40:06 GMT 53.269215 -1.536066 34,000 325 461 0
2020-01-20 09:40:03 GMT 53.264603 -1.530631 34,000 325 462 0
2020-01-20 09:40:00 GMT 53.259109 -1.524118 34,000 325 462 0
2020-01-20 09:39:57 GMT 53.254738 -1.519021 34,000 325 462 0
2020-01-20 09:39:54 GMT 53.243610 -1.505854 34,000 325 462 64
2020-01-20 09:39:51 GMT 53.243610 -1.505854 34,000 325 462 0
2020-01-20 09:39:48 GMT 53.239105 -1.500575 34,000 325 462 0
2020-01-20 09:39:45 GMT 53.228851 -1.488567 34,000 325 462 0
2020-01-20 09:39:42 GMT 53.228851 -1.488567 34,000 325 462 -64
2020-01-20 09:39:39 GMT 53.223686 -1.482508 34,000 325 463 0
2020-01-20 09:39:36 GMT 53.217449 -1.475238 34,000 325 462 0
2020-01-20 09:39:33 GMT 53.212189 -1.469017 34,000 325 463 0
2020-01-20 09:39:30 GMT 53.203766 -1.459141 34,000 325 463 0
2020-01-20 09:39:24 GMT 53.197010 -1.451245 34,000 325 463 0
2020-01-20 09:39:21 GMT 53.191750 -1.445106 34,000 325 463 0
2020-01-20 09:39:18 GMT 53.186371 -1.438738 34,000 325 463 0
2020-01-20 09:39:15 GMT 53.181061 -1.432539 34,000 325 463 0
2020-01-20 09:39:12 GMT 53.176895 -1.427673 34,000 325 463 0
2020-01-20 09:39:09 GMT 53.170761 -1.420454 34,000 325 462 0
2020-01-20 09:39:06 GMT 53.164856 -1.413548 34,000 325 463 0
2020-01-20 09:39:03 GMT 53.159821 -1.407663 34,000 325 462 0
2020-01-20 09:38:59 GMT 53.152130 -1.398638 34,000 325 462 0
2020-01-20 09:38:56 GMT 53.148457 -1.394375 34,000 325 462 0
2020-01-20 09:38:53 GMT 53.144035 -1.389124 34,000 325 462 0
2020-01-20 09:38:50 GMT 53.137005 -1.380885 34,000 325 462 0
2020-01-20 09:38:47 GMT 53.127323 -1.369494 34,000 325 462 0
2020-01-20 09:38:44 GMT 53.127323 -1.369494 34,000 325 462 0
2020-01-20 09:38:41 GMT 53.122696 -1.364031 34,000 325 462 0
2020-01-20 09:38:38 GMT 53.116516 -1.356812 34,000 325 462 0
2020-01-20 09:38:35 GMT 53.110424 -1.349703 34,000 325 462 0
2020-01-20 09:38:32 GMT 53.104889 -1.343236 34,000 325 462 0
2020-01-20 09:38:29 GMT 53.101547 -1.339233 34,000 325 462 0
2020-01-20 09:38:26 GMT 53.094597 -1.331072 34,000 325 463 0
2020-01-20 09:38:23 GMT 53.085297 -1.320190 34,000 325 463 64
2020-01-20 09:38:20 GMT 53.079987 -1.314011 34,000 325 463 0
2020-01-20 09:38:17 GMT 53.079987 -1.314011 34,000 325 463 0
2020-01-20 09:38:14 GMT 53.074532 -1.307608 34,000 325 463 0
2020-01-20 09:38:11 GMT 53.069092 -1.301193 34,000 325 463 0
2020-01-20 09:38:08 GMT 53.064754 -1.296151 34,000 325 463 0
2020-01-20 09:38:05 GMT 53.059868 -1.290423 34,000 325 463 -64
2020-01-20 09:38:02 GMT 53.049442 -1.278259 34,000 325 463 -64
2020-01-20 09:37:56 GMT 53.042736 -1.270412 34,000 325 463 0
2020-01-20 09:37:53 GMT 53.038330 -1.265259 34,000 325 463 0
2020-01-20 09:37:50 GMT 53.033611 -1.259739 34,000 325 463 64
2020-01-20 09:37:47 GMT 53.027420 -1.252598 34,000 325 461 384
2020-01-20 09:37:44 GMT 53.022858 -1.247262 34,000 325 462 192
2020-01-20 09:37:41 GMT 53.017597 -1.241141 33,975 325 462 256
2020-01-20 09:37:38 GMT 53.010635 -1.232986 33,950 325 461 448
2020-01-20 09:37:35 GMT 53.005169 -1.226624 33,925 325 459 768
2020-01-20 09:37:32 GMT 53.002235 -1.223171 33,850 325 460 576
2020-01-20 09:37:29 GMT 52.996078 -1.216049 33,875 325 460 576
2020-01-20 09:37:26 GMT 52.991947 -1.211243 33,825 325 460 640
2020-01-20 09:37:23 GMT 52.986832 -1.205368 33,775 325 459 768
2020-01-20 09:37:20 GMT 52.979378 -1.196647 33,800 325 459 768
2020-01-20 09:37:17 GMT 52.974445 -1.190918 33,700 325 459 832
2020-01-20 09:37:14 GMT 52.970303 -1.186131 33,675 325 459 896
2020-01-20 09:37:11 GMT 52.963924 -1.178755 33,650 325 459 896
2020-01-20 09:37:08 GMT 52.958588 -1.172485 33,600 325 459 832
2020-01-20 09:37:05 GMT 52.953964 -1.167145 33,575 325 459 832
2020-01-20 09:37:02 GMT 52.949295 -1.161728 33,550 325 459 832
2020-01-20 09:36:59 GMT 52.944370 -1.155997 33,275 326 458 896
2020-01-20 09:36:56 GMT 52.937435 -1.147914 33,425 325 459 768
2020-01-20 09:36:53 GMT 52.932587 -1.142349 33,375 326 458 832
2020-01-20 09:36:50 GMT 52.928787 -1.137924 33,350 326 458 832
2020-01-20 09:36:47 GMT 52.921886 -1.129944 33,300 326 458 832
2020-01-20 09:36:44 GMT 52.912903 -1.119461 33,250 326 458 960
2020-01-20 09:36:41 GMT 52.912903 -1.119461 32,375 326 458 1024
2020-01-20 09:36:35 GMT 52.901543 -1.106323 33,100 325 458 1024
2020-01-20 09:36:32 GMT 52.896194 -1.100159 33,075 326 458 1088
2020-01-20 09:36:29 GMT 52.891159 -1.094284 33,050 326 458 1088
2020-01-20 09:36:26 GMT 52.886742 -1.089216 33,000 326 458 1088
2020-01-20 09:36:23 GMT 52.881912 -1.083527 32,900 326 458 1088
2020-01-20 09:36:17 GMT 52.872822 -1.073050 32,825 326 458 1152
2020-01-20 09:36:14 GMT 52.866486 -1.065750 32,675 326 458 1216
2020-01-20 09:36:11 GMT 52.861927 -1.060495 32,675 326 458 1216
2020-01-20 09:36:08 GMT 52.849869 -1.046524 32,575 326 459 1216
2020-01-20 09:36:05 GMT 52.849869 -1.046524 32,525 326 459 1216
2020-01-20 09:36:02 GMT 52.844696 -1.040573 32,500 326 459 1216
2020-01-20 09:35:59 GMT 52.840420 -1.035618 32,400 326 459 1216
2020-01-20 09:35:56 GMT 52.835346 -1.029811 32,325 326 460 1152
2020-01-20 09:35:53 GMT 52.829315 -1.022873 32,325 326 460 1152
2020-01-20 09:35:50 GMT 52.825562 -1.018524 32,275 326 460 1152
2020-01-20 09:35:47 GMT 52.817734 -1.009521 32,075 326 461 1152
2020-01-20 09:35:44 GMT 52.812771 -1.003836 32,150 326 461 1152
2020-01-20 09:35:41 GMT 52.809128 -0.999680 32,075 326 461 1216
2020-01-20 09:35:38 GMT 52.803551 -0.993243 31,950 326 463 1664
2020-01-20 09:35:35 GMT 52.797501 -0.986258 31,975 326 461 1280
2020-01-20 09:35:32 GMT 52.793823 -0.982021 31,150 326 466 1792
2020-01-20 09:35:29 GMT 52.787769 -0.975115 31,775 326 461 1472
2020-01-20 09:35:26 GMT 52.782742 -0.969230 31,700 326 463 1664
2020-01-20 09:35:23 GMT 52.776764 -0.962372 31,700 326 463 1664
2020-01-20 09:35:20 GMT 52.771683 -0.956573 31,600 326 464 1728
2020-01-20 09:35:17 GMT 52.768311 -0.952672 31,350 326 464 1728
2020-01-20 09:35:14 GMT 52.755386 -0.937881 31,375 326 465 1792
2020-01-20 09:35:11 GMT 52.755386 -0.937881 31,225 326 466 1856
2020-01-20 09:35:07 GMT 52.748337 -0.929718 31,225 326 466 1920
2020-01-20 09:35:04 GMT 52.743759 -0.924530 31,075 326 469 2112
2020-01-20 09:35:01 GMT 52.732281 -0.911316 30,900 326 469 2112
2020-01-20 09:34:58 GMT 52.732281 -0.911316 30,825 326 471 2176
2020-01-20 09:34:55 GMT 52.728699 -0.907211 30,650 326 477 1088
2020-01-20 09:34:52 GMT 52.721664 -0.899152 30,725 326 475 1984
2020-01-20 09:34:49 GMT 52.716110 -0.892715 30,600 326 473 2048
2020-01-20 09:34:46 GMT 52.712215 -0.888245 30,475 326 474 1984
2020-01-20 09:34:43 GMT 52.704208 -0.879059 30,400 326 476 1920
2020-01-20 09:34:40 GMT 52.701370 -0.875854 30,300 326 476 1920
2020-01-20 09:34:37 GMT 52.696472 -0.870209 30,125 326 477 1792
2020-01-20 09:34:34 GMT 52.689499 -0.862270 30,050 326 477 1728
2020-01-20 09:34:31 GMT 52.683540 -0.855443 30,025 326 478 1536
2020-01-20 09:34:28 GMT 52.673439 -0.843828 29,875 326 478 1216
2020-01-20 09:34:25 GMT 52.673439 -0.843828 29,850 326 478 1088
2020-01-20 09:34:22 GMT 52.666035 -0.835353 29,800 326 478 1024
2020-01-20 09:34:19 GMT 52.663284 -0.832214 29,775 326 478 1024
2020-01-20 09:34:16 GMT 52.658020 -0.826187 29,750 326 477 1088
2020-01-20 09:34:13 GMT 52.645412 -0.811811 27,725 326 477 1088
2020-01-20 09:34:10 GMT 52.645412 -0.811811 29,600 326 477 1088
2020-01-20 09:34:07 GMT 52.640671 -0.806427 29,525 326 477 1088
2020-01-20 09:34:04 GMT 52.636383 -0.801531 29,450 326 476 1088
2020-01-20 09:34:01 GMT 52.630657 -0.795096 29,450 326 477 1088
2020-01-20 09:33:58 GMT 52.623535 -0.786935 29,375 326 476 1088
2020-01-20 09:33:55 GMT 52.618378 -0.781097 29,275 326 476 1088
2020-01-20 09:33:52 GMT 52.609661 -0.771162 29,250 326 475 1024
2020-01-20 09:33:49 GMT 52.602310 -0.762787 29,200 326 475 1024
2020-01-20 09:33:46 GMT 52.602310 -0.762787 29,175 326 475 1024
2020-01-20 09:33:43 GMT 52.598583 -0.758527 29,100 326 475 960
2020-01-20 09:33:40 GMT 52.591919 -0.750961 29,075 326 474 960
2020-01-20 09:33:37 GMT 52.586197 -0.744476 29,050 326 474 1024
2020-01-20 09:33:34 GMT 52.579681 -0.737104 28,950 326 474 1024
2020-01-20 09:33:31 GMT 52.576401 -0.733337 28,900 326 472 1088
2020-01-20 09:33:28 GMT 52.570976 -0.727138 28,850 326 472 1088
2020-01-20 09:33:25 GMT 52.559601 -0.714264 28,825 326 472 1088
2020-01-20 09:33:22 GMT 52.559601 -0.714264 28,775 326 472 1088
2020-01-20 09:33:19 GMT 52.554703 -0.708694 28,725 326 472 1152
2020-01-20 09:33:16 GMT 52.549622 -0.702972 28,675 326 472 1152
2020-01-20 09:33:13 GMT 52.543743 -0.696298 28,575 326 471 1216
2020-01-20 09:33:10 GMT 52.536163 -0.687637 28,500 326 471 1152
2020-01-20 09:33:07 GMT 52.533550 -0.684684 28,425 326 471 1152
2020-01-20 09:33:04 GMT 52.528061 -0.678482 28,400 326 470 1152
2020-01-20 09:33:01 GMT 52.521515 -0.671082 28,350 326 470 1152
2020-01-20 09:32:58 GMT 52.516323 -0.665222 28,300 326 470 1088
2020-01-20 09:32:55 GMT 52.513393 -0.661848 28,125 326 469 1152
2020-01-20 09:32:52 GMT 52.506130 -0.653687 28,225 326 468 1152
2020-01-20 09:32:49 GMT 52.500450 -0.647252 28,100 326 469 1152
2020-01-20 09:32:46 GMT 52.494736 -0.640793 28,025 326 468 1152
2020-01-20 09:32:43 GMT 52.490070 -0.635481 28,000 326 468 1152
2020-01-20 09:32:40 GMT 52.484623 -0.629360 27,975 326 468 1152
2020-01-20 09:32:37 GMT 52.474319 -0.617752 27,875 326 467 1152
2020-01-20 09:32:31 GMT 52.468098 -0.610761 27,775 326 467 1152
2020-01-20 09:32:28 GMT 52.457153 -0.598373 27,700 326 465 1088
2020-01-20 09:32:24 GMT 52.457153 -0.598373 27,600 326 465 1088
2020-01-20 09:32:21 GMT 52.450733 -0.591221 27,600 326 465 1024
2020-01-20 09:32:18 GMT 52.445751 -0.585571 27,550 326 464 1088
2020-01-20 09:32:15 GMT 52.439651 -0.578666 27,475 326 464 1216
2020-01-20 09:32:12 GMT 52.436142 -0.574722 27,450 326 464 1216
2020-01-20 09:32:09 GMT 52.429550 -0.567398 27,350 326 464 1280
2020-01-20 09:32:06 GMT 52.424286 -0.561523 27,300 326 463 1280
2020-01-20 09:32:03 GMT 52.418655 -0.555191 26,850 327 459 1024
2020-01-20 09:32:00 GMT 52.413445 -0.549395 27,225 326 462 1152
2020-01-20 09:31:57 GMT 52.407486 -0.542755 27,150 326 462 1088
2020-01-20 09:31:54 GMT 52.403996 -0.538958 27,075 326 460 1024
2020-01-20 09:31:51 GMT 52.393890 -0.527802 27,025 327 460 960
2020-01-20 09:31:48 GMT 52.388351 -0.521694 26,975 327 459 1024
2020-01-20 09:31:45 GMT 52.388351 -0.521694 26,900 327 459 1088
2020-01-20 09:31:42 GMT 52.382671 -0.515494 26,875 327 457 1024
2020-01-20 09:31:39 GMT 52.375969 -0.508196 26,750 327 456 960
2020-01-20 09:31:36 GMT 52.371361 -0.503174 26,775 327 457 1024
2020-01-20 09:31:33 GMT 52.367065 -0.498657 26,725 327 456 1024
2020-01-20 09:31:30 GMT 52.360886 -0.492031 26,675 328 456 1024
2020-01-20 09:31:27 GMT 52.355068 -0.485910 26,600 328 454 1024
2020-01-20 09:31:24 GMT 52.351204 -0.481829 26,500 328 454 1088
2020-01-20 09:31:21 GMT 52.345047 -0.475464 26,525 328 453 1088
2020-01-20 09:31:18 GMT 52.339508 -0.469818 26,475 329 453 1152
2020-01-20 09:31:15 GMT 52.335022 -0.465317 26,425 329 452 1216
2020-01-20 09:31:12 GMT 52.328384 -0.458679 26,325 330 451 1280
2020-01-20 09:31:09 GMT 52.322529 -0.452951 26,300 330 450 1280
2020-01-20 09:31:06 GMT 52.319035 -0.449576 26,200 330 450 1280
2020-01-20 09:31:03 GMT 52.313358 -0.444162 26,100 331 449 1280
2020-01-20 09:31:00 GMT 52.307491 -0.438668 26,075 331 449 1280
2020-01-20 09:30:57 GMT 52.302883 -0.434431 26,025 331 448 1280
2020-01-20 09:30:54 GMT 52.297714 -0.429801 25,925 332 447 1344
2020-01-20 09:30:51 GMT 52.290688 -0.423523 25,900 332 447 1344
2020-01-20 09:30:48 GMT 52.284348 -0.418015 25,875 332 446 1344
2020-01-20 09:30:45 GMT 52.278992 -0.413361 25,200 335 440 1408
2020-01-20 09:30:42 GMT 52.274048 -0.409317 25,675 335 441 1344
2020-01-20 09:30:39 GMT 52.268738 -0.404968 25,575 335 441 1280
2020-01-20 09:30:36 GMT 52.265076 -0.402069 25,525 335 440 1280
2020-01-20 09:30:33 GMT 52.257259 -0.396057 25,500 335 441 1344
2020-01-20 09:30:30 GMT 52.251801 -0.391922 25,425 335 441 1280
2020-01-20 09:30:27 GMT 52.241760 -0.384208 25,325 335 440 1280
2020-01-20 09:30:24 GMT 52.241760 -0.384208 25,300 335 441 1344
2020-01-20 09:30:21 GMT 52.237244 -0.380755 25,175 335 440 1408
2020-01-20 09:30:18 GMT 52.229145 -0.374477 25,150 335 439 1408
2020-01-20 09:30:15 GMT 52.224583 -0.370946 25,075 335 440 1472
2020-01-20 09:30:12 GMT 52.220951 -0.368120 24,975 335 438 1536
2020-01-20 09:30:09 GMT 52.208382 -0.358311 24,900 335 438 1536
2020-01-20 09:30:06 GMT 52.208382 -0.358311 24,850 335 438 1536
2020-01-20 09:30:03 GMT 52.203213 -0.354231 24,575 335 437 1536
2020-01-20 09:30:00 GMT 52.197815 -0.350071 24,625 335 437 1536
2020-01-20 09:29:57 GMT 52.191833 -0.345383 24,575 335 437 1536
2020-01-20 09:29:54 GMT 52.186569 -0.341339 24,475 336 435 1408
2020-01-20 09:29:51 GMT 52.173096 -0.331473 24,450 336 435 1408
2020-01-20 09:29:48 GMT 52.173096 -0.331473 24,350 337 434 1344
2020-01-20 09:29:45 GMT 52.170227 -0.329590 24,325 339 433 1408
2020-01-20 09:29:39 GMT 52.158966 -0.322647 24,175 343 429 1472
2020-01-20 09:29:36 GMT 52.153244 -0.319672 24,125 344 428 1472
2020-01-20 09:29:33 GMT 52.147110 -0.316772 24,050 346 426 1472
2020-01-20 09:29:30 GMT 52.140324 -0.314052 24,000 348 424 1536
2020-01-20 09:29:27 GMT 52.134064 -0.311890 23,250 351 419 1792
2020-01-20 09:29:24 GMT 52.131317 -0.311050 23,575 350 423 1600
2020-01-20 09:29:21 GMT 52.118675 -0.307303 23,650 350 421 1408
2020-01-20 09:29:18 GMT 52.118675 -0.307303 23,675 350 421 1408
2020-01-20 09:29:15 GMT 52.112137 -0.305405 23,625 350 421 1408
2020-01-20 09:29:12 GMT 52.106667 -0.303772 23,575 350 420 1344
2020-01-20 09:29:09 GMT 52.100941 -0.302124 23,450 350 419 1536
2020-01-20 09:29:06 GMT 52.096050 -0.300633 23,400 350 418 1792
2020-01-20 09:29:03 GMT 52.091255 -0.299220 22,900 350 418 2240
2020-01-20 09:29:00 GMT 52.084717 -0.297241 23,100 350 418 2240
2020-01-20 09:28:57 GMT 52.071533 -0.293350 23,050 350 419 2240
2020-01-20 09:28:54 GMT 52.068493 -0.292472 22,875 351 419 1984
2020-01-20 09:28:51 GMT 52.068493 -0.292472 22,725 351 419 1920
2020-01-20 09:28:48 GMT 52.061371 -0.290527 22,775 351 419 1856
2020-01-20 09:28:45 GMT 52.054760 -0.288627 22,650 350 419 1728
2020-01-20 09:28:42 GMT 52.050110 -0.287323 22,600 350 418 1728
2020-01-20 09:28:39 GMT 52.045578 -0.286026 22,550 351 418 1792
2020-01-20 09:28:36 GMT 52.039581 -0.284310 22,475 351 418 1792
2020-01-20 09:28:33 GMT 52.033264 -0.282593 22,175 351 416 1728
2020-01-20 09:28:30 GMT 52.027359 -0.280914 22,250 351 415 1664
2020-01-20 09:28:27 GMT 52.022598 -0.279617 21,225 351 415 2368
2020-01-20 09:28:24 GMT 52.010834 -0.276337 21,375 351 402 1728
2020-01-20 09:28:21 GMT 52.010834 -0.276337 21,850 351 414 2048
2020-01-20 09:28:18 GMT 52.004929 -0.274734 21,750 351 414 2176
2020-01-20 09:28:15 GMT 51.998337 -0.272932 21,825 351 414 2176
2020-01-20 09:28:12 GMT 51.992294 -0.271225 21,650 351 414 2304
2020-01-20 09:28:09 GMT 51.988792 -0.270264 21,550 351 414 2368
2020-01-20 09:28:06 GMT 51.981125 -0.268173 21,325 351 415 2368
2020-01-20 09:28:03 GMT 51.977142 -0.267105 21,350 351 415 2368
2020-01-20 09:28:00 GMT 51.964680 -0.263672 21,150 351 415 1856
2020-01-20 09:27:57 GMT 51.964680 -0.263672 21,075 351 415 1408
2020-01-20 09:27:54 GMT 51.959698 -0.262338 21,000 351 415 640
2020-01-20 09:27:51 GMT 51.953835 -0.260690 21,000 350 413 320
2020-01-20 09:27:48 GMT 51.948807 -0.259199 21,000 352 399 1792
2020-01-20 09:27:45 GMT 51.943039 -0.257568 21,000 350 413 384
2020-01-20 09:27:42 GMT 51.931686 -0.254364 20,950 350 412 704
2020-01-20 09:27:39 GMT 51.931686 -0.254364 20,900 352 399 1792
2020-01-20 09:27:36 GMT 51.925369 -0.252609 20,850 351 409 1152
2020-01-20 09:27:33 GMT 51.920151 -0.251083 20,825 351 406 1280
2020-01-20 09:27:30 GMT 51.912914 -0.249076 20,775 351 406 1408
2020-01-20 09:27:27 GMT 51.902618 -0.246277 20,600 351 404 1600
2020-01-20 09:27:24 GMT 51.902618 -0.246277 20,550 351 404 1664
2020-01-20 09:27:21 GMT 51.896896 -0.244751 20,350 352 400 1728
2020-01-20 09:27:18 GMT 51.892365 -0.243555 19,575 351 402 1728
2020-01-20 09:27:15 GMT 51.886986 -0.242233 20,225 352 400 1728
2020-01-20 09:27:12 GMT 51.880737 -0.240586 20,225 352 400 1728
2020-01-20 09:27:09 GMT 51.875153 -0.239175 20,150 352 400 1728
2020-01-20 09:27:06 GMT 51.869659 -0.237839 20,050 352 399 1856
2020-01-20 09:27:03 GMT 51.864872 -0.236588 19,900 352 398 1984
2020-01-20 09:27:00 GMT 51.860355 -0.235443 19,825 352 398 2048
2020-01-20 09:26:57 GMT 51.852997 -0.233608 19,675 351 398 2176
2020-01-20 09:26:54 GMT 51.848347 -0.232391 19,625 351 398 2176
2020-01-20 09:26:51 GMT 51.840664 -0.230331 19,550 351 398 2176
2020-01-20 09:26:48 GMT 51.838013 -0.229645 19,200 351 397 2048
2020-01-20 09:26:42 GMT 51.822235 -0.225294 19,200 350 397 1920
2020-01-20 09:26:39 GMT 51.822235 -0.225294 19,075 350 397 1920
2020-01-20 09:26:36 GMT 51.814636 -0.223141 19,000 351 395 1920
2020-01-20 09:26:33 GMT 51.810173 -0.221863 18,975 351 395 1920
2020-01-20 09:26:30 GMT 51.801235 -0.219421 18,800 351 394 1984
2020-01-20 09:26:24 GMT 51.788944 -0.215988 18,575 351 393 2048
2020-01-20 09:26:21 GMT 51.788944 -0.215988 18,475 351 393 2048
2020-01-20 09:26:18 GMT 51.784431 -0.214767 18,375 351 392 2048
2020-01-20 09:26:15 GMT 51.777328 -0.212823 18,300 351 392 2048
2020-01-20 09:26:12 GMT 51.773769 -0.211792 18,250 351 392 1984
2020-01-20 09:26:09 GMT 51.762497 -0.208666 18,100 351 391 2048
2020-01-20 09:26:06 GMT 51.757141 -0.207181 17,975 350 390 2112
2020-01-20 09:26:03 GMT 51.757141 -0.207181 17,850 350 390 2112
2020-01-20 09:26:00 GMT 51.751190 -0.205474 17,800 350 390 2112
2020-01-20 09:25:57 GMT 51.747574 -0.204435 17,650 350 390 2112
2020-01-20 09:25:54 GMT 51.734528 -0.200653 17,375 350 389 2112
2020-01-20 09:25:51 GMT 51.734528 -0.200653 17,425 350 389 2112
2020-01-20 09:25:48 GMT 51.731174 -0.199661 17,375 350 389 2112
2020-01-20 09:25:45 GMT 51.725876 -0.198051 17,225 350 388 2048
2020-01-20 09:25:42 GMT 51.720566 -0.196492 16,850 350 386 1984
2020-01-20 09:25:39 GMT 51.714462 -0.194626 17,025 350 387 1984
2020-01-20 09:25:36 GMT 51.702667 -0.191073 16,900 350 386 1984
2020-01-20 09:25:30 GMT 51.698822 -0.189885 16,850 350 386 1920
2020-01-20 09:25:27 GMT 51.694656 -0.188623 16,675 350 384 1984
2020-01-20 09:25:24 GMT 51.683716 -0.185283 16,550 350 384 2048
2020-01-20 09:25:21 GMT 51.683716 -0.185283 16,425 350 383 2112
2020-01-20 09:25:18 GMT 51.677582 -0.183501 16,375 350 382 2112
2020-01-20 09:25:15 GMT 51.671776 -0.181732 16,275 350 382 2112
2020-01-20 09:25:12 GMT 51.666458 -0.180161 16,225 350 382 2112
2020-01-20 09:25:09 GMT 51.662277 -0.178833 16,050 350 380 1984
2020-01-20 09:25:06 GMT 51.657436 -0.177383 14,400 351 372 1856
2020-01-20 09:25:03 GMT 51.651104 -0.175400 15,600 350 380 1984
2020-01-20 09:25:00 GMT 51.646263 -0.173874 15,750 350 378 2048
2020-01-20 09:24:57 GMT 51.640537 -0.172119 15,350 350 378 2048
2020-01-20 09:24:54 GMT 51.636978 -0.171030 15,500 350 378 2048
2020-01-20 09:24:51 GMT 51.629597 -0.168762 15,275 350 376 2240
2020-01-20 09:24:48 GMT 51.624573 -0.167170 15,275 350 377 2240
2020-01-20 09:24:45 GMT 51.619034 -0.165537 15,200 350 377 2240
2020-01-20 09:24:42 GMT 51.614548 -0.164201 15,175 350 377 2240
2020-01-20 09:24:39 GMT 51.608368 -0.162430 14,950 351 375 2048
2020-01-20 09:24:36 GMT 51.604458 -0.161362 14,875 351 374 1984
2020-01-20 09:24:33 GMT 51.601433 -0.160522 14,825 351 374 1984
2020-01-20 09:24:30 GMT 51.594032 -0.158463 14,675 351 373 1984
2020-01-20 09:24:27 GMT 51.589283 -0.157166 14,625 351 372 1984
2020-01-20 09:24:24 GMT 51.585697 -0.156174 14,525 351 372 1856
2020-01-20 09:24:21 GMT 51.578903 -0.154190 14,450 350 371 1728
2020-01-20 09:24:18 GMT 51.569275 -0.151359 14,250 350 368 1472
2020-01-20 09:24:15 GMT 51.569275 -0.151359 14,225 340 363 2240
2020-01-20 09:24:12 GMT 51.564102 -0.149726 14,175 348 366 1536
2020-01-20 09:24:09 GMT 51.558651 -0.147858 14,125 343 364 1792
2020-01-20 09:24:06 GMT 51.553940 -0.146014 14,025 343 364 1792
2020-01-20 09:24:03 GMT 51.550644 -0.144577 13,975 345 365 1664
2020-01-20 09:24:00 GMT 51.545334 -0.142154 13,850 342 363 1920
2020-01-20 09:23:57 GMT 51.539425 -0.139008 13,675 340 362 2752
2020-01-20 09:23:54 GMT 51.534760 -0.136364 13,550 340 363 2176
2020-01-20 09:23:51 GMT 51.530365 -0.133692 13,600 340 362 2368
2020-01-20 09:23:48 GMT 51.526611 -0.131539 13,425 340 362 2688
2020-01-20 09:23:45 GMT 51.521393 -0.128421 13,300 340 362 2880
2020-01-20 09:23:42 GMT 51.515762 -0.125155 13,100 340 362 3008
2020-01-20 09:23:39 GMT 51.511826 -0.122780 13,075 340 363 2944
2020-01-20 09:23:36 GMT 51.508118 -0.120627 12,925 340 363 2816
2020-01-20 09:23:33 GMT 51.503254 -0.117722 12,675 340 364 2560
2020-01-20 09:23:30 GMT 51.498734 -0.115060 11,475 339 328 1216
2020-01-20 09:23:27 GMT 51.493332 -0.111868 12,525 340 361 2176
2020-01-20 09:23:24 GMT 51.488892 -0.109269 12,325 340 362 2240
2020-01-20 09:23:21 GMT 51.484867 -0.106812 12,300 340 361 2176
2020-01-20 09:23:18 GMT 51.478088 -0.102811 12,150 340 361 2048
2020-01-20 09:23:15 GMT 51.473648 -0.100213 12,025 340 359 1920
2020-01-20 09:23:12 GMT 51.469711 -0.097838 11,950 340 358 1600
2020-01-20 09:23:09 GMT 51.465733 -0.095520 11,900 340 358 1600
2020-01-20 09:23:06 GMT 51.460876 -0.092641 11,800 340 356 1472
2020-01-20 09:23:03 GMT 51.456608 -0.090103 11,725 340 354 1216
2020-01-20 09:23:00 GMT 51.447113 -0.084457 11,600 340 349 1152
2020-01-20 09:22:57 GMT 51.447113 -0.084457 11,600 340 348 1216
2020-01-20 09:22:54 GMT 51.442364 -0.081635 11,500 340 346 1152
2020-01-20 09:22:51 GMT 51.437801 -0.078888 11,500 340 345 1152
2020-01-20 09:22:48 GMT 51.432404 -0.075642 11,450 340 342 1152
2020-01-20 09:22:45 GMT 51.429886 -0.074083 11,375 340 340 1088
2020-01-20 09:22:42 GMT 51.422951 -0.069885 11,325 340 339 1088
2020-01-20 09:22:39 GMT 51.414276 -0.064582 11,250 340 335 1088
2020-01-20 09:22:36 GMT 51.414276 -0.064582 11,200 340 332 1152
2020-01-20 09:22:33 GMT 51.411453 -0.062790 11,175 339 331 1152
2020-01-20 09:22:30 GMT 51.406239 -0.059586 11,100 339 328 1216
2020-01-20 09:22:27 GMT 51.401909 -0.056915 11,050 339 327 1280
2020-01-20 09:22:24 GMT 51.394135 -0.052109 10,850 339 322 1344
2020-01-20 09:22:21 GMT 51.394135 -0.052109 10,875 339 322 1344
2020-01-20 09:22:17 GMT 51.388641 -0.048696 10,800 339 320 1280
2020-01-20 09:22:14 GMT 51.384594 -0.046234 10,800 339 316 1088
2020-01-20 09:22:11 GMT 51.379257 -0.042906 10,675 339 316 1088
2020-01-20 09:22:08 GMT 51.376465 -0.041124 10,650 339 313 1088
2020-01-20 09:22:05 GMT 51.372536 -0.038681 10,625 339 311 1088
2020-01-20 09:22:02 GMT 51.367134 -0.035248 10,525 338 302 832
2020-01-20 09:21:59 GMT 51.364014 -0.033256 10,500 339 306 960
2020-01-20 09:21:56 GMT 51.355682 -0.027924 10,400 338 303 896
2020-01-20 09:21:53 GMT 51.355682 -0.027924 10,375 338 302 832
2020-01-20 09:21:49 GMT 51.350842 -0.024796 10,350 338 295 576
2020-01-20 09:21:46 GMT 51.347717 -0.022715 10,325 338 299 768
2020-01-20 09:21:43 GMT 51.344231 -0.020447 10,275 337 288 384
2020-01-20 09:21:40 GMT 51.338924 -0.016861 10,250 337 288 384
2020-01-20 09:21:37 GMT 51.335945 -0.014877 10,225 338 280 704
2020-01-20 09:21:34 GMT 51.332794 -0.012694 10,225 337 285 384
2020-01-20 09:21:31 GMT 51.329453 -0.010467 10,200 337 281 512
2020-01-20 09:21:28 GMT 51.325798 -0.008011 10,125 338 277 1152
2020-01-20 09:21:25 GMT 51.317917 -0.002821 10,050 339 275 1536
2020-01-20 09:21:22 GMT 51.317917 -0.002821 10,000 340 273 1792
2020-01-20 09:21:19 GMT 51.314575 -0.000891 9,875 343 271 1920
2020-01-20 09:21:16 GMT 51.312019 0.000534 9,800 345 270 1856
2020-01-20 09:21:13 GMT 51.307755 0.002524 9,650 348 268 1792
2020-01-20 09:21:10 GMT 51.304138 0.003637 9,575 354 264 1728
2020-01-20 09:21:07 GMT 51.296188 0.004196 9,525 0 261 1728
2020-01-20 09:21:04 GMT 51.296188 0.004196 9,450 6 257 1728
2020-01-20 09:20:58 GMT 51.289856 0.002598 8,875 19 252 1856
2020-01-20 09:20:55 GMT 51.287109 0.001336 9,225 19 252 1856
2020-01-20 09:20:52 GMT 51.282486 -0.001707 9,150 23 251 1856
2020-01-20 09:20:48 GMT 51.279476 -0.004425 8,975 35 248 1856
2020-01-20 09:20:45 GMT 51.276127 -0.008316 8,900 39 248 1728
2020-01-20 09:20:42 GMT 51.274078 -0.011368 8,775 46 247 1664
2020-01-20 09:20:39 GMT 51.271843 -0.015259 8,750 54 247 1792
2020-01-20 09:20:36 GMT 51.269119 -0.021230 8,625 57 246 1920
2020-01-20 09:20:33 GMT 51.266350 -0.029144 8,350 66 248 2496
2020-01-20 09:20:30 GMT 51.266350 -0.029144 8,350 65 247 2368
2020-01-20 09:20:27 GMT 51.264862 -0.034147 8,250 66 248 2688
2020-01-20 09:20:24 GMT 51.263512 -0.039215 8,125 66 250 2880
2020-01-20 09:20:21 GMT 51.262394 -0.043335 8,050 66 250 2944
2020-01-20 09:20:18 GMT 51.260880 -0.049142 7,925 66 252 2880
2020-01-20 09:20:15 GMT 51.259415 -0.054550 7,675 66 254 2432
2020-01-20 09:20:12 GMT 51.257996 -0.059979 7,675 67 254 2432
2020-01-20 09:20:09 GMT 51.256302 -0.066215 7,425 66 254 2176
2020-01-20 09:20:06 GMT 51.254791 -0.071560 7,375 65 254 2176
2020-01-20 09:20:03 GMT 51.253735 -0.075455 7,275 65 254 2176
2020-01-20 09:20:00 GMT 51.252274 -0.080542 7,050 65 253 2304
2020-01-20 09:19:57 GMT 51.250801 -0.085831 7,025 65 254 2304
2020-01-20 09:19:54 GMT 51.249268 -0.091095 6,650 65 253 2304
2020-01-20 09:19:50 GMT 51.245869 -0.102615 6,675 64 254 2304
2020-01-20 09:19:47 GMT 51.244720 -0.106597 6,600 65 253 2304
2020-01-20 09:19:41 GMT 51.243027 -0.112381 6,325 65 253 2240
2020-01-20 09:19:38 GMT 51.241119 -0.119171 6,325 66 253 2304
2020-01-20 09:19:35 GMT 51.240097 -0.122705 6,250 65 254 2176
2020-01-20 09:19:32 GMT 51.238403 -0.128792 6,100 66 253 2240
2020-01-20 09:19:27 GMT 51.236206 -0.136661 5,875 66 253 2304
2020-01-20 09:19:24 GMT 51.234741 -0.142080 5,825 66 253 2112
2020-01-20 09:19:21 GMT 51.231995 -0.152250 5,650 66 253 1472
2020-01-20 09:19:18 GMT 51.231995 -0.152250 5,650 66 253 1472
2020-01-20 09:19:14 GMT 51.229946 -0.159760 5,525 66 255 1728
2020-01-20 09:19:11 GMT 51.228790 -0.163978 5,375 66 256 2240
2020-01-20 09:19:08 GMT 51.226875 -0.170898 5,325 66 256 2304
2020-01-20 09:19:05 GMT 51.225662 -0.175095 5,250 65 256 2304
2020-01-20 09:19:02 GMT 51.224407 -0.179520 5,175 65 255 2368
2020-01-20 09:18:59 GMT 51.223160 -0.183873 5,025 65 255 2432
2020-01-20 09:18:56 GMT 51.221237 -0.190776 4,850 65 256 2304
2020-01-20 09:18:53 GMT 51.220264 -0.194092 4,775 65 256 1984
2020-01-20 09:18:50 GMT 51.218445 -0.200723 4,675 65 256 1536
2020-01-20 09:18:47 GMT 51.215652 -0.210522 4,375 65 257 1664
2020-01-20 09:18:41 GMT 51.214397 -0.214767 4,400 65 256 2048
2020-01-20 09:18:38 GMT 51.212303 -0.222092 4,275 65 255 2304
2020-01-20 09:18:35 GMT 51.210766 -0.227509 4,225 65 255 2240
2020-01-20 09:18:32 GMT 51.209335 -0.232569 4,050 65 255 2240
2020-01-20 09:18:28 GMT 51.208099 -0.236874 4,000 65 255 2240
2020-01-20 09:18:25 GMT 51.204807 -0.248566 3,675 65 254 2048
2020-01-20 09:18:22 GMT 51.204807 -0.248566 3,675 65 254 2048
2020-01-20 09:18:19 GMT 51.203384 -0.253651 3,625 66 253 1920
2020-01-20 09:18:15 GMT 51.201176 -0.261612 3,425 66 251 1664
2020-01-20 09:18:12 GMT 51.200180 -0.265231 3,425 64 235 640
2020-01-20 09:18:09 GMT 51.198441 -0.271318 3,325 65 244 1088
2020-01-20 09:18:06 GMT 51.196976 -0.276662 3,275 65 246 1088
2020-01-20 09:18:03 GMT 51.194687 -0.284605 3,225 65 239 768
2020-01-20 09:17:57 GMT 51.192902 -0.290544 3,175 63 232 704
2020-01-20 09:17:54 GMT 51.191307 -0.295639 3,125 62 230 960
2020-01-20 09:17:50 GMT 51.189606 -0.300639 3,100 61 228 1344
2020-01-20 09:17:47 GMT 51.188049 -0.304871 2,900 56 226 1600
2020-01-20 09:17:44 GMT 51.186375 -0.308838 2,850 47 225 1536
2020-01-20 09:17:41 GMT 51.183628 -0.313873 1,650 25 225 2048
2020-01-20 09:17:38 GMT 51.181717 -0.316696 2,700 36 226 1664
2020-01-20 09:17:35 GMT 51.179535 -0.319272 2,675 32 226 1792
2020-01-20 09:17:31 GMT 51.173244 -0.324326 2,475 21 225 2112
2020-01-20 09:17:25 GMT 51.169739 -0.325952 2,325 5 224 1920
2020-01-20 09:17:20 GMT 51.164913 -0.326996 2,150 1 225 1920
2020-01-20 09:17:16 GMT 51.160862 -0.326920 2,075 347 224 1792
2020-01-20 09:17:12 GMT 51.155930 -0.325470 1,875 343 223 1728
2020-01-20 09:17:09 GMT 51.154438 -0.324707 1,825 341 222 1728
2020-01-20 09:17:06 GMT 51.151062 -0.322538 1,575 333 221 1856
2020-01-20 09:17:02 GMT 51.147594 -0.319366 1,525 320 221 1920
2020-01-20 09:16:59 GMT 51.145409 -0.316849 1,475 309 220 1600
2020-01-20 09:16:56 GMT 51.142799 -0.312958 1,400 311 221 1728
2020-01-20 09:16:51 GMT 51.139343 -0.305390 1,275 302 219 1344
2020-01-20 09:16:48 GMT 51.138332 -0.302353 1,250 298 218 1280
2020-01-20 09:16:44 GMT 51.136982 -0.296936 1,075 278 212 960
2020-01-20 09:16:38 GMT 51.135910 -0.288391 1,050 273 211 832
2020-01-20 09:16:35 GMT 51.135864 -0.282972 1,000 267 208 768
2020-01-20 09:16:32 GMT 51.136093 -0.279186 950 261 203 448
2020-01-20 09:16:29 GMT 51.136642 -0.273693 950 260 199 640
2020-01-20 09:16:23 GMT 51.137634 -0.265503 875 259 185 512
2020-01-20 09:16:20 GMT 51.138153 -0.261371 875 259 189 512
2020-01-20 09:16:17 GMT 51.138889 -0.255356 850 259 182 640
2020-01-20 09:16:11 GMT 51.139633 -0.249710 775 259 178 1216
2020-01-20 09:16:08 GMT 51.140213 -0.245411 675 258 177 2304
2020-01-20 09:16:02 GMT 51.141171 -0.238190 475 258 179 2752
2020-01-20 09:15:58 GMT 51.141964 -0.232239 250 258 179 2688
2020-01-20 09:15:52 GMT 51.142960 -0.225294 0 257 178 2432
2020-01-20 09:15:47 GMT 51.143917 -0.218964 -225 257 179 2176
2020-01-20 09:15:43 GMT 51.144882 -0.212600 -400 256 177 1856
2020-01-20 09:15:37 GMT 51.145966 -0.205765 -600 257 175 1792
2020-01-20 09:15:25 GMT 51.147995 -0.191296 -725 258 158 192
2020-01-20 09:15:07 GMT 51.150204 -0.175419 -700 258 108 64
2020-01-20 09:14:52 GMT 51.151062 -0.169175 0 255 15
2020-01-20 09:14:45 GMT 51.151142 -0.168655 0 250 7
2020-01-20 09:14:34 GMT 51.151203 -0.168228 0 222 6
2020-01-20 09:14:24 GMT 51.151402 -0.167942 0 182 6
2020-01-20 09:14:14 GMT 51.151669 -0.167904 0 160 6
2020-01-20 09:14:02 GMT 51.151947 -0.168037 0 132 6
2020-01-20 09:13:52 GMT 51.152138 -0.168358 0 104 6
2020-01-20 09:13:42 GMT 51.152206 -0.168711 0 87 5
2020-01-20 09:11:19 GMT 51.152184 -0.169249 0 75 3
2020-01-20 09:11:09 GMT 51.152126 -0.169601 0 75 8
2020-01-20 09:11:06 GMT 51.152103 -0.169768 0 75 9
2020-01-20 09:10:41 GMT 51.151897 -0.171253 0 78 9
2020-01-20 09:10:32 GMT 51.151844 -0.171719 0 81 7
2020-01-20 09:10:25 GMT 51.151787 -0.172081 0 106 7
2020-01-20 09:10:13 GMT 51.151920 -0.172552 0 143 6
2020-01-20 09:10:03 GMT 51.152206 -0.172886 0 146 9
2020-01-20 09:09:53 GMT 51.152493 -0.173220 0 151 9
2020-01-20 09:09:40 GMT 51.152962 -0.173512 0 168 9
2020-01-20 09:09:30 GMT 51.153362 -0.173666 0 168 10
2020-01-20 09:09:22 GMT 51.153694 -0.173759 0 168 9
2020-01-20 09:09:11 GMT 51.154106 -0.173907 0 168 8
2020-01-20 09:09:00 GMT 51.154484 -0.174037 0 168 8
2020-01-20 09:08:36 GMT 51.155296 -0.174334 0 174 8
2020-01-20 09:08:25 GMT 51.155628 -0.174389 0 213 8
2020-01-20 09:08:02 GMT 51.155994 -0.173332 0 255 8
2020-01-20 09:07:55 GMT 51.156067 -0.172901 0 255 10
2020-01-20 09:07:47 GMT 51.156151 -0.172405 0 255 9

Making use of Plane Finder data

You are free to use the raw flight data, aircraft information and images provided in this report for your own purposes provided the data is correctly attributed to Plane Finder. We ask that you please credit Plane Finder and link to planefinder.net in close proximity to the content.

Optionally one of the following logos (no smaller then 150x24px) can be used and must link to planefinder.net

Embedding the Plane Finder map

You are welcome to embed the Plane Finder playback map on your website to offer visitors a more interactive experience. We suggest using the following HTML code:

<iframe src="//planefinder.net/data/report/BA2277-G-YMMB-7700-squawk-2020-01-20/map" width="800" height="600" seamless="seamless"></iframe>

Where our data comes from

Plane Finder has a global network of data feeds and antenna radars that receive data broadcast directly from aircraft. The primary technologies used are ADS-B and MLAT. We also show feeds from the FAA and a FLARM glider feed.

Click here to find out more about the Plane Finder network.

How we collect our data